APL 2024 Jan

¥188,000,000 GTD

28. Januar -18. Februar

¥20 MILLION GTD MAIN EVENT

SONNTAG, 18. Feb. @ 13:00 UTC

WILLKOMMEN BEI

  • Feiern Sie das chinesische Neujahrsfest mit Asiens größter Serie
  • ¥188 Millionen an Gesamtgarantien
  • 25 prestigeträchtige Trophäen mit Avataren der Sonderausgabe
  • Verpassen Sie nicht das ¥20 Millionen GTD Green Dragon Main Event
  • Gewinnen Sie Ihren Anteil von ¥5 Millionen aus den Red Envelope Cash Drops

TROPHÄENPLAN

DATUM DAY UTC CST EVENT BUY-IN GTD
28. Januar Sonne 11:00 19:00 #1: APL 2024 Tip-Off ¥550 ¥2,024,000
29. Januar Mo 11:00 19:00 #Nr. 2: Zodiac Rat Serieneröffner ¥188 ¥800,000
30. Januar Di 11:00 19:00 #Nr. 3: Sternzeichen Ochse Stärkster Stapel ¥330 ¥1,000,000
31. Januar Mi 11:00 19:00 #Nr. 4: Zodiac Tiger King Asia Bounty ¥1,050 ¥1,500,000
1. Februar Thu 11:00 19:00 #Nr. 5: Zodiac Rabbit Lucky Mystery Bounty ¥840 ¥2,000,000
2. Februar Fr 11:00 19:00 #Nr. 6: Zodiac Dragon PLO-NL High Roller ¥8,000 ¥1,000,000
3. Februar Sat 11:00 19:00 #Nr. 7: Zodiac Snake Bounty 6-Max Special ¥630 ¥1,500,000
4. Februar Sonne 11:00 19:00 #Nr. 8: Zodiac Goat Sunday SHR ¥20,240 ¥5,000,000
4. Februar Sonne 13:00 21:00 #9: Wintermeisterschaft [Finaltag] ¥880 ¥8,000,000
5. Februar Mo 11:00 19:00 #10: Zodiac Big Horse Montag Marathon ¥1,100 ¥1,500,000
6. Februar Di 11:00 19:00 #11: Zodiac-Affenkönig Wukong-Kopfgeld ¥215 ¥800,000
7. Februar Mi 11:00 19:00 #12: Sternzeichen Hahn APL Spezial ¥550 ¥1,000,000
8. Februar Thu 11:00 19:00 #Nr. 13: Zodiac Dog Ultra Deepstack [Turbo] ¥1,100 ¥1,000,000
9. Februar Fr 11:00 19:00 #14: Frühlingsfest des Tierkreisschweins [Bounty] ¥330 ¥1,000,000
10. Februar Sat 11:00 19:00 #15: Zodiac Frohes Neues Jahr Feier ¥888 ¥1,500,000
11. Februar Sonne 11:00 19:00 #Nr. 16: Baby Dragon Mini Main [2-Tages-Event] ¥388 ¥2,000,000
11. Februar Sonne 13:00 21:00 #17: Lunar Mystery Bounty [Letzte Etappe] ¥2,024 ¥10,000,000
12. Februar Mo 11:00 19:00 #Nr. 18: Sanya Bay Shooting Star ¥550 ¥1,000,000
13. Februar Di 11:00 19:00 #19: Kunming König der Berge [6-Max] ¥660 ¥1,000,000
14. Februar Mi 11:00 19:00 #Nr. 20: Xi'an Seidenstraße Bounty ¥840 ¥2,000,000
15. Februar Thu 11:00 19:00 #21: Chengdu-Riesenpanda-Riesenstapel ¥1,100 ¥1,500,000
16. Februar Fr 11:00 19:00 #Nr. 22: Shenzhen-Wolkenkratzer-Bounty ¥2,200 ¥2,000,000
17. Februar Sat 11:00 19:00 #23: Shanghai Masters of Poker ¥5,500 ¥2,500,000
18. Februar Sonne 11:00 19:00 #Nr. 24: Peking-Kopfgeld-Millionen [Mystery Bounty] ¥10,300 ¥3,500,000
18. Februar Sonne 13:00 21:00 #Nr. 25: Green Dragon Hauptevent [Tag 2] ¥1,888 ¥20,000,000

VOLLER ZEITPLAN

DATUM DAY UTC CTS EVENT BUY-IN GTD
28. Januar Sonne 5:00 13:00 APL-Serie: ¥550 Sonntagsöffner ¥550 ¥60,000
28. Januar Sonne 5:00 13:00 APL-Serie: ¥88 Sternzeichen-Rattenöffner ¥88 ¥30,000
28. Januar Sonne 6:00 14:00 APL-Serie: ¥1.100 Sonntag High Roller Deepstack ¥1,100 ¥88,000
28. Januar Sonne 6:00 14:00 APL-Serie: ¥330 Zodiac Ox Strong Stack ¥330 ¥60,000
28. Januar Sonne 7:00 15:00 APL-Serie: ¥1.050 Sonntag High Roller Bounty ¥1,050 ¥88,000
28. Januar Sonne 7:00 15:00 APL-Serie: ¥108 Zodiac Tiger King Bounty ¥108 ¥70,000
28. Januar Sonne 8:00 16:00 APL-Serie: ¥220 Sonntags-Klassiker ¥220 ¥50,000
28. Januar Sonne 8:00 16:00 APL-Serie: ¥85.50 Zodiac-Kaninchen Glückskopfgeld ¥85.5 ¥60,000
28. Januar Sonne 9:00 17:00 APL-Serie: ¥80 Sonntags-Klassiker ¥80 ¥35,000
28. Januar Sonne 9:00 17:00 APL-Serie: ¥800 Zodiac Dragon High Roller ¥800 ¥150,000
28. Januar Sonne 9:30 17:30 APL-Serie: ¥630 Sonntags-Prämie [6-Max] ¥630 ¥150,000
28. Januar Sonne 9:30 17:30 APL-Serie: ¥64.50 Zodiac-Schlangen-Bounty [6-Max] ¥64.5 ¥60,000
28. Januar Sonne 10:00 18:00 APL-Serie: ¥1,100 Sonntags-Marathon ¥1,100 ¥200,000
28. Januar Sonne 10:00 18:00 APL-Serie: ¥110 Zodiac Pferd Marathon ¥110 ¥70,000
28. Januar Sonne 10:30 18:30 APL-Serie: ¥840 Sonntags-Prämie ¥840 ¥200,000
28. Januar Sonne 10:30 18:30 APL-Serie: ¥85.50 Sonntags-Prämie ¥85.5 ¥100,000
28. Januar Sonne 11:00 19:00 APL-Serie: ¥220 Sonntags-Klassiker ¥220 ¥125,000
28. Januar Sonne 11:00 19:00 APL-Serie: ¥2.024 Zodiac Ziege High Roller ¥2,024 ¥388,000
28. Januar Sonne 11:30 19:30 APL-Serie: ¥2.100 Sonntags-High-Roller-Bounty ¥2,100 ¥388,000
28. Januar Sonne 11:30 19:30 APL-Serie: ¥215 Zodiac-Affenkönig-Kopfgeld ¥215 ¥188,000
28. Januar Sonne 12:00 20:00 APL-Serie: ¥388 Zodiac Hauptveranstaltung, ¥500K GTD ¥388 ¥700,000
28. Januar Sonne 13:00 21:00 APL-Serie: ¥550 Sonntags-Deepstack ¥550 ¥300,000
28. Januar Sonne 13:00 21:00 APL-Serie: ¥10.300 Sonntag HR Hauptevent ¥10,300 ¥1,000,000
28. Januar Sonne 13:00 21:00 APL-Serie: ¥50 Zodiac-Hahn-Sonnenuntergang-Spezial ¥50 ¥60,000
28. Januar Sonne 13:10 21:10 APL-Serie: ¥3,150 Kurzdeck-Kopfgeld HR ¥3,150 ¥125,000
28. Januar Sonne 13:10 21:10 APL-Serie: ¥320 Short Deck Bounty ¥320 ¥50,000
28. Januar Sonne 13:40 21:40 APL-Serie: ¥5.250 PLO-NL-Kopfgeld HR ¥5,250 ¥150,000
28. Januar Sonne 13:40 21:40 APL-Serie: ¥530 PLO-NL-Bounty ¥530 ¥60,000
28. Januar Sonne 14:00 22:00 APL-Serie: ¥1.100 Sonntags-Klassiker ¥1,100 ¥388,000
28. Januar Sonne 14:00 22:00 APL-Serie: ¥110 Zodiac Dog Ultra Deepstack Turbo ¥110 ¥80,000
28. Januar Sonne 14:10 22:10 APL-Serie: ¥8,000 Kurzes Deck HR [3-Stapel] ¥8,000 ¥188,000
28. Januar Sonne 14:10 22:10 APL-Serie: ¥800 Short Deck [3-Stapel] ¥800 ¥50,000
28. Januar Sonne 14:30 22:30 APL-Serie: ¥3.150 Sonntags-High-Roller-Bounty ¥3,150 ¥600,000
28. Januar Sonne 14:30 22:30 APL-Serie: ¥320 Zodiac-Schwein-Schmaus ¥320 ¥388,000
28. Januar Sonne 14:40 22:40 APL-Serie: ¥1.100 PLO-NL Klassisch ¥1,100 ¥60,000
28. Januar Sonne 15:00 23:00 APL-Serie: ¥800 Sonntag 6-Max ¥800 ¥388,000
28. Januar Sonne 15:00 23:00 APL-Serie: ¥5.500 Sonntag High Roller 6-Max ¥5,500 ¥700,000
28. Januar Sonne 15:00 23:00 APL-Serie: ¥25,500 Sonntag SHR ¥25,500 ¥1,000,000
28. Januar Sonne 15:10 23:10 APL-Serie: ¥5.250 Kurzdeck-Kopfgeld HR ¥5,250 ¥200,000
28. Januar Sonne 15:10 23:10 APL-Serie: ¥530 Short Deck Bounty [Turbo] ¥530 ¥50,000
28. Januar Sonne 15:40 23:40 APL-Serie: ¥5.250 PLO-NL-Kopfgeld High Roller ¥5,250 ¥200,000
28. Januar Sonne 15:40 23:40 APL-Serie: ¥530 PLO-NL Bounty [Turbo] ¥530 ¥50,000
28. Januar Sonne 16:00 0:00 APL-Serie: ¥51,000 Sonntag Ultra HR ¥51,000 ¥1,000,000
28. Januar Sonne 16:00 0:00 APL-Serie: ¥330 Midnight Madness [Hyper] ¥330 ¥150,000
28. Januar Sonne 16:30 0:30 APL-Serie: ¥2,100 Speed Racer Kopfgeld Schließer HR ¥2,100 ¥100,000
28. Januar Sonne 16:30 0:30 APL-Serie: ¥215 Speed Racer Kopfgeldjäger ¥215 ¥70,000
28. Januar Sonne 16:40 0:40 APL-Serie: ¥1.100 PLO-NL Hundertstapel ¥1,100 ¥80,000
28. Januar Sonne 16:40 0:40 APL-Serie: ¥10.300 PLO-NL Hundertstapel HR ¥10,300 ¥200,000
29. Januar Mo 5:00 13:00 APL-Serie: ¥550 Daily Opener ¥550 ¥60,000
29. Januar Mo 5:00 13:00 APL-Serie: ¥88 Sternzeichen-Rattenöffner ¥88 ¥30,000
29. Januar Mo 5:00 13:00 APL-Serie: ¥550 Daily Opener ¥550 ¥60,000
29. Januar Mo 5:00 13:00 APL-Serie: ¥88 Sternzeichen-Rattenöffner ¥88 ¥30,000
29. Januar Mo 6:00 14:00 APL-Serie: ¥1.100 Deepstack High Roller ¥1,100 ¥80,000
29. Januar Mo 6:00 14:00 APL-Serie: ¥330 Zodiac Ox Strong Stack ¥330 ¥70,000
29. Januar Mo 6:00 14:00 APL-Serie: ¥1.100 Deepstack High Roller ¥1,100 ¥80,000
29. Januar Mo 6:00 14:00 APL-Serie: ¥330 Zodiac Ox Strong Stack ¥330 ¥70,000
29. Januar Mo 7:00 15:00 APL-Serie: ¥1.050 Bounty High Roller ¥1,050 ¥100,000
29. Januar Mo 7:00 15:00 APL-Serie: ¥108 Zodiac Tiger King Bounty ¥108 ¥70,000
29. Januar Mo 7:00 15:00 APL-Serie: ¥1.050 Bounty High Roller ¥1,050 ¥100,000
29. Januar Mo 7:00 15:00 APL-Serie: ¥108 Zodiac Tiger King Bounty ¥108 ¥70,000
29. Januar Mo 8:00 16:00 APL-Serie: ¥220 Hold'em Klassisch ¥220 ¥50,000
29. Januar Mo 8:00 16:00 APL-Serie: ¥85.50 Zodiac-Kaninchen Glückskopfgeld ¥85.5 ¥50,000
29. Januar Mo 8:00 16:00 APL-Serie: ¥220 Hold'em Klassisch ¥220 ¥50,000
29. Januar Mo 8:00 16:00 APL-Serie: ¥85.50 Zodiac-Kaninchen Glückskopfgeld ¥85.5 ¥50,000
29. Januar Mo 9:00 17:00 APL-Serie: ¥80 Hold'em Klassisch ¥80 ¥30,000
29. Januar Mo 9:00 17:00 APL-Serie: ¥800 Zodiac Dragon High Roller ¥800 ¥100,000
29. Januar Mo 9:00 17:00 APL-Serie: ¥80 Hold'em Klassisch ¥80 ¥30,000
29. Januar Mo 9:00 17:00 APL-Serie: ¥800 Zodiac Dragon High Roller ¥800 ¥100,000
29. Januar Mo 9:30 17:30 APL-Serie: ¥630 Hold'em-Kopfgeld [6-Max] ¥630 ¥120,000
29. Januar Mo 9:30 17:30 APL-Serie: ¥64.50 Zodiac-Schlangen-Bounty [6-Max] ¥64.5 ¥50,000
29. Januar Mo 9:30 17:30 APL-Serie: ¥630 Hold'em-Kopfgeld [6-Max] ¥630 ¥120,000
29. Januar Mo 9:30 17:30 APL-Serie: ¥64.50 Zodiac-Schlangen-Bounty [6-Max] ¥64.5 ¥50,000
29. Januar Mo 10:00 18:00 APL-Serie: ¥1.100 Hold'em-Marathon ¥1,100 ¥88,000
29. Januar Mo 10:00 18:00 APL-Serie: ¥110 Zodiac Pferd Marathon ¥110 ¥50,000
29. Januar Mo 10:00 18:00 APL-Serie: ¥1.100 Hold'em-Marathon ¥1,100 ¥88,000
29. Januar Mo 10:00 18:00 APL-Serie: ¥110 Zodiac Pferd Marathon ¥110 ¥50,000
29. Januar Mo 10:30 18:30 APL-Serie: ¥840 Hold'em-Kopfgeld ¥840 ¥125,000
29. Januar Mo 10:30 18:30 APL-Serie: ¥85.50 Hold'em-Kopfgeld ¥85.5 ¥60,000
29. Januar Mo 10:30 18:30 APL-Serie: ¥840 Hold'em-Kopfgeld ¥840 ¥125,000
29. Januar Mo 10:30 18:30 APL-Serie: ¥85.50 Hold'em-Kopfgeld ¥85.5 ¥60,000
29. Januar Mo 11:00 19:00 APL-Serie: ¥2.024 Zodiac Ziege High Roller ¥2,024 ¥130,000
29. Januar Mo 11:00 19:00 APL-Serie: ¥2.024 Zodiac Ziege High Roller ¥2,024 ¥130,000
29. Januar Mo 11:30 19:30 APL-Serie: ¥2.100 Bounty High Roller ¥2,100 ¥130,000
29. Januar Mo 11:30 19:30 APL-Serie: ¥215 Zodiac-Affenkönig-Kopfgeld ¥215 ¥125,000
29. Januar Mo 11:30 19:30 APL-Serie: ¥2.100 Bounty High Roller ¥2,100 ¥130,000
29. Januar Mo 11:30 19:30 APL-Serie: ¥215 Zodiac-Affenkönig-Kopfgeld ¥215 ¥125,000
29. Januar Mo 12:00 20:00 APL-Serie: ¥388 Zodiac Hauptveranstaltung, ¥250K GTD ¥388 ¥300,000
29. Januar Mo 12:00 20:00 APL-Serie: ¥388 Zodiac Hauptveranstaltung, ¥250K GTD ¥388 ¥300,000
29. Januar Mo 13:00 21:00 APL-Serie: ¥5.500 Deepstack High Roller ¥5,500 ¥200,000
29. Januar Mo 13:00 21:00 APL-Serie: ¥550 Hold'em Deepstack ¥550 ¥100,000
29. Januar Mo 13:00 21:00 APL-Serie: ¥50 Zodiac-Hahn-Sonnenuntergang-Spezial ¥50 ¥35,000
29. Januar Mo 13:00 21:00 APL-Serie: ¥5.500 Deepstack High Roller ¥5,500 ¥200,000
29. Januar Mo 13:00 21:00 APL-Serie: ¥550 Hold'em Deepstack ¥550 ¥100,000
29. Januar Mo 13:00 21:00 APL-Serie: ¥50 Zodiac-Hahn-Sonnenuntergang-Spezial ¥50 ¥35,000
29. Januar Mo 13:10 21:10 APL-Serie: ¥3,150 Kurzdeck-Kopfgeld HR ¥3,150 ¥88,000
29. Januar Mo 13:10 21:10 APL-Serie: ¥320 Short Deck Bounty ¥320 ¥25,000
29. Januar Mo 13:10 21:10 APL-Serie: ¥3,150 Kurzdeck-Kopfgeld HR ¥3,150 ¥88,000
29. Januar Mo 13:10 21:10 APL-Serie: ¥320 Short Deck Bounty ¥320 ¥25,000
29. Januar Mo 13:40 21:40 APL-Serie: ¥5.250 PLO-NL-Kopfgeld HR ¥5,250 ¥88,000
29. Januar Mo 13:40 21:40 APL-Serie: ¥530 PLO-NL-Bounty ¥530 ¥30,000
29. Januar Mo 13:40 21:40 APL-Serie: ¥5.250 PLO-NL-Kopfgeld HR ¥5,250 ¥88,000
29. Januar Mo 13:40 21:40 APL-Serie: ¥530 PLO-NL-Bounty ¥530 ¥30,000
29. Januar Mo 14:00 22:00 APL-Serie: ¥1.100 Hold'em Klassisch ¥1,100 ¥100,000
29. Januar Mo 14:00 22:00 APL-Serie: ¥110 Zodiac Dog Ultra Deepstack Turbo ¥110 ¥50,000
29. Januar Mo 14:00 22:00 APL-Serie: ¥1.100 Hold'em Klassisch ¥1,100 ¥100,000
29. Januar Mo 14:00 22:00 APL-Serie: ¥110 Zodiac Dog Ultra Deepstack Turbo ¥110 ¥50,000
29. Januar Mo 14:10 22:10 APL-Serie: ¥8,000 Kurzes Deck HR [3-Stapel] ¥8,000 ¥100,000
29. Januar Mo 14:10 22:10 APL-Serie: ¥800 Short Deck [3-Stapel] ¥800 ¥25,000
29. Januar Mo 14:10 22:10 APL-Serie: ¥8,000 Kurzes Deck HR [3-Stapel] ¥8,000 ¥100,000
29. Januar Mo 14:10 22:10 APL-Serie: ¥800 Short Deck [3-Stapel] ¥800 ¥25,000
29. Januar Mo 14:30 22:30 APL-Serie: ¥3.150 Bounty High Roller ¥3,150 ¥180,000
29. Januar Mo 14:30 22:30 APL-Serie: ¥320 Zodiac-Schwein-Schmaus ¥320 ¥180,000
29. Januar Mo 14:30 22:30 APL-Serie: ¥3.150 Bounty High Roller ¥3,150 ¥180,000
29. Januar Mo 14:30 22:30 APL-Serie: ¥320 Zodiac-Schwein-Schmaus ¥320 ¥180,000
29. Januar Mo 14:40 22:40 APL-Serie: ¥1.100 PLO-NL Klassisch ¥1,100 ¥25,000
29. Januar Mo 14:40 22:40 APL-Serie: ¥1.100 PLO-NL Klassisch ¥1,100 ¥25,000
29. Januar Mo 15:00 23:00 APL-Serie: ¥5.500 High Roller 6-Max ¥5,500 ¥250,000
29. Januar Mo 15:00 23:00 APL-Serie: ¥800 Hold'em 6-Max ¥800 ¥150,000
29. Januar Mo 15:00 23:00 APL-Serie: ¥5.500 High Roller 6-Max ¥5,500 ¥250,000
29. Januar Mo 15:00 23:00 APL-Serie: ¥800 Hold'em 6-Max ¥800 ¥150,000
29. Januar Mo 15:10 23:10 APL-Serie: ¥530 Short Deck Bounty [Turbo] ¥530 ¥30,000
29. Januar Mo 15:10 23:10 APL-Serie: ¥530 Short Deck Bounty [Turbo] ¥530 ¥30,000
29. Januar Mo 15:40 23:40 APL-Serie: ¥530 PLO-NL Bounty [Turbo] ¥530 ¥30,000
29. Januar Mo 15:40 23:40 APL-Serie: ¥530 PLO-NL Bounty [Turbo] ¥530 ¥30,000
29. Januar Mo 16:00 0:00 APL-Serie: ¥330 Midnight Madness [Hyper] ¥330 ¥60,000
29. Januar Mo 16:00 0:00 APL-Serie: ¥330 Midnight Madness [Hyper] ¥330 ¥60,000
29. Januar Mo 16:30 0:30 APL-Serie: ¥2,100 Speed Racer Kopfgeld Schließer HR ¥2,100 ¥75,000
29. Januar Mo 16:30 0:30 APL-Serie: ¥215 Speed Racer Kopfgeldjäger ¥215 ¥50,000
29. Januar Mo 16:30 0:30 APL-Serie: ¥2,100 Speed Racer Kopfgeld Schließer HR ¥2,100 ¥75,000
29. Januar Mo 16:30 0:30 APL-Serie: ¥215 Speed Racer Kopfgeldjäger ¥215 ¥50,000
30. Januar Di 5:00 13:00 APL-Serie: ¥550 Daily Opener ¥550 ¥60,000
30. Januar Di 5:00 13:00 APL-Serie: ¥88 Sternzeichen-Rattenöffner ¥88 ¥30,000
30. Januar Di 5:00 13:00 APL-Serie: ¥550 Daily Opener ¥550 ¥60,000
30. Januar Di 5:00 13:00 APL-Serie: ¥88 Sternzeichen-Rattenöffner ¥88 ¥30,000
30. Januar Di 6:00 14:00 APL-Serie: ¥1.100 Deepstack High Roller ¥1,100 ¥80,000
30. Januar Di 6:00 14:00 APL-Serie: ¥330 Zodiac Ox Strong Stack ¥330 ¥70,000
30. Januar Di 6:00 14:00 APL-Serie: ¥1.100 Deepstack High Roller ¥1,100 ¥80,000
30. Januar Di 6:00 14:00 APL-Serie: ¥330 Zodiac Ox Strong Stack ¥330 ¥70,000
30. Januar Di 7:00 15:00 APL-Serie: ¥1.050 Bounty High Roller ¥1,050 ¥100,000
30. Januar Di 7:00 15:00 APL-Serie: ¥108 Zodiac Tiger King Bounty ¥108 ¥70,000
30. Januar Di 7:00 15:00 APL-Serie: ¥1.050 Bounty High Roller ¥1,050 ¥100,000
30. Januar Di 7:00 15:00 APL-Serie: ¥108 Zodiac Tiger King Bounty ¥108 ¥70,000
30. Januar Di 8:00 16:00 APL-Serie: ¥220 Hold'em Klassisch ¥220 ¥50,000
30. Januar Di 8:00 16:00 APL-Serie: ¥85.50 Zodiac-Kaninchen Glückskopfgeld ¥85.5 ¥50,000
30. Januar Di 8:00 16:00 APL-Serie: ¥220 Hold'em Klassisch ¥220 ¥50,000
30. Januar Di 8:00 16:00 APL-Serie: ¥85.50 Zodiac-Kaninchen Glückskopfgeld ¥85.5 ¥50,000
30. Januar Di 9:00 17:00 APL-Serie: ¥80 Hold'em Klassisch ¥80 ¥30,000
30. Januar Di 9:00 17:00 APL-Serie: ¥800 Zodiac Dragon High Roller ¥800 ¥100,000
30. Januar Di 9:00 17:00 APL-Serie: ¥80 Hold'em Klassisch ¥80 ¥30,000
30. Januar Di 9:00 17:00 APL-Serie: ¥800 Zodiac Dragon High Roller ¥800 ¥100,000
30. Januar Di 9:30 17:30 APL-Serie: ¥630 Hold'em-Kopfgeld [6-Max] ¥630 ¥120,000
30. Januar Di 9:30 17:30 APL-Serie: ¥64.50 Zodiac-Schlangen-Bounty [6-Max] ¥64.5 ¥50,000
30. Januar Di 9:30 17:30 APL-Serie: ¥630 Hold'em-Kopfgeld [6-Max] ¥630 ¥120,000
30. Januar Di 9:30 17:30 APL-Serie: ¥64.50 Zodiac-Schlangen-Bounty [6-Max] ¥64.5 ¥50,000
30. Januar Di 10:00 18:00 APL-Serie: ¥1.100 Hold'em-Marathon ¥1,100 ¥88,000
30. Januar Di 10:00 18:00 APL-Serie: ¥110 Zodiac Pferd Marathon ¥110 ¥50,000
30. Januar Di 10:00 18:00 APL-Serie: ¥1.100 Hold'em-Marathon ¥1,100 ¥88,000
30. Januar Di 10:00 18:00 APL-Serie: ¥110 Zodiac Pferd Marathon ¥110 ¥50,000
30. Januar Di 10:30 18:30 APL-Serie: ¥840 Hold'em-Kopfgeld ¥840 ¥125,000
30. Januar Di 10:30 18:30 APL-Serie: ¥85.50 Hold'em-Kopfgeld ¥85.5 ¥60,000
30. Januar Di 10:30 18:30 APL-Serie: ¥840 Hold'em-Kopfgeld ¥840 ¥125,000
30. Januar Di 10:30 18:30 APL-Serie: ¥85.50 Hold'em-Kopfgeld ¥85.5 ¥60,000
30. Januar Di 11:00 19:00 APL-Serie: ¥2.024 Zodiac Ziege High Roller ¥2,024 ¥130,000
30. Januar Di 11:00 19:00 APL-Serie: ¥2.024 Zodiac Ziege High Roller ¥2,024 ¥130,000
30. Januar Di 11:30 19:30 APL-Serie: ¥2.100 Bounty High Roller ¥2,100 ¥130,000
30. Januar Di 11:30 19:30 APL-Serie: ¥215 Zodiac-Affenkönig-Kopfgeld ¥215 ¥125,000
30. Januar Di 11:30 19:30 APL-Serie: ¥2.100 Bounty High Roller ¥2,100 ¥130,000
30. Januar Di 11:30 19:30 APL-Serie: ¥215 Zodiac-Affenkönig-Kopfgeld ¥215 ¥125,000
30. Januar Di 12:00 20:00 APL-Serie: ¥388 Zodiac Hauptveranstaltung, ¥250K GTD ¥388 ¥300,000
30. Januar Di 12:00 20:00 APL-Serie: ¥388 Zodiac Hauptveranstaltung, ¥250K GTD ¥388 ¥300,000
30. Januar Di 13:00 21:00 APL-Serie: ¥5.500 Deepstack High Roller ¥5,500 ¥200,000
30. Januar Di 13:00 21:00 APL-Serie: ¥550 Hold'em Deepstack ¥550 ¥100,000
30. Januar Di 13:00 21:00 APL-Serie: ¥50 Zodiac-Hahn-Sonnenuntergang-Spezial ¥50 ¥35,000
30. Januar Di 13:00 21:00 APL-Serie: ¥5.500 Deepstack High Roller ¥5,500 ¥200,000
30. Januar Di 13:00 21:00 APL-Serie: ¥550 Hold'em Deepstack ¥550 ¥100,000
30. Januar Di 13:00 21:00 APL-Serie: ¥50 Zodiac-Hahn-Sonnenuntergang-Spezial ¥50 ¥35,000
30. Januar Di 13:10 21:10 APL-Serie: ¥3,150 Kurzdeck-Kopfgeld HR ¥3,150 ¥88,000
30. Januar Di 13:10 21:10 APL-Serie: ¥320 Short Deck Bounty ¥320 ¥25,000
30. Januar Di 13:10 21:10 APL-Serie: ¥3,150 Kurzdeck-Kopfgeld HR ¥3,150 ¥88,000
30. Januar Di 13:10 21:10 APL-Serie: ¥320 Short Deck Bounty ¥320 ¥25,000
30. Januar Di 13:40 21:40 APL-Serie: ¥5.250 PLO-NL-Kopfgeld HR ¥5,250 ¥88,000
30. Januar Di 13:40 21:40 APL-Serie: ¥530 PLO-NL-Bounty ¥530 ¥30,000
30. Januar Di 13:40 21:40 APL-Serie: ¥5.250 PLO-NL-Kopfgeld HR ¥5,250 ¥88,000
30. Januar Di 13:40 21:40 APL-Serie: ¥530 PLO-NL-Bounty ¥530 ¥30,000
30. Januar Di 14:00 22:00 APL-Serie: ¥1.100 Hold'em Klassisch ¥1,100 ¥100,000
30. Januar Di 14:00 22:00 APL-Serie: ¥110 Zodiac Dog Ultra Deepstack Turbo ¥110 ¥50,000
30. Januar Di 14:00 22:00 APL-Serie: ¥1.100 Hold'em Klassisch ¥1,100 ¥100,000
30. Januar Di 14:00 22:00 APL-Serie: ¥110 Zodiac Dog Ultra Deepstack Turbo ¥110 ¥50,000
30. Januar Di 14:10 22:10 APL-Serie: ¥8,000 Kurzes Deck HR [3-Stapel] ¥8,000 ¥100,000
30. Januar Di 14:10 22:10 APL-Serie: ¥800 Short Deck [3-Stapel] ¥800 ¥25,000
30. Januar Di 14:10 22:10 APL-Serie: ¥8,000 Kurzes Deck HR [3-Stapel] ¥8,000 ¥100,000
30. Januar Di 14:10 22:10 APL-Serie: ¥800 Short Deck [3-Stapel] ¥800 ¥25,000
30. Januar Di 14:30 22:30 APL-Serie: ¥3.150 Bounty High Roller ¥3,150 ¥180,000
30. Januar Di 14:30 22:30 APL-Serie: ¥320 Zodiac-Schwein-Schmaus ¥320 ¥180,000
30. Januar Di 14:30 22:30 APL-Serie: ¥3.150 Bounty High Roller ¥3,150 ¥180,000
30. Januar Di 14:30 22:30 APL-Serie: ¥320 Zodiac-Schwein-Schmaus ¥320 ¥180,000
30. Januar Di 14:40 22:40 APL-Serie: ¥1.100 PLO-NL Klassisch ¥1,100 ¥25,000
30. Januar Di 14:40 22:40 APL-Serie: ¥1.100 PLO-NL Klassisch ¥1,100 ¥25,000
30. Januar Di 15:00 23:00 APL-Serie: ¥5.500 High Roller 6-Max ¥5,500 ¥250,000
30. Januar Di 15:00 23:00 APL-Serie: ¥800 Hold'em 6-Max ¥800 ¥150,000
30. Januar Di 15:00 23:00 APL-Serie: ¥5.500 High Roller 6-Max ¥5,500 ¥250,000
30. Januar Di 15:00 23:00 APL-Serie: ¥800 Hold'em 6-Max ¥800 ¥150,000
30. Januar Di 15:10 23:10 APL-Serie: ¥530 Short Deck Bounty [Turbo] ¥530 ¥30,000
30. Januar Di 15:10 23:10 APL-Serie: ¥530 Short Deck Bounty [Turbo] ¥530 ¥30,000
30. Januar Di 15:40 23:40 APL-Serie: ¥530 PLO-NL Bounty [Turbo] ¥530 ¥30,000
30. Januar Di 15:40 23:40 APL-Serie: ¥530 PLO-NL Bounty [Turbo] ¥530 ¥30,000
30. Januar Di 16:00 0:00 APL-Serie: ¥330 Midnight Madness [Hyper] ¥330 ¥60,000
30. Januar Di 16:00 0:00 APL-Serie: ¥330 Midnight Madness [Hyper] ¥330 ¥60,000
30. Januar Di 16:30 0:30 APL-Serie: ¥2,100 Speed Racer Kopfgeld Schließer HR ¥2,100 ¥75,000
30. Januar Di 16:30 0:30 APL-Serie: ¥215 Speed Racer Kopfgeldjäger ¥215 ¥50,000
30. Januar Di 16:30 0:30 APL-Serie: ¥2,100 Speed Racer Kopfgeld Schließer HR ¥2,100 ¥75,000
30. Januar Di 16:30 0:30 APL-Serie: ¥215 Speed Racer Kopfgeldjäger ¥215 ¥50,000
31. Januar Mi 5:00 13:00 APL-Serie: ¥550 Daily Opener ¥550 ¥60,000
31. Januar Mi 5:00 13:00 APL-Serie: ¥88 Sternzeichen-Rattenöffner ¥88 ¥30,000
31. Januar Mi 5:00 13:00 APL-Serie: ¥550 Daily Opener ¥550 ¥60,000
31. Januar Mi 5:00 13:00 APL-Serie: ¥88 Sternzeichen-Rattenöffner ¥88 ¥30,000
31. Januar Mi 6:00 14:00 APL-Serie: ¥1.100 Deepstack High Roller ¥1,100 ¥80,000
31. Januar Mi 6:00 14:00 APL-Serie: ¥330 Zodiac Ox Strong Stack ¥330 ¥70,000
31. Januar Mi 6:00 14:00 APL-Serie: ¥1.100 Deepstack High Roller ¥1,100 ¥80,000
31. Januar Mi 6:00 14:00 APL-Serie: ¥330 Zodiac Ox Strong Stack ¥330 ¥70,000
31. Januar Mi 7:00 15:00 APL-Serie: ¥1.050 Bounty High Roller ¥1,050 ¥100,000
31. Januar Mi 7:00 15:00 APL-Serie: ¥108 Zodiac Tiger King Bounty ¥108 ¥70,000
31. Januar Mi 7:00 15:00 APL-Serie: ¥1.050 Bounty High Roller ¥1,050 ¥100,000
31. Januar Mi 7:00 15:00 APL-Serie: ¥108 Zodiac Tiger King Bounty ¥108 ¥70,000
31. Januar Mi 8:00 16:00 APL-Serie: ¥220 Hold'em Klassisch ¥220 ¥50,000
31. Januar Mi 8:00 16:00 APL-Serie: ¥85.50 Zodiac-Kaninchen Glückskopfgeld ¥85.5 ¥50,000
31. Januar Mi 8:00 16:00 APL-Serie: ¥220 Hold'em Klassisch ¥220 ¥50,000
31. Januar Mi 8:00 16:00 APL-Serie: ¥85.50 Zodiac-Kaninchen Glückskopfgeld ¥85.5 ¥50,000
31. Januar Mi 9:00 17:00 APL-Serie: ¥80 Hold'em Klassisch ¥80 ¥30,000
31. Januar Mi 9:00 17:00 APL-Serie: ¥800 Zodiac Dragon High Roller ¥800 ¥100,000
31. Januar Mi 9:00 17:00 APL-Serie: ¥80 Hold'em Klassisch ¥80 ¥30,000
31. Januar Mi 9:00 17:00 APL-Serie: ¥800 Zodiac Dragon High Roller ¥800 ¥100,000
31. Januar Mi 9:30 17:30 APL-Serie: ¥630 Hold'em-Kopfgeld [6-Max] ¥630 ¥120,000
31. Januar Mi 9:30 17:30 APL-Serie: ¥64.50 Zodiac-Schlangen-Bounty [6-Max] ¥64.5 ¥50,000
31. Januar Mi 9:30 17:30 APL-Serie: ¥630 Hold'em-Kopfgeld [6-Max] ¥630 ¥120,000
31. Januar Mi 9:30 17:30 APL-Serie: ¥64.50 Zodiac-Schlangen-Bounty [6-Max] ¥64.5 ¥50,000
31. Januar Mi 10:00 18:00 APL-Serie: ¥1.100 Hold'em-Marathon ¥1,100 ¥88,000
31. Januar Mi 10:00 18:00 APL-Serie: ¥110 Zodiac Pferd Marathon ¥110 ¥50,000
31. Januar Mi 10:00 18:00 APL-Serie: ¥1.100 Hold'em-Marathon ¥1,100 ¥88,000
31. Januar Mi 10:00 18:00 APL-Serie: ¥110 Zodiac Pferd Marathon ¥110 ¥50,000
31. Januar Mi 10:30 18:30 APL-Serie: ¥840 Hold'em-Kopfgeld ¥840 ¥125,000
31. Januar Mi 10:30 18:30 APL-Serie: ¥85.50 Hold'em-Kopfgeld ¥85.5 ¥60,000
31. Januar Mi 10:30 18:30 APL-Serie: ¥840 Hold'em-Kopfgeld ¥840 ¥125,000
31. Januar Mi 10:30 18:30 APL-Serie: ¥85.50 Hold'em-Kopfgeld ¥85.5 ¥60,000
31. Januar Mi 11:00 19:00 APL-Serie: ¥2.024 Zodiac Ziege High Roller ¥2,024 ¥130,000
31. Januar Mi 11:00 19:00 APL-Serie: ¥2.024 Zodiac Ziege High Roller ¥2,024 ¥130,000
31. Januar Mi 11:30 19:30 APL-Serie: ¥2.100 Bounty High Roller ¥2,100 ¥130,000
31. Januar Mi 11:30 19:30 APL-Serie: ¥215 Zodiac-Affenkönig-Kopfgeld ¥215 ¥125,000
31. Januar Mi 11:30 19:30 APL-Serie: ¥2.100 Bounty High Roller ¥2,100 ¥130,000
31. Januar Mi 11:30 19:30 APL-Serie: ¥215 Zodiac-Affenkönig-Kopfgeld ¥215 ¥125,000
31. Januar Mi 12:00 20:00 APL-Serie: ¥388 Zodiac Hauptveranstaltung, ¥250K GTD ¥388 ¥300,000
31. Januar Mi 12:00 20:00 APL-Serie: ¥388 Zodiac Hauptveranstaltung, ¥250K GTD ¥388 ¥300,000
31. Januar Mi 13:00 21:00 APL-Serie: ¥5.500 Deepstack High Roller ¥5,500 ¥200,000
31. Januar Mi 13:00 21:00 APL-Serie: ¥550 Hold'em Deepstack ¥550 ¥100,000
31. Januar Mi 13:00 21:00 APL-Serie: ¥50 Zodiac-Hahn-Sonnenuntergang-Spezial ¥50 ¥35,000
31. Januar Mi 13:00 21:00 APL-Serie: ¥5.500 Deepstack High Roller ¥5,500 ¥200,000
31. Januar Mi 13:00 21:00 APL-Serie: ¥550 Hold'em Deepstack ¥550 ¥100,000
31. Januar Mi 13:00 21:00 APL-Serie: ¥50 Zodiac-Hahn-Sonnenuntergang-Spezial ¥50 ¥35,000
31. Januar Mi 13:10 21:10 APL-Serie: ¥3,150 Kurzdeck-Kopfgeld HR ¥3,150 ¥88,000
31. Januar Mi 13:10 21:10 APL-Serie: ¥320 Short Deck Bounty ¥320 ¥25,000
31. Januar Mi 13:10 21:10 APL-Serie: ¥3,150 Kurzdeck-Kopfgeld HR ¥3,150 ¥88,000
31. Januar Mi 13:10 21:10 APL-Serie: ¥320 Short Deck Bounty ¥320 ¥25,000
31. Januar Mi 13:40 21:40 APL-Serie: ¥5.250 PLO-NL-Kopfgeld HR ¥5,250 ¥88,000
31. Januar Mi 13:40 21:40 APL-Serie: ¥530 PLO-NL-Bounty ¥530 ¥30,000
31. Januar Mi 13:40 21:40 APL-Serie: ¥5.250 PLO-NL-Kopfgeld HR ¥5,250 ¥88,000
31. Januar Mi 13:40 21:40 APL-Serie: ¥530 PLO-NL-Bounty ¥530 ¥30,000
31. Januar Mi 14:00 22:00 APL-Serie: ¥1.100 Hold'em Klassisch ¥1,100 ¥100,000
31. Januar Mi 14:00 22:00 APL-Serie: ¥110 Zodiac Dog Ultra Deepstack Turbo ¥110 ¥50,000
31. Januar Mi 14:00 22:00 APL-Serie: ¥1.100 Hold'em Klassisch ¥1,100 ¥100,000
31. Januar Mi 14:00 22:00 APL-Serie: ¥110 Zodiac Dog Ultra Deepstack Turbo ¥110 ¥50,000
31. Januar Mi 14:10 22:10 APL-Serie: ¥8,000 Kurzes Deck HR [3-Stapel] ¥8,000 ¥100,000
31. Januar Mi 14:10 22:10 APL-Serie: ¥800 Short Deck [3-Stapel] ¥800 ¥25,000
31. Januar Mi 14:10 22:10 APL-Serie: ¥8,000 Kurzes Deck HR [3-Stapel] ¥8,000 ¥100,000
31. Januar Mi 14:10 22:10 APL-Serie: ¥800 Short Deck [3-Stapel] ¥800 ¥25,000
31. Januar Mi 14:30 22:30 APL-Serie: ¥3.150 Bounty High Roller ¥3,150 ¥180,000
31. Januar Mi 14:30 22:30 APL-Serie: ¥320 Zodiac-Schwein-Schmaus ¥320 ¥180,000
31. Januar Mi 14:30 22:30 APL-Serie: ¥3.150 Bounty High Roller ¥3,150 ¥180,000
31. Januar Mi 14:30 22:30 APL-Serie: ¥320 Zodiac-Schwein-Schmaus ¥320 ¥180,000
31. Januar Mi 14:40 22:40 APL-Serie: ¥1.100 PLO-NL Klassisch ¥1,100 ¥25,000
31. Januar Mi 14:40 22:40 APL-Serie: ¥1.100 PLO-NL Klassisch ¥1,100 ¥25,000
31. Januar Mi 15:00 23:00 APL-Serie: ¥5.500 High Roller 6-Max ¥5,500 ¥250,000
31. Januar Mi 15:00 23:00 APL-Serie: ¥800 Hold'em 6-Max ¥800 ¥150,000
31. Januar Mi 15:00 23:00 APL-Serie: ¥5.500 High Roller 6-Max ¥5,500 ¥250,000
31. Januar Mi 15:00 23:00 APL-Serie: ¥800 Hold'em 6-Max ¥800 ¥150,000
31. Januar Mi 15:10 23:10 APL-Serie: ¥530 Short Deck Bounty [Turbo] ¥530 ¥30,000
31. Januar Mi 15:10 23:10 APL-Serie: ¥530 Short Deck Bounty [Turbo] ¥530 ¥30,000
31. Januar Mi 15:40 23:40 APL-Serie: ¥530 PLO-NL Bounty [Turbo] ¥530 ¥30,000
31. Januar Mi 15:40 23:40 APL-Serie: ¥530 PLO-NL Bounty [Turbo] ¥530 ¥30,000
31. Januar Mi 16:00 0:00 APL-Serie: ¥330 Midnight Madness [Hyper] ¥330 ¥60,000
31. Januar Mi 16:00 0:00 APL-Serie: ¥330 Midnight Madness [Hyper] ¥330 ¥60,000
31. Januar Mi 16:30 0:30 APL-Serie: ¥2,100 Speed Racer Kopfgeld Schließer HR ¥2,100 ¥75,000
31. Januar Mi 16:30 0:30 APL-Serie: ¥215 Speed Racer Kopfgeldjäger ¥215 ¥50,000
31. Januar Mi 16:30 0:30 APL-Serie: ¥2,100 Speed Racer Kopfgeld Schließer HR ¥2,100 ¥75,000
31. Januar Mi 16:30 0:30 APL-Serie: ¥215 Speed Racer Kopfgeldjäger ¥215 ¥50,000
1. Februar Thu 5:00 13:00 APL-Serie: ¥550 Daily Opener ¥550 ¥60,000
1. Februar Thu 5:00 13:00 APL-Serie: ¥88 Sternzeichen-Rattenöffner ¥88 ¥30,000
1. Februar Thu 5:00 13:00 APL-Serie: ¥550 Daily Opener ¥550 ¥60,000
1. Februar Thu 5:00 13:00 APL-Serie: ¥88 Sternzeichen-Rattenöffner ¥88 ¥30,000
1. Februar Thu 6:00 14:00 APL-Serie: ¥1.100 Deepstack High Roller ¥1,100 ¥80,000
1. Februar Thu 6:00 14:00 APL-Serie: ¥330 Zodiac Ox Strong Stack ¥330 ¥70,000
1. Februar Thu 6:00 14:00 APL-Serie: ¥1.100 Deepstack High Roller ¥1,100 ¥80,000
1. Februar Thu 6:00 14:00 APL-Serie: ¥330 Zodiac Ox Strong Stack ¥330 ¥70,000
1. Februar Thu 7:00 15:00 APL-Serie: ¥1.050 Bounty High Roller ¥1,050 ¥100,000
1. Februar Thu 7:00 15:00 APL-Serie: ¥108 Zodiac Tiger King Bounty ¥108 ¥70,000
1. Februar Thu 7:00 15:00 APL-Serie: ¥1.050 Bounty High Roller ¥1,050 ¥100,000
1. Februar Thu 7:00 15:00 APL-Serie: ¥108 Zodiac Tiger King Bounty ¥108 ¥70,000
1. Februar Thu 8:00 16:00 APL-Serie: ¥220 Hold'em Klassisch ¥220 ¥50,000
1. Februar Thu 8:00 16:00 APL-Serie: ¥85.50 Zodiac-Kaninchen Glückskopfgeld ¥85.5 ¥50,000
1. Februar Thu 8:00 16:00 APL-Serie: ¥220 Hold'em Klassisch ¥220 ¥50,000
1. Februar Thu 8:00 16:00 APL-Serie: ¥85.50 Zodiac-Kaninchen Glückskopfgeld ¥85.5 ¥50,000
1. Februar Thu 9:00 17:00 APL-Serie: ¥80 Hold'em Klassisch ¥80 ¥30,000
1. Februar Thu 9:00 17:00 APL-Serie: ¥800 Zodiac Dragon High Roller ¥800 ¥100,000
1. Februar Thu 9:00 17:00 APL-Serie: ¥80 Hold'em Klassisch ¥80 ¥30,000
1. Februar Thu 9:00 17:00 APL-Serie: ¥800 Zodiac Dragon High Roller ¥800 ¥100,000
1. Februar Thu 9:30 17:30 APL-Serie: ¥630 Hold'em-Kopfgeld [6-Max] ¥630 ¥120,000
1. Februar Thu 9:30 17:30 APL-Serie: ¥64.50 Zodiac-Schlangen-Bounty [6-Max] ¥64.5 ¥50,000
1. Februar Thu 9:30 17:30 APL-Serie: ¥630 Hold'em-Kopfgeld [6-Max] ¥630 ¥120,000
1. Februar Thu 9:30 17:30 APL-Serie: ¥64.50 Zodiac-Schlangen-Bounty [6-Max] ¥64.5 ¥50,000
1. Februar Thu 10:00 18:00 APL-Serie: ¥1.100 Hold'em-Marathon ¥1,100 ¥88,000
1. Februar Thu 10:00 18:00 APL-Serie: ¥110 Zodiac Pferd Marathon ¥110 ¥50,000
1. Februar Thu 10:00 18:00 APL-Serie: ¥1.100 Hold'em-Marathon ¥1,100 ¥88,000
1. Februar Thu 10:00 18:00 APL-Serie: ¥110 Zodiac Pferd Marathon ¥110 ¥50,000
1. Februar Thu 10:30 18:30 APL-Serie: ¥840 Hold'em-Kopfgeld ¥840 ¥125,000
1. Februar Thu 10:30 18:30 APL-Serie: ¥85.50 Hold'em-Kopfgeld ¥85.5 ¥60,000
1. Februar Thu 10:30 18:30 APL-Serie: ¥840 Hold'em-Kopfgeld ¥840 ¥125,000
1. Februar Thu 10:30 18:30 APL-Serie: ¥85.50 Hold'em-Kopfgeld ¥85.5 ¥60,000
1. Februar Thu 11:00 19:00 APL-Serie: ¥2.024 Zodiac Ziege High Roller ¥2,024 ¥130,000
1. Februar Thu 11:00 19:00 APL-Serie: ¥2.024 Zodiac Ziege High Roller ¥2,024 ¥130,000
1. Februar Thu 11:30 19:30 APL-Serie: ¥2.100 Bounty High Roller ¥2,100 ¥130,000
1. Februar Thu 11:30 19:30 APL-Serie: ¥215 Zodiac-Affenkönig-Kopfgeld ¥215 ¥125,000
1. Februar Thu 11:30 19:30 APL-Serie: ¥2.100 Bounty High Roller ¥2,100 ¥130,000
1. Februar Thu 11:30 19:30 APL-Serie: ¥215 Zodiac-Affenkönig-Kopfgeld ¥215 ¥125,000
1. Februar Thu 12:00 20:00 APL-Serie: ¥388 Zodiac Hauptveranstaltung, ¥250K GTD ¥388 ¥300,000
1. Februar Thu 12:00 20:00 APL-Serie: ¥388 Zodiac Hauptveranstaltung, ¥250K GTD ¥388 ¥300,000
1. Februar Thu 13:00 21:00 APL-Serie: ¥5.500 Deepstack High Roller ¥5,500 ¥200,000
1. Februar Thu 13:00 21:00 APL-Serie: ¥550 Hold'em Deepstack ¥550 ¥100,000
1. Februar Thu 13:00 21:00 APL-Serie: ¥50 Zodiac-Hahn-Sonnenuntergang-Spezial ¥50 ¥35,000
1. Februar Thu 13:00 21:00 APL-Serie: ¥5.500 Deepstack High Roller ¥5,500 ¥200,000
1. Februar Thu 13:00 21:00 APL-Serie: ¥550 Hold'em Deepstack ¥550 ¥100,000
1. Februar Thu 13:00 21:00 APL-Serie: ¥50 Zodiac-Hahn-Sonnenuntergang-Spezial ¥50 ¥35,000
1. Februar Thu 13:10 21:10 APL-Serie: ¥3,150 Kurzdeck-Kopfgeld HR ¥3,150 ¥88,000
1. Februar Thu 13:10 21:10 APL-Serie: ¥320 Short Deck Bounty ¥320 ¥25,000
1. Februar Thu 13:10 21:10 APL-Serie: ¥3,150 Kurzdeck-Kopfgeld HR ¥3,150 ¥88,000
1. Februar Thu 13:10 21:10 APL-Serie: ¥320 Short Deck Bounty ¥320 ¥25,000
1. Februar Thu 13:40 21:40 APL-Serie: ¥5.250 PLO-NL-Kopfgeld HR ¥5,250 ¥88,000
1. Februar Thu 13:40 21:40 APL-Serie: ¥530 PLO-NL-Bounty ¥530 ¥30,000
1. Februar Thu 13:40 21:40 APL-Serie: ¥5.250 PLO-NL-Kopfgeld HR ¥5,250 ¥88,000
1. Februar Thu 13:40 21:40 APL-Serie: ¥530 PLO-NL-Bounty ¥530 ¥30,000
1. Februar Thu 14:00 22:00 APL-Serie: ¥1.100 Hold'em Klassisch ¥1,100 ¥100,000
1. Februar Thu 14:00 22:00 APL-Serie: ¥110 Zodiac Dog Ultra Deepstack Turbo ¥110 ¥50,000
1. Februar Thu 14:00 22:00 APL-Serie: ¥1.100 Hold'em Klassisch ¥1,100 ¥100,000
1. Februar Thu 14:00 22:00 APL-Serie: ¥110 Zodiac Dog Ultra Deepstack Turbo ¥110 ¥50,000
1. Februar Thu 14:10 22:10 APL-Serie: ¥8,000 Kurzes Deck HR [3-Stapel] ¥8,000 ¥100,000
1. Februar Thu 14:10 22:10 APL-Serie: ¥800 Short Deck [3-Stapel] ¥800 ¥25,000
1. Februar Thu 14:10 22:10 APL-Serie: ¥8,000 Kurzes Deck HR [3-Stapel] ¥8,000 ¥100,000
1. Februar Thu 14:10 22:10 APL-Serie: ¥800 Short Deck [3-Stapel] ¥800 ¥25,000
1. Februar Thu 14:30 22:30 APL-Serie: ¥3.150 Bounty High Roller ¥3,150 ¥180,000
1. Februar Thu 14:30 22:30 APL-Serie: ¥320 Zodiac-Schwein-Schmaus ¥320 ¥180,000
1. Februar Thu 14:30 22:30 APL-Serie: ¥3.150 Bounty High Roller ¥3,150 ¥180,000
1. Februar Thu 14:30 22:30 APL-Serie: ¥320 Zodiac-Schwein-Schmaus ¥320 ¥180,000
1. Februar Thu 14:40 22:40 APL-Serie: ¥1.100 PLO-NL Klassisch ¥1,100 ¥25,000
1. Februar Thu 14:40 22:40 APL-Serie: ¥1.100 PLO-NL Klassisch ¥1,100 ¥25,000
1. Februar Thu 15:00 23:00 APL-Serie: ¥5.500 High Roller 6-Max ¥5,500 ¥250,000
1. Februar Thu 15:00 23:00 APL-Serie: ¥800 Hold'em 6-Max ¥800 ¥150,000
1. Februar Thu 15:00 23:00 APL-Serie: ¥5.500 High Roller 6-Max ¥5,500 ¥250,000
1. Februar Thu 15:00 23:00 APL-Serie: ¥800 Hold'em 6-Max ¥800 ¥150,000
1. Februar Thu 15:10 23:10 APL-Serie: ¥530 Short Deck Bounty [Turbo] ¥530 ¥30,000
1. Februar Thu 15:10 23:10 APL-Serie: ¥530 Short Deck Bounty [Turbo] ¥530 ¥30,000
1. Februar Thu 15:40 23:40 APL-Serie: ¥530 PLO-NL Bounty [Turbo] ¥530 ¥30,000
1. Februar Thu 15:40 23:40 APL-Serie: ¥530 PLO-NL Bounty [Turbo] ¥530 ¥30,000
1. Februar Thu 16:00 0:00 APL-Serie: ¥330 Midnight Madness [Hyper] ¥330 ¥60,000
1. Februar Thu 16:00 0:00 APL-Serie: ¥330 Midnight Madness [Hyper] ¥330 ¥60,000
1. Februar Thu 16:30 0:30 APL-Serie: ¥2,100 Speed Racer Kopfgeld Schließer HR ¥2,100 ¥75,000
1. Februar Thu 16:30 0:30 APL-Serie: ¥215 Speed Racer Kopfgeldjäger ¥215 ¥50,000
1. Februar Thu 16:30 0:30 APL-Serie: ¥2,100 Speed Racer Kopfgeld Schließer HR ¥2,100 ¥75,000
1. Februar Thu 16:30 0:30 APL-Serie: ¥215 Speed Racer Kopfgeldjäger ¥215 ¥50,000
2. Februar Fr 5:00 13:00 APL-Serie: ¥550 Daily Opener ¥550 ¥60,000
2. Februar Fr 5:00 13:00 APL-Serie: ¥88 Sternzeichen-Rattenöffner ¥88 ¥30,000
2. Februar Fr 5:00 13:00 APL-Serie: ¥550 Daily Opener ¥550 ¥60,000
2. Februar Fr 5:00 13:00 APL-Serie: ¥88 Sternzeichen-Rattenöffner ¥88 ¥30,000
2. Februar Fr 6:00 14:00 APL-Serie: ¥1.100 Deepstack High Roller ¥1,100 ¥80,000
2. Februar Fr 6:00 14:00 APL-Serie: ¥330 Zodiac Ox Strong Stack ¥330 ¥70,000
2. Februar Fr 6:00 14:00 APL-Serie: ¥1.100 Deepstack High Roller ¥1,100 ¥80,000
2. Februar Fr 6:00 14:00 APL-Serie: ¥330 Zodiac Ox Strong Stack ¥330 ¥70,000
2. Februar Fr 7:00 15:00 APL-Serie: ¥1.050 Bounty High Roller ¥1,050 ¥100,000
2. Februar Fr 7:00 15:00 APL-Serie: ¥108 Zodiac Tiger King Bounty ¥108 ¥70,000
2. Februar Fr 7:00 15:00 APL-Serie: ¥1.050 Bounty High Roller ¥1,050 ¥100,000
2. Februar Fr 7:00 15:00 APL-Serie: ¥108 Zodiac Tiger King Bounty ¥108 ¥70,000
2. Februar Fr 8:00 16:00 APL-Serie: ¥220 Hold'em Klassisch ¥220 ¥50,000
2. Februar Fr 8:00 16:00 APL-Serie: ¥85.50 Zodiac-Kaninchen Glückskopfgeld ¥85.5 ¥50,000
2. Februar Fr 8:00 16:00 APL-Serie: ¥220 Hold'em Klassisch ¥220 ¥50,000
2. Februar Fr 8:00 16:00 APL-Serie: ¥85.50 Zodiac-Kaninchen Glückskopfgeld ¥85.5 ¥50,000
2. Februar Fr 9:00 17:00 APL-Serie: ¥80 Hold'em Klassisch ¥80 ¥30,000
2. Februar Fr 9:00 17:00 APL-Serie: ¥800 Zodiac Dragon High Roller ¥800 ¥100,000
2. Februar Fr 9:00 17:00 APL-Serie: ¥80 Hold'em Klassisch ¥80 ¥30,000
2. Februar Fr 9:00 17:00 APL-Serie: ¥800 Zodiac Dragon High Roller ¥800 ¥100,000
2. Februar Fr 9:30 17:30 APL-Serie: ¥630 Hold'em-Kopfgeld [6-Max] ¥630 ¥120,000
2. Februar Fr 9:30 17:30 APL-Serie: ¥64.50 Zodiac-Schlangen-Bounty [6-Max] ¥64.5 ¥50,000
2. Februar Fr 9:30 17:30 APL-Serie: ¥630 Hold'em-Kopfgeld [6-Max] ¥630 ¥120,000
2. Februar Fr 9:30 17:30 APL-Serie: ¥64.50 Zodiac-Schlangen-Bounty [6-Max] ¥64.5 ¥50,000
2. Februar Fr 10:00 18:00 APL-Serie: ¥1.100 Hold'em-Marathon ¥1,100 ¥88,000
2. Februar Fr 10:00 18:00 APL-Serie: ¥110 Zodiac Pferd Marathon ¥110 ¥50,000
2. Februar Fr 10:00 18:00 APL-Serie: ¥1.100 Hold'em-Marathon ¥1,100 ¥88,000
2. Februar Fr 10:00 18:00 APL-Serie: ¥110 Zodiac Pferd Marathon ¥110 ¥50,000
2. Februar Fr 10:30 18:30 APL-Serie: ¥840 Hold'em-Kopfgeld ¥840 ¥125,000
2. Februar Fr 10:30 18:30 APL-Serie: ¥85.50 Hold'em-Kopfgeld ¥85.5 ¥60,000
2. Februar Fr 10:30 18:30 APL-Serie: ¥840 Hold'em-Kopfgeld ¥840 ¥125,000
2. Februar Fr 10:30 18:30 APL-Serie: ¥85.50 Hold'em-Kopfgeld ¥85.5 ¥60,000
2. Februar Fr 11:00 19:00 APL-Serie: ¥2.024 Zodiac Ziege High Roller ¥2,024 ¥130,000
2. Februar Fr 11:00 19:00 APL-Serie: ¥2.024 Zodiac Ziege High Roller ¥2,024 ¥130,000
2. Februar Fr 11:30 19:30 APL-Serie: ¥2.100 Bounty High Roller ¥2,100 ¥130,000
2. Februar Fr 11:30 19:30 APL-Serie: ¥215 Zodiac-Affenkönig-Kopfgeld ¥215 ¥125,000
2. Februar Fr 11:30 19:30 APL-Serie: ¥2.100 Bounty High Roller ¥2,100 ¥130,000
2. Februar Fr 11:30 19:30 APL-Serie: ¥215 Zodiac-Affenkönig-Kopfgeld ¥215 ¥125,000
2. Februar Fr 12:00 20:00 APL-Serie: ¥388 Zodiac Hauptveranstaltung, ¥250K GTD ¥388 ¥300,000
2. Februar Fr 12:00 20:00 APL-Serie: ¥388 Zodiac Hauptveranstaltung, ¥250K GTD ¥388 ¥300,000
2. Februar Fr 13:00 21:00 APL-Serie: ¥5.500 Deepstack High Roller ¥5,500 ¥200,000
2. Februar Fr 13:00 21:00 APL-Serie: ¥550 Hold'em Deepstack ¥550 ¥100,000
2. Februar Fr 13:00 21:00 APL-Serie: ¥50 Zodiac-Hahn-Sonnenuntergang-Spezial ¥50 ¥35,000
2. Februar Fr 13:00 21:00 APL-Serie: ¥5.500 Deepstack High Roller ¥5,500 ¥200,000
2. Februar Fr 13:00 21:00 APL-Serie: ¥550 Hold'em Deepstack ¥550 ¥100,000
2. Februar Fr 13:00 21:00 APL-Serie: ¥50 Zodiac-Hahn-Sonnenuntergang-Spezial ¥50 ¥35,000
2. Februar Fr 13:10 21:10 APL-Serie: ¥3,150 Kurzdeck-Kopfgeld HR ¥3,150 ¥88,000
2. Februar Fr 13:10 21:10 APL-Serie: ¥320 Short Deck Bounty ¥320 ¥25,000
2. Februar Fr 13:10 21:10 APL-Serie: ¥3,150 Kurzdeck-Kopfgeld HR ¥3,150 ¥88,000
2. Februar Fr 13:10 21:10 APL-Serie: ¥320 Short Deck Bounty ¥320 ¥25,000
2. Februar Fr 13:40 21:40 APL-Serie: ¥5.250 PLO-NL-Kopfgeld HR ¥5,250 ¥88,000
2. Februar Fr 13:40 21:40 APL-Serie: ¥530 PLO-NL-Bounty ¥530 ¥30,000
2. Februar Fr 13:40 21:40 APL-Serie: ¥5.250 PLO-NL-Kopfgeld HR ¥5,250 ¥88,000
2. Februar Fr 13:40 21:40 APL-Serie: ¥530 PLO-NL-Bounty ¥530 ¥30,000
2. Februar Fr 14:00 22:00 APL-Serie: ¥1.100 Hold'em Klassisch ¥1,100 ¥100,000
2. Februar Fr 14:00 22:00 APL-Serie: ¥110 Zodiac Dog Ultra Deepstack Turbo ¥110 ¥50,000
2. Februar Fr 14:00 22:00 APL-Serie: ¥1.100 Hold'em Klassisch ¥1,100 ¥100,000
2. Februar Fr 14:00 22:00 APL-Serie: ¥110 Zodiac Dog Ultra Deepstack Turbo ¥110 ¥50,000
2. Februar Fr 14:10 22:10 APL-Serie: ¥8,000 Kurzes Deck HR [3-Stapel] ¥8,000 ¥100,000
2. Februar Fr 14:10 22:10 APL-Serie: ¥800 Short Deck [3-Stapel] ¥800 ¥25,000
2. Februar Fr 14:10 22:10 APL-Serie: ¥8,000 Kurzes Deck HR [3-Stapel] ¥8,000 ¥100,000
2. Februar Fr 14:10 22:10 APL-Serie: ¥800 Short Deck [3-Stapel] ¥800 ¥25,000
2. Februar Fr 14:30 22:30 APL-Serie: ¥3.150 Bounty High Roller ¥3,150 ¥180,000
2. Februar Fr 14:30 22:30 APL-Serie: ¥320 Zodiac-Schwein-Schmaus ¥320 ¥180,000
2. Februar Fr 14:30 22:30 APL-Serie: ¥3.150 Bounty High Roller ¥3,150 ¥180,000
2. Februar Fr 14:30 22:30 APL-Serie: ¥320 Zodiac-Schwein-Schmaus ¥320 ¥180,000
2. Februar Fr 14:40 22:40 APL-Serie: ¥1.100 PLO-NL Klassisch ¥1,100 ¥25,000
2. Februar Fr 14:40 22:40 APL-Serie: ¥1.100 PLO-NL Klassisch ¥1,100 ¥25,000
2. Februar Fr 15:00 23:00 APL-Serie: ¥5.500 High Roller 6-Max ¥5,500 ¥250,000
2. Februar Fr 15:00 23:00 APL-Serie: ¥800 Hold'em 6-Max ¥800 ¥150,000
2. Februar Fr 15:00 23:00 APL-Serie: ¥5.500 High Roller 6-Max ¥5,500 ¥250,000
2. Februar Fr 15:00 23:00 APL-Serie: ¥800 Hold'em 6-Max ¥800 ¥150,000
2. Februar Fr 15:10 23:10 APL-Serie: ¥530 Short Deck Bounty [Turbo] ¥530 ¥30,000
2. Februar Fr 15:10 23:10 APL-Serie: ¥530 Short Deck Bounty [Turbo] ¥530 ¥30,000
2. Februar Fr 15:40 23:40 APL-Serie: ¥530 PLO-NL Bounty [Turbo] ¥530 ¥30,000
2. Februar Fr 15:40 23:40 APL-Serie: ¥530 PLO-NL Bounty [Turbo] ¥530 ¥30,000
2. Februar Fr 16:00 0:00 APL-Serie: ¥330 Midnight Madness [Hyper] ¥330 ¥60,000
2. Februar Fr 16:00 0:00 APL-Serie: ¥330 Midnight Madness [Hyper] ¥330 ¥60,000
2. Februar Fr 16:30 0:30 APL-Serie: ¥2,100 Speed Racer Kopfgeld Schließer HR ¥2,100 ¥75,000
2. Februar Fr 16:30 0:30 APL-Serie: ¥215 Speed Racer Kopfgeldjäger ¥215 ¥50,000
2. Februar Fr 16:30 0:30 APL-Serie: ¥2,100 Speed Racer Kopfgeld Schließer HR ¥2,100 ¥75,000
2. Februar Fr 16:30 0:30 APL-Serie: ¥215 Speed Racer Kopfgeldjäger ¥215 ¥50,000
3. Februar Sat 5:00 13:00 APL-Serie: ¥550 Daily Opener ¥550 ¥60,000
3. Februar Sat 5:00 13:00 APL-Serie: ¥88 Sternzeichen-Rattenöffner ¥88 ¥30,000
3. Februar Sat 5:00 13:00 APL-Serie: ¥550 Daily Opener ¥550 ¥60,000
3. Februar Sat 5:00 13:00 APL-Serie: ¥88 Sternzeichen-Rattenöffner ¥88 ¥30,000
3. Februar Sat 6:00 14:00 APL-Serie: ¥1.100 Deepstack High Roller ¥1,100 ¥80,000
3. Februar Sat 6:00 14:00 APL-Serie: ¥330 Zodiac Ox Strong Stack ¥330 ¥70,000
3. Februar Sat 6:00 14:00 APL-Serie: ¥1.100 Deepstack High Roller ¥1,100 ¥80,000
3. Februar Sat 6:00 14:00 APL-Serie: ¥330 Zodiac Ox Strong Stack ¥330 ¥70,000
3. Februar Sat 7:00 15:00 APL-Serie: ¥1.050 Bounty High Roller ¥1,050 ¥100,000
3. Februar Sat 7:00 15:00 APL-Serie: ¥108 Zodiac Tiger King Bounty ¥108 ¥70,000
3. Februar Sat 7:00 15:00 APL-Serie: ¥1.050 Bounty High Roller ¥1,050 ¥100,000
3. Februar Sat 7:00 15:00 APL-Serie: ¥108 Zodiac Tiger King Bounty ¥108 ¥70,000
3. Februar Sat 8:00 16:00 APL-Serie: ¥220 Hold'em Klassisch ¥220 ¥50,000
3. Februar Sat 8:00 16:00 APL-Serie: ¥85.50 Zodiac-Kaninchen Glückskopfgeld ¥85.5 ¥50,000
3. Februar Sat 8:00 16:00 APL-Serie: ¥220 Hold'em Klassisch ¥220 ¥50,000
3. Februar Sat 8:00 16:00 APL-Serie: ¥85.50 Zodiac-Kaninchen Glückskopfgeld ¥85.5 ¥50,000
3. Februar Sat 9:00 17:00 APL-Serie: ¥80 Hold'em Klassisch ¥80 ¥30,000
3. Februar Sat 9:00 17:00 APL-Serie: ¥800 Zodiac Dragon High Roller ¥800 ¥100,000
3. Februar Sat 9:00 17:00 APL-Serie: ¥80 Hold'em Klassisch ¥80 ¥30,000
3. Februar Sat 9:00 17:00 APL-Serie: ¥800 Zodiac Dragon High Roller ¥800 ¥100,000
3. Februar Sat 9:30 17:30 APL-Serie: ¥630 Hold'em-Kopfgeld [6-Max] ¥630 ¥120,000
3. Februar Sat 9:30 17:30 APL-Serie: ¥64.50 Zodiac-Schlangen-Bounty [6-Max] ¥64.5 ¥50,000
3. Februar Sat 9:30 17:30 APL-Serie: ¥630 Hold'em-Kopfgeld [6-Max] ¥630 ¥120,000
3. Februar Sat 9:30 17:30 APL-Serie: ¥64.50 Zodiac-Schlangen-Bounty [6-Max] ¥64.5 ¥50,000
3. Februar Sat 10:00 18:00 APL-Serie: ¥1.100 Hold'em-Marathon ¥1,100 ¥88,000
3. Februar Sat 10:00 18:00 APL-Serie: ¥110 Zodiac Pferd Marathon ¥110 ¥50,000
3. Februar Sat 10:00 18:00 APL-Serie: ¥1.100 Hold'em-Marathon ¥1,100 ¥88,000
3. Februar Sat 10:00 18:00 APL-Serie: ¥110 Zodiac Pferd Marathon ¥110 ¥50,000
3. Februar Sat 10:30 18:30 APL-Serie: ¥840 Hold'em-Kopfgeld ¥840 ¥125,000
3. Februar Sat 10:30 18:30 APL-Serie: ¥85.50 Hold'em-Kopfgeld ¥85.5 ¥60,000
3. Februar Sat 10:30 18:30 APL-Serie: ¥840 Hold'em-Kopfgeld ¥840 ¥125,000
3. Februar Sat 10:30 18:30 APL-Serie: ¥85.50 Hold'em-Kopfgeld ¥85.5 ¥60,000
3. Februar Sat 11:00 19:00 APL-Serie: ¥2.024 Zodiac Ziege High Roller ¥2,024 ¥130,000
3. Februar Sat 11:00 19:00 APL-Serie: ¥2.024 Zodiac Ziege High Roller ¥2,024 ¥130,000
3. Februar Sat 11:30 19:30 APL-Serie: ¥2.100 Bounty High Roller ¥2,100 ¥130,000
3. Februar Sat 11:30 19:30 APL-Serie: ¥215 Zodiac-Affenkönig-Kopfgeld ¥215 ¥125,000
3. Februar Sat 11:30 19:30 APL-Serie: ¥2.100 Bounty High Roller ¥2,100 ¥130,000
3. Februar Sat 11:30 19:30 APL-Serie: ¥215 Zodiac-Affenkönig-Kopfgeld ¥215 ¥125,000
3. Februar Sat 12:00 20:00 APL-Serie: ¥388 Zodiac Hauptveranstaltung, ¥250K GTD ¥388 ¥300,000
3. Februar Sat 12:00 20:00 APL-Serie: ¥388 Zodiac Hauptveranstaltung, ¥250K GTD ¥388 ¥300,000
3. Februar Sat 13:00 21:00 APL-Serie: ¥5.500 Deepstack High Roller ¥5,500 ¥200,000
3. Februar Sat 13:00 21:00 APL-Serie: ¥550 Hold'em Deepstack ¥550 ¥100,000
3. Februar Sat 13:00 21:00 APL-Serie: ¥50 Zodiac-Hahn-Sonnenuntergang-Spezial ¥50 ¥35,000
3. Februar Sat 13:00 21:00 APL-Serie: ¥5.500 Deepstack High Roller ¥5,500 ¥200,000
3. Februar Sat 13:00 21:00 APL-Serie: ¥550 Hold'em Deepstack ¥550 ¥100,000
3. Februar Sat 13:00 21:00 APL-Serie: ¥50 Zodiac-Hahn-Sonnenuntergang-Spezial ¥50 ¥35,000
3. Februar Sat 13:10 21:10 APL-Serie: ¥3,150 Kurzdeck-Kopfgeld HR ¥3,150 ¥88,000
3. Februar Sat 13:10 21:10 APL-Serie: ¥320 Short Deck Bounty ¥320 ¥25,000
3. Februar Sat 13:10 21:10 APL-Serie: ¥3,150 Kurzdeck-Kopfgeld HR ¥3,150 ¥88,000
3. Februar Sat 13:10 21:10 APL-Serie: ¥320 Short Deck Bounty ¥320 ¥25,000
3. Februar Sat 13:40 21:40 APL-Serie: ¥5.250 PLO-NL-Kopfgeld HR ¥5,250 ¥88,000
3. Februar Sat 13:40 21:40 APL-Serie: ¥530 PLO-NL-Bounty ¥530 ¥30,000
3. Februar Sat 13:40 21:40 APL-Serie: ¥5.250 PLO-NL-Kopfgeld HR ¥5,250 ¥88,000
3. Februar Sat 13:40 21:40 APL-Serie: ¥530 PLO-NL-Bounty ¥530 ¥30,000
3. Februar Sat 14:00 22:00 APL-Serie: ¥1.100 Hold'em Klassisch ¥1,100 ¥100,000
3. Februar Sat 14:00 22:00 APL-Serie: ¥110 Zodiac Dog Ultra Deepstack Turbo ¥110 ¥50,000
3. Februar Sat 14:00 22:00 APL-Serie: ¥1.100 Hold'em Klassisch ¥1,100 ¥100,000
3. Februar Sat 14:00 22:00 APL-Serie: ¥110 Zodiac Dog Ultra Deepstack Turbo ¥110 ¥50,000
3. Februar Sat 14:10 22:10 APL-Serie: ¥8,000 Kurzes Deck HR [3-Stapel] ¥8,000 ¥100,000
3. Februar Sat 14:10 22:10 APL-Serie: ¥800 Short Deck [3-Stapel] ¥800 ¥25,000
3. Februar Sat 14:10 22:10 APL-Serie: ¥8,000 Kurzes Deck HR [3-Stapel] ¥8,000 ¥100,000
3. Februar Sat 14:10 22:10 APL-Serie: ¥800 Short Deck [3-Stapel] ¥800 ¥25,000
3. Februar Sat 14:30 22:30 APL-Serie: ¥3.150 Bounty High Roller ¥3,150 ¥180,000
3. Februar Sat 14:30 22:30 APL-Serie: ¥320 Zodiac-Schwein-Schmaus ¥320 ¥180,000
3. Februar Sat 14:30 22:30 APL-Serie: ¥3.150 Bounty High Roller ¥3,150 ¥180,000
3. Februar Sat 14:30 22:30 APL-Serie: ¥320 Zodiac-Schwein-Schmaus ¥320 ¥180,000
3. Februar Sat 14:40 22:40 APL-Serie: ¥1.100 PLO-NL Klassisch ¥1,100 ¥25,000
3. Februar Sat 14:40 22:40 APL-Serie: ¥1.100 PLO-NL Klassisch ¥1,100 ¥25,000
3. Februar Sat 15:00 23:00 APL-Serie: ¥5.500 High Roller 6-Max ¥5,500 ¥250,000
3. Februar Sat 15:00 23:00 APL-Serie: ¥800 Hold'em 6-Max ¥800 ¥150,000
3. Februar Sat 15:00 23:00 APL-Serie: ¥5.500 High Roller 6-Max ¥5,500 ¥250,000
3. Februar Sat 15:00 23:00 APL-Serie: ¥800 Hold'em 6-Max ¥800 ¥150,000
3. Februar Sat 15:10 23:10 APL-Serie: ¥530 Short Deck Bounty [Turbo] ¥530 ¥30,000
3. Februar Sat 15:10 23:10 APL-Serie: ¥530 Short Deck Bounty [Turbo] ¥530 ¥30,000
3. Februar Sat 15:40 23:40 APL-Serie: ¥530 PLO-NL Bounty [Turbo] ¥530 ¥30,000
3. Februar Sat 15:40 23:40 APL-Serie: ¥530 PLO-NL Bounty [Turbo] ¥530 ¥30,000
3. Februar Sat 16:00 0:00 APL-Serie: ¥330 Midnight Madness [Hyper] ¥330 ¥60,000
3. Februar Sat 16:00 0:00 APL-Serie: ¥330 Midnight Madness [Hyper] ¥330 ¥60,000
3. Februar Sat 16:30 0:30 APL-Serie: ¥2,100 Speed Racer Kopfgeld Schließer HR ¥2,100 ¥75,000
3. Februar Sat 16:30 0:30 APL-Serie: ¥215 Speed Racer Kopfgeldjäger ¥215 ¥50,000
3. Februar Sat 16:30 0:30 APL-Serie: ¥2,100 Speed Racer Kopfgeld Schließer HR ¥2,100 ¥75,000
3. Februar Sat 16:30 0:30 APL-Serie: ¥215 Speed Racer Kopfgeldjäger ¥215 ¥50,000
4. Februar Sonne 5:00 13:00 APL-Serie: ¥550 Sonntagsöffner ¥550 ¥60,000
4. Februar Sonne 5:00 13:00 APL-Serie: ¥88 Sternzeichen-Rattenöffner ¥88 ¥30,000
4. Februar Sonne 6:00 14:00 APL-Serie: ¥1.100 Sonntag High Roller Deepstack ¥1,100 ¥88,000
4. Februar Sonne 6:00 14:00 APL-Serie: ¥330 Zodiac Ox Strong Stack ¥330 ¥60,000
4. Februar Sonne 7:00 15:00 APL-Serie: ¥1.050 Sonntag High Roller Bounty ¥1,050 ¥88,000
4. Februar Sonne 7:00 15:00 APL-Serie: ¥108 Zodiac Tiger King Bounty ¥108 ¥70,000
4. Februar Sonne 8:00 16:00 APL-Serie: ¥220 Sonntags-Klassiker ¥220 ¥50,000
4. Februar Sonne 8:00 16:00 APL-Serie: ¥85.50 Zodiac-Kaninchen Glückskopfgeld ¥85.5 ¥60,000
4. Februar Sonne 9:00 17:00 APL-Serie: ¥80 Sonntags-Klassiker ¥80 ¥35,000
4. Februar Sonne 9:00 17:00 APL-Serie: ¥800 Zodiac Dragon High Roller ¥800 ¥150,000
4. Februar Sonne 9:30 17:30 APL-Serie: ¥630 Sonntags-Prämie [6-Max] ¥630 ¥150,000
4. Februar Sonne 9:30 17:30 APL-Serie: ¥64.50 Zodiac-Schlangen-Bounty [6-Max] ¥64.5 ¥60,000
4. Februar Sonne 10:00 18:00 APL-Serie: ¥1,100 Sonntags-Marathon ¥1,100 ¥200,000
4. Februar Sonne 10:00 18:00 APL-Serie: ¥110 Zodiac Pferd Marathon ¥110 ¥70,000
4. Februar Sonne 10:30 18:30 APL-Serie: ¥840 Sonntags-Prämie ¥840 ¥200,000
4. Februar Sonne 10:30 18:30 APL-Serie: ¥85.50 Sonntags-Prämie ¥85.5 ¥100,000
4. Februar Sonne 11:00 19:00 APL-Serie: ¥220 Sonntags-Klassiker ¥220 ¥125,000
4. Februar Sonne 11:00 19:00 APL-Serie: ¥2.024 Zodiac Ziege High Roller ¥2,024 ¥388,000
4. Februar Sonne 11:30 19:30 APL-Serie: ¥2.100 Sonntags-High-Roller-Bounty ¥2,100 ¥388,000
4. Februar Sonne 11:30 19:30 APL-Serie: ¥215 Zodiac-Affenkönig-Kopfgeld ¥215 ¥188,000
4. Februar Sonne 12:00 20:00 APL-Serie: ¥388 Zodiac Hauptveranstaltung, ¥500K GTD ¥388 ¥700,000
4. Februar Sonne 13:00 21:00 APL-Serie: ¥550 Sonntags-Deepstack ¥550 ¥300,000
4. Februar Sonne 13:00 21:00 APL-Serie: ¥10.300 Sonntag HR Hauptevent ¥10,300 ¥1,000,000
4. Februar Sonne 13:00 21:00 APL-Serie: ¥50 Zodiac-Hahn-Sonnenuntergang-Spezial ¥50 ¥60,000
4. Februar Sonne 13:10 21:10 APL-Serie: ¥3,150 Kurzdeck-Kopfgeld HR ¥3,150 ¥125,000
4. Februar Sonne 13:10 21:10 APL-Serie: ¥320 Short Deck Bounty ¥320 ¥50,000
4. Februar Sonne 13:40 21:40 APL-Serie: ¥5.250 PLO-NL-Kopfgeld HR ¥5,250 ¥150,000
4. Februar Sonne 13:40 21:40 APL-Serie: ¥530 PLO-NL-Bounty ¥530 ¥60,000
4. Februar Sonne 14:00 22:00 APL-Serie: ¥1.100 Sonntags-Klassiker ¥1,100 ¥388,000
4. Februar Sonne 14:00 22:00 APL-Serie: ¥110 Zodiac Dog Ultra Deepstack Turbo ¥110 ¥80,000
4. Februar Sonne 14:10 22:10 APL-Serie: ¥8,000 Kurzes Deck HR [3-Stapel] ¥8,000 ¥188,000
4. Februar Sonne 14:10 22:10 APL-Serie: ¥800 Short Deck [3-Stapel] ¥800 ¥50,000
4. Februar Sonne 14:30 22:30 APL-Serie: ¥3.150 Sonntags-High-Roller-Bounty ¥3,150 ¥600,000
4. Februar Sonne 14:30 22:30 APL-Serie: ¥320 Zodiac-Schwein-Schmaus ¥320 ¥388,000
4. Februar Sonne 14:40 22:40 APL-Serie: ¥1.100 PLO-NL Klassisch ¥1,100 ¥60,000
4. Februar Sonne 15:00 23:00 APL-Serie: ¥800 Sonntag 6-Max ¥800 ¥388,000
4. Februar Sonne 15:00 23:00 APL-Serie: ¥5.500 Sonntag High Roller 6-Max ¥5,500 ¥700,000
4. Februar Sonne 15:00 23:00 APL-Serie: ¥25,500 Sonntag SHR ¥25,500 ¥1,000,000
4. Februar Sonne 15:10 23:10 APL-Serie: ¥5.250 Kurzdeck-Kopfgeld HR ¥5,250 ¥200,000
4. Februar Sonne 15:10 23:10 APL-Serie: ¥530 Short Deck Bounty [Turbo] ¥530 ¥50,000
4. Februar Sonne 15:40 23:40 APL-Serie: ¥5.250 PLO-NL-Kopfgeld High Roller ¥5,250 ¥200,000
4. Februar Sonne 15:40 23:40 APL-Serie: ¥530 PLO-NL Bounty [Turbo] ¥530 ¥50,000
4. Februar Sonne 16:00 0:00 APL-Serie: ¥51,000 Sonntag Ultra HR ¥51,000 ¥1,000,000
4. Februar Sonne 16:00 0:00 APL-Serie: ¥330 Midnight Madness [Hyper] ¥330 ¥150,000
4. Februar Sonne 16:30 0:30 APL-Serie: ¥2,100 Speed Racer Kopfgeld Schließer HR ¥2,100 ¥100,000
4. Februar Sonne 16:40 0:40 APL-Serie: ¥1.100 PLO-NL Hundertstapel ¥1,100 ¥80,000
4. Februar Sonne 16:40 0:40 APL-Serie: ¥10.300 PLO-NL Hundertstapel HR ¥10,300 ¥200,000
5. Februar Mo 5:00 13:00 APL-Serie: ¥550 Daily Opener ¥550 ¥60,000
5. Februar Mo 5:00 13:00 APL-Serie: ¥88 Sternzeichen-Rattenöffner ¥88 ¥30,000
5. Februar Mo 5:00 13:00 APL-Serie: ¥550 Daily Opener ¥550 ¥60,000
5. Februar Mo 5:00 13:00 APL-Serie: ¥88 Sternzeichen-Rattenöffner ¥88 ¥30,000
5. Februar Mo 6:00 14:00 APL-Serie: ¥1.100 Deepstack High Roller ¥1,100 ¥80,000
5. Februar Mo 6:00 14:00 APL-Serie: ¥330 Zodiac Ox Strong Stack ¥330 ¥70,000
5. Februar Mo 6:00 14:00 APL-Serie: ¥1.100 Deepstack High Roller ¥1,100 ¥80,000
5. Februar Mo 6:00 14:00 APL-Serie: ¥330 Zodiac Ox Strong Stack ¥330 ¥70,000
5. Februar Mo 7:00 15:00 APL-Serie: ¥1.050 Bounty High Roller ¥1,050 ¥100,000
5. Februar Mo 7:00 15:00 APL-Serie: ¥108 Zodiac Tiger King Bounty ¥108 ¥70,000
5. Februar Mo 7:00 15:00 APL-Serie: ¥1.050 Bounty High Roller ¥1,050 ¥100,000
5. Februar Mo 7:00 15:00 APL-Serie: ¥108 Zodiac Tiger King Bounty ¥108 ¥70,000
5. Februar Mo 8:00 16:00 APL-Serie: ¥220 Hold'em Klassisch ¥220 ¥50,000
5. Februar Mo 8:00 16:00 APL-Serie: ¥85.50 Zodiac-Kaninchen Glückskopfgeld ¥85.5 ¥50,000
5. Februar Mo 8:00 16:00 APL-Serie: ¥220 Hold'em Klassisch ¥220 ¥50,000
5. Februar Mo 8:00 16:00 APL-Serie: ¥85.50 Zodiac-Kaninchen Glückskopfgeld ¥85.5 ¥50,000
5. Februar Mo 9:00 17:00 APL-Serie: ¥80 Hold'em Klassisch ¥80 ¥30,000
5. Februar Mo 9:00 17:00 APL-Serie: ¥800 Zodiac Dragon High Roller ¥800 ¥100,000
5. Februar Mo 9:00 17:00 APL-Serie: ¥80 Hold'em Klassisch ¥80 ¥30,000
5. Februar Mo 9:00 17:00 APL-Serie: ¥800 Zodiac Dragon High Roller ¥800 ¥100,000
5. Februar Mo 9:30 17:30 APL-Serie: ¥630 Hold'em-Kopfgeld [6-Max] ¥630 ¥120,000
5. Februar Mo 9:30 17:30 APL-Serie: ¥64.50 Zodiac-Schlangen-Bounty [6-Max] ¥64.5 ¥50,000
5. Februar Mo 9:30 17:30 APL-Serie: ¥630 Hold'em-Kopfgeld [6-Max] ¥630 ¥120,000
5. Februar Mo 9:30 17:30 APL-Serie: ¥64.50 Zodiac-Schlangen-Bounty [6-Max] ¥64.5 ¥50,000
5. Februar Mo 10:00 18:00 APL-Serie: ¥1.100 Hold'em-Marathon ¥1,100 ¥88,000
5. Februar Mo 10:00 18:00 APL-Serie: ¥110 Zodiac Pferd Marathon ¥110 ¥50,000
5. Februar Mo 10:00 18:00 APL-Serie: ¥1.100 Hold'em-Marathon ¥1,100 ¥88,000
5. Februar Mo 10:00 18:00 APL-Serie: ¥110 Zodiac Pferd Marathon ¥110 ¥50,000
5. Februar Mo 10:30 18:30 APL-Serie: ¥840 Hold'em-Kopfgeld ¥840 ¥125,000
5. Februar Mo 10:30 18:30 APL-Serie: ¥85.50 Hold'em-Kopfgeld ¥85.5 ¥60,000
5. Februar Mo 10:30 18:30 APL-Serie: ¥840 Hold'em-Kopfgeld ¥840 ¥125,000
5. Februar Mo 10:30 18:30 APL-Serie: ¥85.50 Hold'em-Kopfgeld ¥85.5 ¥60,000
5. Februar Mo 11:00 19:00 APL-Serie: ¥2.024 Zodiac Ziege High Roller ¥2,024 ¥130,000
5. Februar Mo 11:00 19:00 APL-Serie: ¥2.024 Zodiac Ziege High Roller ¥2,024 ¥130,000
5. Februar Mo 11:30 19:30 APL-Serie: ¥2.100 Bounty High Roller ¥2,100 ¥130,000
5. Februar Mo 11:30 19:30 APL-Serie: ¥215 Zodiac-Affenkönig-Kopfgeld ¥215 ¥125,000
5. Februar Mo 11:30 19:30 APL-Serie: ¥2.100 Bounty High Roller ¥2,100 ¥130,000
5. Februar Mo 11:30 19:30 APL-Serie: ¥215 Zodiac-Affenkönig-Kopfgeld ¥215 ¥125,000
5. Februar Mo 12:00 20:00 APL-Serie: ¥388 Zodiac Hauptveranstaltung, ¥250K GTD ¥388 ¥300,000
5. Februar Mo 12:00 20:00 APL-Serie: ¥388 Zodiac Hauptveranstaltung, ¥250K GTD ¥388 ¥300,000
5. Februar Mo 13:00 21:00 APL-Serie: ¥5.500 Deepstack High Roller ¥5,500 ¥200,000
5. Februar Mo 13:00 21:00 APL-Serie: ¥550 Hold'em Deepstack ¥550 ¥100,000
5. Februar Mo 13:00 21:00 APL-Serie: ¥50 Zodiac-Hahn-Sonnenuntergang-Spezial ¥50 ¥35,000
5. Februar Mo 13:00 21:00 APL-Serie: ¥5.500 Deepstack High Roller ¥5,500 ¥200,000
5. Februar Mo 13:00 21:00 APL-Serie: ¥550 Hold'em Deepstack ¥550 ¥100,000
5. Februar Mo 13:00 21:00 APL-Serie: ¥50 Zodiac-Hahn-Sonnenuntergang-Spezial ¥50 ¥35,000
5. Februar Mo 13:10 21:10 APL-Serie: ¥3,150 Kurzdeck-Kopfgeld HR ¥3,150 ¥88,000
5. Februar Mo 13:10 21:10 APL-Serie: ¥320 Short Deck Bounty ¥320 ¥25,000
5. Februar Mo 13:10 21:10 APL-Serie: ¥3,150 Kurzdeck-Kopfgeld HR ¥3,150 ¥88,000
5. Februar Mo 13:10 21:10 APL-Serie: ¥320 Short Deck Bounty ¥320 ¥25,000
5. Februar Mo 13:40 21:40 APL-Serie: ¥5.250 PLO-NL-Kopfgeld HR ¥5,250 ¥88,000
5. Februar Mo 13:40 21:40 APL-Serie: ¥530 PLO-NL-Bounty ¥530 ¥30,000
5. Februar Mo 13:40 21:40 APL-Serie: ¥5.250 PLO-NL-Kopfgeld HR ¥5,250 ¥88,000
5. Februar Mo 13:40 21:40 APL-Serie: ¥530 PLO-NL-Bounty ¥530 ¥30,000
5. Februar Mo 14:00 22:00 APL-Serie: ¥1.100 Hold'em Klassisch ¥1,100 ¥100,000
5. Februar Mo 14:00 22:00 APL-Serie: ¥110 Zodiac Dog Ultra Deepstack Turbo ¥110 ¥50,000
5. Februar Mo 14:00 22:00 APL-Serie: ¥1.100 Hold'em Klassisch ¥1,100 ¥100,000
5. Februar Mo 14:00 22:00 APL-Serie: ¥110 Zodiac Dog Ultra Deepstack Turbo ¥110 ¥50,000
5. Februar Mo 14:10 22:10 APL-Serie: ¥8,000 Kurzes Deck HR [3-Stapel] ¥8,000 ¥100,000
5. Februar Mo 14:10 22:10 APL-Serie: ¥800 Short Deck [3-Stapel] ¥800 ¥25,000
5. Februar Mo 14:10 22:10 APL-Serie: ¥8,000 Kurzes Deck HR [3-Stapel] ¥8,000 ¥100,000
5. Februar Mo 14:10 22:10 APL-Serie: ¥800 Short Deck [3-Stapel] ¥800 ¥25,000
5. Februar Mo 14:30 22:30 APL-Serie: ¥3.150 Bounty High Roller ¥3,150 ¥180,000
5. Februar Mo 14:30 22:30 APL-Serie: ¥320 Zodiac-Schwein-Schmaus ¥320 ¥180,000
5. Februar Mo 14:30 22:30 APL-Serie: ¥3.150 Bounty High Roller ¥3,150 ¥180,000
5. Februar Mo 14:30 22:30 APL-Serie: ¥320 Zodiac-Schwein-Schmaus ¥320 ¥180,000
5. Februar Mo 14:40 22:40 APL-Serie: ¥1.100 PLO-NL Klassisch ¥1,100 ¥25,000
5. Februar Mo 14:40 22:40 APL-Serie: ¥1.100 PLO-NL Klassisch ¥1,100 ¥25,000
5. Februar Mo 15:00 23:00 APL-Serie: ¥5.500 High Roller 6-Max ¥5,500 ¥250,000
5. Februar Mo 15:00 23:00 APL-Serie: ¥800 Hold'em 6-Max ¥800 ¥150,000
5. Februar Mo 15:00 23:00 APL-Serie: ¥5.500 High Roller 6-Max ¥5,500 ¥250,000
5. Februar Mo 15:00 23:00 APL-Serie: ¥800 Hold'em 6-Max ¥800 ¥150,000
5. Februar Mo 15:10 23:10 APL-Serie: ¥530 Short Deck Bounty [Turbo] ¥530 ¥30,000
5. Februar Mo 15:10 23:10 APL-Serie: ¥530 Short Deck Bounty [Turbo] ¥530 ¥30,000
5. Februar Mo 15:40 23:40 APL-Serie: ¥530 PLO-NL Bounty [Turbo] ¥530 ¥30,000
5. Februar Mo 15:40 23:40 APL-Serie: ¥530 PLO-NL Bounty [Turbo] ¥530 ¥30,000
5. Februar Mo 16:00 0:00 APL-Serie: ¥330 Midnight Madness [Hyper] ¥330 ¥60,000
5. Februar Mo 16:00 0:00 APL-Serie: ¥330 Midnight Madness [Hyper] ¥330 ¥60,000
5. Februar Mo 16:30 0:30 APL-Serie: ¥2,100 Speed Racer Kopfgeld Schließer HR ¥2,100 ¥75,000
5. Februar Mo 16:30 0:30 APL-Serie: ¥215 Speed Racer Kopfgeldjäger ¥215 ¥50,000
5. Februar Mo 16:30 0:30 APL-Serie: ¥2,100 Speed Racer Kopfgeld Schließer HR ¥2,100 ¥75,000
5. Februar Mo 16:30 0:30 APL-Serie: ¥215 Speed Racer Kopfgeldjäger ¥215 ¥50,000
6. Februar Di 5:00 13:00 APL-Serie: ¥550 Daily Opener ¥550 ¥60,000
6. Februar Di 5:00 13:00 APL-Serie: ¥88 Sternzeichen-Rattenöffner ¥88 ¥30,000
6. Februar Di 5:00 13:00 APL-Serie: ¥550 Daily Opener ¥550 ¥60,000
6. Februar Di 5:00 13:00 APL-Serie: ¥88 Sternzeichen-Rattenöffner ¥88 ¥30,000
6. Februar Di 6:00 14:00 APL-Serie: ¥1.100 Deepstack High Roller ¥1,100 ¥80,000
6. Februar Di 6:00 14:00 APL-Serie: ¥330 Zodiac Ox Strong Stack ¥330 ¥70,000
6. Februar Di 6:00 14:00 APL-Serie: ¥1.100 Deepstack High Roller ¥1,100 ¥80,000
6. Februar Di 6:00 14:00 APL-Serie: ¥330 Zodiac Ox Strong Stack ¥330 ¥70,000
6. Februar Di 7:00 15:00 APL-Serie: ¥1.050 Bounty High Roller ¥1,050 ¥100,000
6. Februar Di 7:00 15:00 APL-Serie: ¥108 Zodiac Tiger King Bounty ¥108 ¥70,000
6. Februar Di 7:00 15:00 APL-Serie: ¥1.050 Bounty High Roller ¥1,050 ¥100,000
6. Februar Di 7:00 15:00 APL-Serie: ¥108 Zodiac Tiger King Bounty ¥108 ¥70,000
6. Februar Di 8:00 16:00 APL-Serie: ¥220 Hold'em Klassisch ¥220 ¥50,000
6. Februar Di 8:00 16:00 APL-Serie: ¥85.50 Zodiac-Kaninchen Glückskopfgeld ¥85.5 ¥50,000
6. Februar Di 8:00 16:00 APL-Serie: ¥220 Hold'em Klassisch ¥220 ¥50,000
6. Februar Di 8:00 16:00 APL-Serie: ¥85.50 Zodiac-Kaninchen Glückskopfgeld ¥85.5 ¥50,000
6. Februar Di 9:00 17:00 APL-Serie: ¥80 Hold'em Klassisch ¥80 ¥30,000
6. Februar Di 9:00 17:00 APL-Serie: ¥800 Zodiac Dragon High Roller ¥800 ¥100,000
6. Februar Di 9:00 17:00 APL-Serie: ¥80 Hold'em Klassisch ¥80 ¥30,000
6. Februar Di 9:00 17:00 APL-Serie: ¥800 Zodiac Dragon High Roller ¥800 ¥100,000
6. Februar Di 9:30 17:30 APL-Serie: ¥630 Hold'em-Kopfgeld [6-Max] ¥630 ¥120,000
6. Februar Di 9:30 17:30 APL-Serie: ¥64.50 Zodiac-Schlangen-Bounty [6-Max] ¥64.5 ¥50,000
6. Februar Di 9:30 17:30 APL-Serie: ¥630 Hold'em-Kopfgeld [6-Max] ¥630 ¥120,000
6. Februar Di 9:30 17:30 APL-Serie: ¥64.50 Zodiac-Schlangen-Bounty [6-Max] ¥64.5 ¥50,000
6. Februar Di 10:00 18:00 APL-Serie: ¥1.100 Hold'em-Marathon ¥1,100 ¥88,000
6. Februar Di 10:00 18:00 APL-Serie: ¥110 Zodiac Pferd Marathon ¥110 ¥50,000
6. Februar Di 10:00 18:00 APL-Serie: ¥1.100 Hold'em-Marathon ¥1,100 ¥88,000
6. Februar Di 10:00 18:00 APL-Serie: ¥110 Zodiac Pferd Marathon ¥110 ¥50,000
6. Februar Di 10:30 18:30 APL-Serie: ¥840 Hold'em-Kopfgeld ¥840 ¥125,000
6. Februar Di 10:30 18:30 APL-Serie: ¥85.50 Hold'em-Kopfgeld ¥85.5 ¥60,000
6. Februar Di 10:30 18:30 APL-Serie: ¥840 Hold'em-Kopfgeld ¥840 ¥125,000
6. Februar Di 10:30 18:30 APL-Serie: ¥85.50 Hold'em-Kopfgeld ¥85.5 ¥60,000
6. Februar Di 11:00 19:00 APL-Serie: ¥2.024 Zodiac Ziege High Roller ¥2,024 ¥130,000
6. Februar Di 11:00 19:00 APL-Serie: ¥2.024 Zodiac Ziege High Roller ¥2,024 ¥130,000
6. Februar Di 11:30 19:30 APL-Serie: ¥2.100 Bounty High Roller ¥2,100 ¥130,000
6. Februar Di 11:30 19:30 APL-Serie: ¥215 Zodiac-Affenkönig-Kopfgeld ¥215 ¥125,000
6. Februar Di 11:30 19:30 APL-Serie: ¥2.100 Bounty High Roller ¥2,100 ¥130,000
6. Februar Di 11:30 19:30 APL-Serie: ¥215 Zodiac-Affenkönig-Kopfgeld ¥215 ¥125,000
6. Februar Di 12:00 20:00 APL-Serie: ¥388 Zodiac Hauptveranstaltung, ¥250K GTD ¥388 ¥300,000
6. Februar Di 12:00 20:00 APL-Serie: ¥388 Zodiac Hauptveranstaltung, ¥250K GTD ¥388 ¥300,000
6. Februar Di 13:00 21:00 APL-Serie: ¥5.500 Deepstack High Roller ¥5,500 ¥200,000
6. Februar Di 13:00 21:00 APL-Serie: ¥550 Hold'em Deepstack ¥550 ¥100,000
6. Februar Di 13:00 21:00 APL-Serie: ¥50 Zodiac-Hahn-Sonnenuntergang-Spezial ¥50 ¥35,000
6. Februar Di 13:00 21:00 APL-Serie: ¥5.500 Deepstack High Roller ¥5,500 ¥200,000
6. Februar Di 13:00 21:00 APL-Serie: ¥550 Hold'em Deepstack ¥550 ¥100,000
6. Februar Di 13:00 21:00 APL-Serie: ¥50 Zodiac-Hahn-Sonnenuntergang-Spezial ¥50 ¥35,000
6. Februar Di 13:10 21:10 APL-Serie: ¥3,150 Kurzdeck-Kopfgeld HR ¥3,150 ¥88,000
6. Februar Di 13:10 21:10 APL-Serie: ¥320 Short Deck Bounty ¥320 ¥25,000
6. Februar Di 13:10 21:10 APL-Serie: ¥3,150 Kurzdeck-Kopfgeld HR ¥3,150 ¥88,000
6. Februar Di 13:10 21:10 APL-Serie: ¥320 Short Deck Bounty ¥320 ¥25,000
6. Februar Di 13:40 21:40 APL-Serie: ¥5.250 PLO-NL-Kopfgeld HR ¥5,250 ¥88,000
6. Februar Di 13:40 21:40 APL-Serie: ¥530 PLO-NL-Bounty ¥530 ¥30,000
6. Februar Di 13:40 21:40 APL-Serie: ¥5.250 PLO-NL-Kopfgeld HR ¥5,250 ¥88,000
6. Februar Di 13:40 21:40 APL-Serie: ¥530 PLO-NL-Bounty ¥530 ¥30,000
6. Februar Di 14:00 22:00 APL-Serie: ¥1.100 Hold'em Klassisch ¥1,100 ¥100,000
6. Februar Di 14:00 22:00 APL-Serie: ¥110 Zodiac Dog Ultra Deepstack Turbo ¥110 ¥50,000
6. Februar Di 14:00 22:00 APL-Serie: ¥1.100 Hold'em Klassisch ¥1,100 ¥100,000
6. Februar Di 14:00 22:00 APL-Serie: ¥110 Zodiac Dog Ultra Deepstack Turbo ¥110 ¥50,000
6. Februar Di 14:10 22:10 APL-Serie: ¥8,000 Kurzes Deck HR [3-Stapel] ¥8,000 ¥100,000
6. Februar Di 14:10 22:10 APL-Serie: ¥800 Short Deck [3-Stapel] ¥800 ¥25,000
6. Februar Di 14:10 22:10 APL-Serie: ¥8,000 Kurzes Deck HR [3-Stapel] ¥8,000 ¥100,000
6. Februar Di 14:10 22:10 APL-Serie: ¥800 Short Deck [3-Stapel] ¥800 ¥25,000
6. Februar Di 14:30 22:30 APL-Serie: ¥3.150 Bounty High Roller ¥3,150 ¥180,000
6. Februar Di 14:30 22:30 APL-Serie: ¥320 Zodiac-Schwein-Schmaus ¥320 ¥180,000
6. Februar Di 14:30 22:30 APL-Serie: ¥3.150 Bounty High Roller ¥3,150 ¥180,000
6. Februar Di 14:30 22:30 APL-Serie: ¥320 Zodiac-Schwein-Schmaus ¥320 ¥180,000
6. Februar Di 14:40 22:40 APL-Serie: ¥1.100 PLO-NL Klassisch ¥1,100 ¥25,000
6. Februar Di 14:40 22:40 APL-Serie: ¥1.100 PLO-NL Klassisch ¥1,100 ¥25,000
6. Februar Di 15:00 23:00 APL-Serie: ¥5.500 High Roller 6-Max ¥5,500 ¥250,000
6. Februar Di 15:00 23:00 APL-Serie: ¥800 Hold'em 6-Max ¥800 ¥150,000
6. Februar Di 15:00 23:00 APL-Serie: ¥5.500 High Roller 6-Max ¥5,500 ¥250,000
6. Februar Di 15:00 23:00 APL-Serie: ¥800 Hold'em 6-Max ¥800 ¥150,000
6. Februar Di 15:10 23:10 APL-Serie: ¥530 Short Deck Bounty [Turbo] ¥530 ¥30,000
6. Februar Di 15:10 23:10 APL-Serie: ¥530 Short Deck Bounty [Turbo] ¥530 ¥30,000
6. Februar Di 15:40 23:40 APL-Serie: ¥530 PLO-NL Bounty [Turbo] ¥530 ¥30,000
6. Februar Di 15:40 23:40 APL-Serie: ¥530 PLO-NL Bounty [Turbo] ¥530 ¥30,000
6. Februar Di 16:00 0:00 APL-Serie: ¥330 Midnight Madness [Hyper] ¥330 ¥60,000
6. Februar Di 16:00 0:00 APL-Serie: ¥330 Midnight Madness [Hyper] ¥330 ¥60,000
6. Februar Di 16:30 0:30 APL-Serie: ¥2,100 Speed Racer Kopfgeld Schließer HR ¥2,100 ¥75,000
6. Februar Di 16:30 0:30 APL-Serie: ¥215 Speed Racer Kopfgeldjäger ¥215 ¥50,000
6. Februar Di 16:30 0:30 APL-Serie: ¥2,100 Speed Racer Kopfgeld Schließer HR ¥2,100 ¥75,000
6. Februar Di 16:30 0:30 APL-Serie: ¥215 Speed Racer Kopfgeldjäger ¥215 ¥50,000
7. Februar Mi 5:00 13:00 APL-Serie: ¥550 Daily Opener ¥550 ¥60,000
7. Februar Mi 5:00 13:00 APL-Serie: ¥88 Sternzeichen-Rattenöffner ¥88 ¥30,000
7. Februar Mi 5:00 13:00 APL-Serie: ¥550 Daily Opener ¥550 ¥60,000
7. Februar Mi 5:00 13:00 APL-Serie: ¥88 Sternzeichen-Rattenöffner ¥88 ¥30,000
7. Februar Mi 6:00 14:00 APL-Serie: ¥1.100 Deepstack High Roller ¥1,100 ¥80,000
7. Februar Mi 6:00 14:00 APL-Serie: ¥330 Zodiac Ox Strong Stack ¥330 ¥70,000
7. Februar Mi 6:00 14:00 APL-Serie: ¥1.100 Deepstack High Roller ¥1,100 ¥80,000
7. Februar Mi 6:00 14:00 APL-Serie: ¥330 Zodiac Ox Strong Stack ¥330 ¥70,000
7. Februar Mi 7:00 15:00 APL-Serie: ¥1.050 Bounty High Roller ¥1,050 ¥100,000
7. Februar Mi 7:00 15:00 APL-Serie: ¥108 Zodiac Tiger King Bounty ¥108 ¥70,000
7. Februar Mi 7:00 15:00 APL-Serie: ¥1.050 Bounty High Roller ¥1,050 ¥100,000
7. Februar Mi 7:00 15:00 APL-Serie: ¥108 Zodiac Tiger King Bounty ¥108 ¥70,000
7. Februar Mi 8:00 16:00 APL-Serie: ¥220 Hold'em Klassisch ¥220 ¥50,000
7. Februar Mi 8:00 16:00 APL-Serie: ¥85.50 Zodiac-Kaninchen Glückskopfgeld ¥85.5 ¥50,000
7. Februar Mi 8:00 16:00 APL-Serie: ¥220 Hold'em Klassisch ¥220 ¥50,000
7. Februar Mi 8:00 16:00 APL-Serie: ¥85.50 Zodiac-Kaninchen Glückskopfgeld ¥85.5 ¥50,000
7. Februar Mi 9:00 17:00 APL-Serie: ¥80 Hold'em Klassisch ¥80 ¥30,000
7. Februar Mi 9:00 17:00 APL-Serie: ¥800 Zodiac Dragon High Roller ¥800 ¥100,000
7. Februar Mi 9:00 17:00 APL-Serie: ¥80 Hold'em Klassisch ¥80 ¥30,000
7. Februar Mi 9:00 17:00 APL-Serie: ¥800 Zodiac Dragon High Roller ¥800 ¥100,000
7. Februar Mi 9:30 17:30 APL-Serie: ¥630 Hold'em-Kopfgeld [6-Max] ¥630 ¥120,000
7. Februar Mi 9:30 17:30 APL-Serie: ¥64.50 Zodiac-Schlangen-Bounty [6-Max] ¥64.5 ¥50,000
7. Februar Mi 9:30 17:30 APL-Serie: ¥630 Hold'em-Kopfgeld [6-Max] ¥630 ¥120,000
7. Februar Mi 9:30 17:30 APL-Serie: ¥64.50 Zodiac-Schlangen-Bounty [6-Max] ¥64.5 ¥50,000
7. Februar Mi 10:00 18:00 APL-Serie: ¥1.100 Hold'em-Marathon ¥1,100 ¥88,000
7. Februar Mi 10:00 18:00 APL-Serie: ¥110 Zodiac Pferd Marathon ¥110 ¥50,000
7. Februar Mi 10:00 18:00 APL-Serie: ¥1.100 Hold'em-Marathon ¥1,100 ¥88,000
7. Februar Mi 10:00 18:00 APL-Serie: ¥110 Zodiac Pferd Marathon ¥110 ¥50,000
7. Februar Mi 10:30 18:30 APL-Serie: ¥840 Hold'em-Kopfgeld ¥840 ¥125,000
7. Februar Mi 10:30 18:30 APL-Serie: ¥85.50 Hold'em-Kopfgeld ¥85.5 ¥60,000
7. Februar Mi 10:30 18:30 APL-Serie: ¥840 Hold'em-Kopfgeld ¥840 ¥125,000
7. Februar Mi 10:30 18:30 APL-Serie: ¥85.50 Hold'em-Kopfgeld ¥85.5 ¥60,000
7. Februar Mi 11:00 19:00 APL-Serie: ¥2.024 Zodiac Ziege High Roller ¥2,024 ¥130,000
7. Februar Mi 11:00 19:00 APL-Serie: ¥2.024 Zodiac Ziege High Roller ¥2,024 ¥130,000
7. Februar Mi 11:30 19:30 APL-Serie: ¥2.100 Bounty High Roller ¥2,100 ¥130,000
7. Februar Mi 11:30 19:30 APL-Serie: ¥215 Zodiac-Affenkönig-Kopfgeld ¥215 ¥125,000
7. Februar Mi 11:30 19:30 APL-Serie: ¥2.100 Bounty High Roller ¥2,100 ¥130,000
7. Februar Mi 11:30 19:30 APL-Serie: ¥215 Zodiac-Affenkönig-Kopfgeld ¥215 ¥125,000
7. Februar Mi 12:00 20:00 APL-Serie: ¥388 Zodiac Hauptveranstaltung, ¥250K GTD ¥388 ¥300,000
7. Februar Mi 12:00 20:00 APL-Serie: ¥388 Zodiac Hauptveranstaltung, ¥250K GTD ¥388 ¥300,000
7. Februar Mi 13:00 21:00 APL-Serie: ¥5.500 Deepstack High Roller ¥5,500 ¥200,000
7. Februar Mi 13:00 21:00 APL-Serie: ¥550 Hold'em Deepstack ¥550 ¥100,000
7. Februar Mi 13:00 21:00 APL-Serie: ¥50 Zodiac-Hahn-Sonnenuntergang-Spezial ¥50 ¥35,000
7. Februar Mi 13:00 21:00 APL-Serie: ¥5.500 Deepstack High Roller ¥5,500 ¥200,000
7. Februar Mi 13:00 21:00 APL-Serie: ¥550 Hold'em Deepstack ¥550 ¥100,000
7. Februar Mi 13:00 21:00 APL-Serie: ¥50 Zodiac-Hahn-Sonnenuntergang-Spezial ¥50 ¥35,000
7. Februar Mi 13:10 21:10 APL-Serie: ¥3,150 Kurzdeck-Kopfgeld HR ¥3,150 ¥88,000
7. Februar Mi 13:10 21:10 APL-Serie: ¥320 Short Deck Bounty ¥320 ¥25,000
7. Februar Mi 13:10 21:10 APL-Serie: ¥3,150 Kurzdeck-Kopfgeld HR ¥3,150 ¥88,000
7. Februar Mi 13:10 21:10 APL-Serie: ¥320 Short Deck Bounty ¥320 ¥25,000
7. Februar Mi 13:40 21:40 APL-Serie: ¥5.250 PLO-NL-Kopfgeld HR ¥5,250 ¥88,000
7. Februar Mi 13:40 21:40 APL-Serie: ¥530 PLO-NL-Bounty ¥530 ¥30,000
7. Februar Mi 13:40 21:40 APL-Serie: ¥5.250 PLO-NL-Kopfgeld HR ¥5,250 ¥88,000
7. Februar Mi 13:40 21:40 APL-Serie: ¥530 PLO-NL-Bounty ¥530 ¥30,000
7. Februar Mi 14:00 22:00 APL-Serie: ¥1.100 Hold'em Klassisch ¥1,100 ¥100,000
7. Februar Mi 14:00 22:00 APL-Serie: ¥110 Zodiac Dog Ultra Deepstack Turbo ¥110 ¥50,000
7. Februar Mi 14:00 22:00 APL-Serie: ¥1.100 Hold'em Klassisch ¥1,100 ¥100,000
7. Februar Mi 14:00 22:00 APL-Serie: ¥110 Zodiac Dog Ultra Deepstack Turbo ¥110 ¥50,000
7. Februar Mi 14:10 22:10 APL-Serie: ¥8,000 Kurzes Deck HR [3-Stapel] ¥8,000 ¥100,000
7. Februar Mi 14:10 22:10 APL-Serie: ¥800 Short Deck [3-Stapel] ¥800 ¥25,000
7. Februar Mi 14:10 22:10 APL-Serie: ¥8,000 Kurzes Deck HR [3-Stapel] ¥8,000 ¥100,000
7. Februar Mi 14:10 22:10 APL-Serie: ¥800 Short Deck [3-Stapel] ¥800 ¥25,000
7. Februar Mi 14:30 22:30 APL-Serie: ¥3.150 Bounty High Roller ¥3,150 ¥180,000
7. Februar Mi 14:30 22:30 APL-Serie: ¥320 Zodiac-Schwein-Schmaus ¥320 ¥180,000
7. Februar Mi 14:30 22:30 APL-Serie: ¥3.150 Bounty High Roller ¥3,150 ¥180,000
7. Februar Mi 14:30 22:30 APL-Serie: ¥320 Zodiac-Schwein-Schmaus ¥320 ¥180,000
7. Februar Mi 14:40 22:40 APL-Serie: ¥1.100 PLO-NL Klassisch ¥1,100 ¥25,000
7. Februar Mi 14:40 22:40 APL-Serie: ¥1.100 PLO-NL Klassisch ¥1,100 ¥25,000
7. Februar Mi 15:00 23:00 APL-Serie: ¥5.500 High Roller 6-Max ¥5,500 ¥250,000
7. Februar Mi 15:00 23:00 APL-Serie: ¥800 Hold'em 6-Max ¥800 ¥150,000
7. Februar Mi 15:00 23:00 APL-Serie: ¥5.500 High Roller 6-Max ¥5,500 ¥250,000
7. Februar Mi 15:00 23:00 APL-Serie: ¥800 Hold'em 6-Max ¥800 ¥150,000
7. Februar Mi 15:10 23:10 APL-Serie: ¥530 Short Deck Bounty [Turbo] ¥530 ¥30,000
7. Februar Mi 15:10 23:10 APL-Serie: ¥530 Short Deck Bounty [Turbo] ¥530 ¥30,000
7. Februar Mi 15:40 23:40 APL-Serie: ¥530 PLO-NL Bounty [Turbo] ¥530 ¥30,000
7. Februar Mi 15:40 23:40 APL-Serie: ¥530 PLO-NL Bounty [Turbo] ¥530 ¥30,000
7. Februar Mi 16:00 0:00 APL-Serie: ¥330 Midnight Madness [Hyper] ¥330 ¥60,000
7. Februar Mi 16:00 0:00 APL-Serie: ¥330 Midnight Madness [Hyper] ¥330 ¥60,000
7. Februar Mi 16:30 0:30 APL-Serie: ¥2,100 Speed Racer Kopfgeld Schließer HR ¥2,100 ¥75,000
7. Februar Mi 16:30 0:30 APL-Serie: ¥215 Speed Racer Kopfgeldjäger ¥215 ¥50,000
7. Februar Mi 16:30 0:30 APL-Serie: ¥2,100 Speed Racer Kopfgeld Schließer HR ¥2,100 ¥75,000
7. Februar Mi 16:30 0:30 APL-Serie: ¥215 Speed Racer Kopfgeldjäger ¥215 ¥50,000
8. Februar Thu 5:00 13:00 APL-Serie: ¥550 Daily Opener ¥550 ¥60,000
8. Februar Thu 5:00 13:00 APL-Serie: ¥88 Sternzeichen-Rattenöffner ¥88 ¥30,000
8. Februar Thu 5:00 13:00 APL-Serie: ¥550 Daily Opener ¥550 ¥60,000
8. Februar Thu 5:00 13:00 APL-Serie: ¥88 Sternzeichen-Rattenöffner ¥88 ¥30,000
8. Februar Thu 6:00 14:00 APL-Serie: ¥1.100 Deepstack High Roller ¥1,100 ¥80,000
8. Februar Thu 6:00 14:00 APL-Serie: ¥330 Zodiac Ox Strong Stack ¥330 ¥70,000
8. Februar Thu 6:00 14:00 APL-Serie: ¥1.100 Deepstack High Roller ¥1,100 ¥80,000
8. Februar Thu 6:00 14:00 APL-Serie: ¥330 Zodiac Ox Strong Stack ¥330 ¥70,000
8. Februar Thu 7:00 15:00 APL-Serie: ¥1.050 Bounty High Roller ¥1,050 ¥100,000
8. Februar Thu 7:00 15:00 APL-Serie: ¥108 Zodiac Tiger King Bounty ¥108 ¥70,000
8. Februar Thu 7:00 15:00 APL-Serie: ¥1.050 Bounty High Roller ¥1,050 ¥100,000
8. Februar Thu 7:00 15:00 APL-Serie: ¥108 Zodiac Tiger King Bounty ¥108 ¥70,000
8. Februar Thu 8:00 16:00 APL-Serie: ¥220 Hold'em Klassisch ¥220 ¥50,000
8. Februar Thu 8:00 16:00 APL-Serie: ¥85.50 Zodiac-Kaninchen Glückskopfgeld ¥85.5 ¥50,000
8. Februar Thu 8:00 16:00 APL-Serie: ¥220 Hold'em Klassisch ¥220 ¥50,000
8. Februar Thu 8:00 16:00 APL-Serie: ¥85.50 Zodiac-Kaninchen Glückskopfgeld ¥85.5 ¥50,000
8. Februar Thu 9:00 17:00 APL-Serie: ¥80 Hold'em Klassisch ¥80 ¥30,000
8. Februar Thu 9:00 17:00 APL-Serie: ¥800 Zodiac Dragon High Roller ¥800 ¥100,000
8. Februar Thu 9:00 17:00 APL-Serie: ¥80 Hold'em Klassisch ¥80 ¥30,000
8. Februar Thu 9:00 17:00 APL-Serie: ¥800 Zodiac Dragon High Roller ¥800 ¥100,000
8. Februar Thu 9:30 17:30 APL-Serie: ¥630 Hold'em-Kopfgeld [6-Max] ¥630 ¥120,000
8. Februar Thu 9:30 17:30 APL-Serie: ¥64.50 Zodiac-Schlangen-Bounty [6-Max] ¥64.5 ¥50,000
8. Februar Thu 9:30 17:30 APL-Serie: ¥630 Hold'em-Kopfgeld [6-Max] ¥630 ¥120,000
8. Februar Thu 9:30 17:30 APL-Serie: ¥64.50 Zodiac-Schlangen-Bounty [6-Max] ¥64.5 ¥50,000
8. Februar Thu 10:00 18:00 APL-Serie: ¥1.100 Hold'em-Marathon ¥1,100 ¥88,000
8. Februar Thu 10:00 18:00 APL-Serie: ¥110 Zodiac Pferd Marathon ¥110 ¥50,000
8. Februar Thu 10:00 18:00 APL-Serie: ¥1.100 Hold'em-Marathon ¥1,100 ¥88,000
8. Februar Thu 10:00 18:00 APL-Serie: ¥110 Zodiac Pferd Marathon ¥110 ¥50,000
8. Februar Thu 10:30 18:30 APL-Serie: ¥840 Hold'em-Kopfgeld ¥840 ¥125,000
8. Februar Thu 10:30 18:30 APL-Serie: ¥85.50 Hold'em-Kopfgeld ¥85.5 ¥60,000
8. Februar Thu 10:30 18:30 APL-Serie: ¥840 Hold'em-Kopfgeld ¥840 ¥125,000
8. Februar Thu 10:30 18:30 APL-Serie: ¥85.50 Hold'em-Kopfgeld ¥85.5 ¥60,000
8. Februar Thu 11:00 19:00 APL-Serie: ¥2.024 Zodiac Ziege High Roller ¥2,024 ¥130,000
8. Februar Thu 11:00 19:00 APL-Serie: ¥2.024 Zodiac Ziege High Roller ¥2,024 ¥130,000
8. Februar Thu 11:30 19:30 APL-Serie: ¥2.100 Bounty High Roller ¥2,100 ¥130,000
8. Februar Thu 11:30 19:30 APL-Serie: ¥215 Zodiac-Affenkönig-Kopfgeld ¥215 ¥125,000
8. Februar Thu 11:30 19:30 APL-Serie: ¥2.100 Bounty High Roller ¥2,100 ¥130,000
8. Februar Thu 11:30 19:30 APL-Serie: ¥215 Zodiac-Affenkönig-Kopfgeld ¥215 ¥125,000
8. Februar Thu 12:00 20:00 APL-Serie: ¥388 Zodiac Hauptveranstaltung, ¥250K GTD ¥388 ¥300,000
8. Februar Thu 12:00 20:00 APL-Serie: ¥388 Zodiac Hauptveranstaltung, ¥250K GTD ¥388 ¥300,000
8. Februar Thu 13:00 21:00 APL-Serie: ¥5.500 Deepstack High Roller ¥5,500 ¥200,000
8. Februar Thu 13:00 21:00 APL-Serie: ¥550 Hold'em Deepstack ¥550 ¥100,000
8. Februar Thu 13:00 21:00 APL-Serie: ¥50 Zodiac-Hahn-Sonnenuntergang-Spezial ¥50 ¥35,000
8. Februar Thu 13:00 21:00 APL-Serie: ¥5.500 Deepstack High Roller ¥5,500 ¥200,000
8. Februar Thu 13:00 21:00 APL-Serie: ¥550 Hold'em Deepstack ¥550 ¥100,000
8. Februar Thu 13:00 21:00 APL-Serie: ¥50 Zodiac-Hahn-Sonnenuntergang-Spezial ¥50 ¥35,000
8. Februar Thu 13:10 21:10 APL-Serie: ¥3,150 Kurzdeck-Kopfgeld HR ¥3,150 ¥88,000
8. Februar Thu 13:10 21:10 APL-Serie: ¥320 Short Deck Bounty ¥320 ¥25,000
8. Februar Thu 13:10 21:10 APL-Serie: ¥3,150 Kurzdeck-Kopfgeld HR ¥3,150 ¥88,000
8. Februar Thu 13:10 21:10 APL-Serie: ¥320 Short Deck Bounty ¥320 ¥25,000
8. Februar Thu 13:40 21:40 APL-Serie: ¥5.250 PLO-NL-Kopfgeld HR ¥5,250 ¥88,000
8. Februar Thu 13:40 21:40 APL-Serie: ¥530 PLO-NL-Bounty ¥530 ¥30,000
8. Februar Thu 13:40 21:40 APL-Serie: ¥5.250 PLO-NL-Kopfgeld HR ¥5,250 ¥88,000
8. Februar Thu 13:40 21:40 APL-Serie: ¥530 PLO-NL-Bounty ¥530 ¥30,000
8. Februar Thu 14:00 22:00 APL-Serie: ¥1.100 Hold'em Klassisch ¥1,100 ¥100,000
8. Februar Thu 14:00 22:00 APL-Serie: ¥110 Zodiac Dog Ultra Deepstack Turbo ¥110 ¥50,000
8. Februar Thu 14:00 22:00 APL-Serie: ¥1.100 Hold'em Klassisch ¥1,100 ¥100,000
8. Februar Thu 14:00 22:00 APL-Serie: ¥110 Zodiac Dog Ultra Deepstack Turbo ¥110 ¥50,000
8. Februar Thu 14:10 22:10 APL-Serie: ¥8,000 Kurzes Deck HR [3-Stapel] ¥8,000 ¥100,000
8. Februar Thu 14:10 22:10 APL-Serie: ¥800 Short Deck [3-Stapel] ¥800 ¥25,000
8. Februar Thu 14:10 22:10 APL-Serie: ¥8,000 Kurzes Deck HR [3-Stapel] ¥8,000 ¥100,000
8. Februar Thu 14:10 22:10 APL-Serie: ¥800 Short Deck [3-Stapel] ¥800 ¥25,000
8. Februar Thu 14:30 22:30 APL-Serie: ¥3.150 Bounty High Roller ¥3,150 ¥180,000
8. Februar Thu 14:30 22:30 APL-Serie: ¥320 Zodiac-Schwein-Schmaus ¥320 ¥180,000
8. Februar Thu 14:30 22:30 APL-Serie: ¥3.150 Bounty High Roller ¥3,150 ¥180,000
8. Februar Thu 14:30 22:30 APL-Serie: ¥320 Zodiac-Schwein-Schmaus ¥320 ¥180,000
8. Februar Thu 14:40 22:40 APL-Serie: ¥1.100 PLO-NL Klassisch ¥1,100 ¥25,000
8. Februar Thu 14:40 22:40 APL-Serie: ¥1.100 PLO-NL Klassisch ¥1,100 ¥25,000
8. Februar Thu 15:00 23:00 APL-Serie: ¥5.500 High Roller 6-Max ¥5,500 ¥250,000
8. Februar Thu 15:00 23:00 APL-Serie: ¥800 Hold'em 6-Max ¥800 ¥150,000
8. Februar Thu 15:00 23:00 APL-Serie: ¥5.500 High Roller 6-Max ¥5,500 ¥250,000
8. Februar Thu 15:00 23:00 APL-Serie: ¥800 Hold'em 6-Max ¥800 ¥150,000
8. Februar Thu 15:10 23:10 APL-Serie: ¥530 Short Deck Bounty [Turbo] ¥530 ¥30,000
8. Februar Thu 15:10 23:10 APL-Serie: ¥530 Short Deck Bounty [Turbo] ¥530 ¥30,000
8. Februar Thu 15:40 23:40 APL-Serie: ¥530 PLO-NL Bounty [Turbo] ¥530 ¥30,000
8. Februar Thu 15:40 23:40 APL-Serie: ¥530 PLO-NL Bounty [Turbo] ¥530 ¥30,000
8. Februar Thu 16:00 0:00 APL-Serie: ¥330 Midnight Madness [Hyper] ¥330 ¥60,000
8. Februar Thu 16:00 0:00 APL-Serie: ¥330 Midnight Madness [Hyper] ¥330 ¥60,000
8. Februar Thu 16:30 0:30 APL-Serie: ¥2,100 Speed Racer Kopfgeld Schließer HR ¥2,100 ¥75,000
8. Februar Thu 16:30 0:30 APL-Serie: ¥215 Speed Racer Kopfgeldjäger ¥215 ¥50,000
8. Februar Thu 16:30 0:30 APL-Serie: ¥2,100 Speed Racer Kopfgeld Schließer HR ¥2,100 ¥75,000
8. Februar Thu 16:30 0:30 APL-Serie: ¥215 Speed Racer Kopfgeldjäger ¥215 ¥50,000
9. Februar Fr 5:00 13:00 APL-Serie: ¥550 Daily Opener ¥550 ¥60,000
9. Februar Fr 5:00 13:00 APL-Serie: ¥88 Sternzeichen-Rattenöffner ¥88 ¥30,000
9. Februar Fr 5:00 13:00 APL-Serie: ¥550 Daily Opener ¥550 ¥60,000
9. Februar Fr 5:00 13:00 APL-Serie: ¥88 Sternzeichen-Rattenöffner ¥88 ¥30,000
9. Februar Fr 6:00 14:00 APL-Serie: ¥1.100 Deepstack High Roller ¥1,100 ¥80,000
9. Februar Fr 6:00 14:00 APL-Serie: ¥330 Zodiac Ox Strong Stack ¥330 ¥70,000
9. Februar Fr 6:00 14:00 APL-Serie: ¥1.100 Deepstack High Roller ¥1,100 ¥80,000
9. Februar Fr 6:00 14:00 APL-Serie: ¥330 Zodiac Ox Strong Stack ¥330 ¥70,000
9. Februar Fr 7:00 15:00 APL-Serie: ¥1.050 Bounty High Roller ¥1,050 ¥100,000
9. Februar Fr 7:00 15:00 APL-Serie: ¥108 Zodiac Tiger King Bounty ¥108 ¥70,000
9. Februar Fr 7:00 15:00 APL-Serie: ¥1.050 Bounty High Roller ¥1,050 ¥100,000
9. Februar Fr 7:00 15:00 APL-Serie: ¥108 Zodiac Tiger King Bounty ¥108 ¥70,000
9. Februar Fr 8:00 16:00 APL-Serie: ¥220 Hold'em Klassisch ¥220 ¥50,000
9. Februar Fr 8:00 16:00 APL-Serie: ¥85.50 Zodiac-Kaninchen Glückskopfgeld ¥85.5 ¥50,000
9. Februar Fr 8:00 16:00 APL-Serie: ¥220 Hold'em Klassisch ¥220 ¥50,000
9. Februar Fr 8:00 16:00 APL-Serie: ¥85.50 Zodiac-Kaninchen Glückskopfgeld ¥85.5 ¥50,000
9. Februar Fr 9:00 17:00 APL-Serie: ¥80 Hold'em Klassisch ¥80 ¥30,000
9. Februar Fr 9:00 17:00 APL-Serie: ¥800 Zodiac Dragon High Roller ¥800 ¥100,000
9. Februar Fr 9:00 17:00 APL-Serie: ¥80 Hold'em Klassisch ¥80 ¥30,000
9. Februar Fr 9:00 17:00 APL-Serie: ¥800 Zodiac Dragon High Roller ¥800 ¥100,000
9. Februar Fr 9:30 17:30 APL-Serie: ¥630 Hold'em-Kopfgeld [6-Max] ¥630 ¥120,000
9. Februar Fr 9:30 17:30 APL-Serie: ¥64.50 Zodiac-Schlangen-Bounty [6-Max] ¥64.5 ¥50,000
9. Februar Fr 9:30 17:30 APL-Serie: ¥630 Hold'em-Kopfgeld [6-Max] ¥630 ¥120,000
9. Februar Fr 9:30 17:30 APL-Serie: ¥64.50 Zodiac-Schlangen-Bounty [6-Max] ¥64.5 ¥50,000
9. Februar Fr 10:00 18:00 APL-Serie: ¥1.100 Hold'em-Marathon ¥1,100 ¥88,000
9. Februar Fr 10:00 18:00 APL-Serie: ¥110 Zodiac Pferd Marathon ¥110 ¥50,000
9. Februar Fr 10:00 18:00 APL-Serie: ¥1.100 Hold'em-Marathon ¥1,100 ¥88,000
9. Februar Fr 10:00 18:00 APL-Serie: ¥110 Zodiac Pferd Marathon ¥110 ¥50,000
9. Februar Fr 10:30 18:30 APL-Serie: ¥840 Hold'em-Kopfgeld ¥840 ¥125,000
9. Februar Fr 10:30 18:30 APL-Serie: ¥85.50 Hold'em-Kopfgeld ¥85.5 ¥60,000
9. Februar Fr 10:30 18:30 APL-Serie: ¥840 Hold'em-Kopfgeld ¥840 ¥125,000
9. Februar Fr 10:30 18:30 APL-Serie: ¥85.50 Hold'em-Kopfgeld ¥85.5 ¥60,000
9. Februar Fr 11:00 19:00 APL-Serie: ¥2.024 Zodiac Ziege High Roller ¥2,024 ¥130,000
9. Februar Fr 11:00 19:00 APL-Serie: ¥2.024 Zodiac Ziege High Roller ¥2,024 ¥130,000
9. Februar Fr 11:30 19:30 APL-Serie: ¥2.100 Bounty High Roller ¥2,100 ¥130,000
9. Februar Fr 11:30 19:30 APL-Serie: ¥215 Zodiac-Affenkönig-Kopfgeld ¥215 ¥125,000
9. Februar Fr 11:30 19:30 APL-Serie: ¥2.100 Bounty High Roller ¥2,100 ¥130,000
9. Februar Fr 11:30 19:30 APL-Serie: ¥215 Zodiac-Affenkönig-Kopfgeld ¥215 ¥125,000
9. Februar Fr 12:00 20:00 APL-Serie: ¥388 Zodiac Hauptveranstaltung, ¥250K GTD ¥388 ¥300,000
9. Februar Fr 12:00 20:00 APL-Serie: ¥388 Zodiac Hauptveranstaltung, ¥250K GTD ¥388 ¥300,000
9. Februar Fr 13:00 21:00 APL-Serie: ¥5.500 Deepstack High Roller ¥5,500 ¥200,000
9. Februar Fr 13:00 21:00 APL-Serie: ¥550 Hold'em Deepstack ¥550 ¥100,000
9. Februar Fr 13:00 21:00 APL-Serie: ¥50 Zodiac-Hahn-Sonnenuntergang-Spezial ¥50 ¥35,000
9. Februar Fr 13:00 21:00 APL-Serie: ¥5.500 Deepstack High Roller ¥5,500 ¥200,000
9. Februar Fr 13:00 21:00 APL-Serie: ¥550 Hold'em Deepstack ¥550 ¥100,000
9. Februar Fr 13:00 21:00 APL-Serie: ¥50 Zodiac-Hahn-Sonnenuntergang-Spezial ¥50 ¥35,000
9. Februar Fr 13:10 21:10 APL-Serie: ¥3,150 Kurzdeck-Kopfgeld HR ¥3,150 ¥88,000
9. Februar Fr 13:10 21:10 APL-Serie: ¥320 Short Deck Bounty ¥320 ¥25,000
9. Februar Fr 13:10 21:10 APL-Serie: ¥3,150 Kurzdeck-Kopfgeld HR ¥3,150 ¥88,000
9. Februar Fr 13:10 21:10 APL-Serie: ¥320 Short Deck Bounty ¥320 ¥25,000
9. Februar Fr 13:40 21:40 APL-Serie: ¥5.250 PLO-NL-Kopfgeld HR ¥5,250 ¥88,000
9. Februar Fr 13:40 21:40 APL-Serie: ¥530 PLO-NL-Bounty ¥530 ¥30,000
9. Februar Fr 13:40 21:40 APL-Serie: ¥5.250 PLO-NL-Kopfgeld HR ¥5,250 ¥88,000
9. Februar Fr 13:40 21:40 APL-Serie: ¥530 PLO-NL-Bounty ¥530 ¥30,000
9. Februar Fr 14:00 22:00 APL-Serie: ¥1.100 Hold'em Klassisch ¥1,100 ¥100,000
9. Februar Fr 14:00 22:00 APL-Serie: ¥110 Zodiac Dog Ultra Deepstack Turbo ¥110 ¥50,000
9. Februar Fr 14:00 22:00 APL-Serie: ¥1.100 Hold'em Klassisch ¥1,100 ¥100,000
9. Februar Fr 14:00 22:00 APL-Serie: ¥110 Zodiac Dog Ultra Deepstack Turbo ¥110 ¥50,000
9. Februar Fr 14:10 22:10 APL-Serie: ¥8,000 Kurzes Deck HR [3-Stapel] ¥8,000 ¥100,000
9. Februar Fr 14:10 22:10 APL-Serie: ¥800 Short Deck [3-Stapel] ¥800 ¥25,000
9. Februar Fr 14:10 22:10 APL-Serie: ¥8,000 Kurzes Deck HR [3-Stapel] ¥8,000 ¥100,000
9. Februar Fr 14:10 22:10 APL-Serie: ¥800 Short Deck [3-Stapel] ¥800 ¥25,000
9. Februar Fr 14:30 22:30 APL-Serie: ¥3.150 Bounty High Roller ¥3,150 ¥180,000
9. Februar Fr 14:30 22:30 APL-Serie: ¥320 Zodiac-Schwein-Schmaus ¥320 ¥180,000
9. Februar Fr 14:30 22:30 APL-Serie: ¥3.150 Bounty High Roller ¥3,150 ¥180,000
9. Februar Fr 14:30 22:30 APL-Serie: ¥320 Zodiac-Schwein-Schmaus ¥320 ¥180,000
9. Februar Fr 14:40 22:40 APL-Serie: ¥1.100 PLO-NL Klassisch ¥1,100 ¥25,000
9. Februar Fr 14:40 22:40 APL-Serie: ¥1.100 PLO-NL Klassisch ¥1,100 ¥25,000
9. Februar Fr 15:00 23:00 APL-Serie: ¥5.500 High Roller 6-Max ¥5,500 ¥250,000
9. Februar Fr 15:00 23:00 APL-Serie: ¥800 Hold'em 6-Max ¥800 ¥150,000
9. Februar Fr 15:00 23:00 APL-Serie: ¥5.500 High Roller 6-Max ¥5,500 ¥250,000
9. Februar Fr 15:00 23:00 APL-Serie: ¥800 Hold'em 6-Max ¥800 ¥150,000
9. Februar Fr 15:10 23:10 APL-Serie: ¥530 Short Deck Bounty [Turbo] ¥530 ¥30,000
9. Februar Fr 15:10 23:10 APL-Serie: ¥530 Short Deck Bounty [Turbo] ¥530 ¥30,000
9. Februar Fr 15:40 23:40 APL-Serie: ¥530 PLO-NL Bounty [Turbo] ¥530 ¥30,000
9. Februar Fr 15:40 23:40 APL-Serie: ¥530 PLO-NL Bounty [Turbo] ¥530 ¥30,000
9. Februar Fr 16:00 0:00 APL-Serie: ¥330 Midnight Madness [Hyper] ¥330 ¥60,000
9. Februar Fr 16:00 0:00 APL-Serie: ¥330 Midnight Madness [Hyper] ¥330 ¥60,000
9. Februar Fr 16:30 0:30 APL-Serie: ¥2,100 Speed Racer Kopfgeld Schließer HR ¥2,100 ¥75,000
9. Februar Fr 16:30 0:30 APL-Serie: ¥215 Speed Racer Kopfgeldjäger ¥215 ¥50,000
9. Februar Fr 16:30 0:30 APL-Serie: ¥2,100 Speed Racer Kopfgeld Schließer HR ¥2,100 ¥75,000
9. Februar Fr 16:30 0:30 APL-Serie: ¥215 Speed Racer Kopfgeldjäger ¥215 ¥50,000
10. Februar Sat 5:00 13:00 APL-Serie: ¥550 Daily Opener ¥550 ¥60,000
10. Februar Sat 5:00 13:00 APL-Serie: ¥88 Sternzeichen-Rattenöffner ¥88 ¥30,000
10. Februar Sat 5:00 13:00 APL-Serie: ¥550 Daily Opener ¥550 ¥60,000
10. Februar Sat 5:00 13:00 APL-Serie: ¥88 Sternzeichen-Rattenöffner ¥88 ¥30,000
10. Februar Sat 6:00 14:00 APL-Serie: ¥1.100 Deepstack High Roller ¥1,100 ¥80,000
10. Februar Sat 6:00 14:00 APL-Serie: ¥330 Zodiac Ox Strong Stack ¥330 ¥70,000
10. Februar Sat 6:00 14:00 APL-Serie: ¥1.100 Deepstack High Roller ¥1,100 ¥80,000
10. Februar Sat 6:00 14:00 APL-Serie: ¥330 Zodiac Ox Strong Stack ¥330 ¥70,000
10. Februar Sat 7:00 15:00 APL-Serie: ¥1.050 Bounty High Roller ¥1,050 ¥100,000
10. Februar Sat 7:00 15:00 APL-Serie: ¥108 Zodiac Tiger King Bounty ¥108 ¥70,000
10. Februar Sat 7:00 15:00 APL-Serie: ¥1.050 Bounty High Roller ¥1,050 ¥100,000
10. Februar Sat 7:00 15:00 APL-Serie: ¥108 Zodiac Tiger King Bounty ¥108 ¥70,000
10. Februar Sat 8:00 16:00 APL-Serie: ¥220 Hold'em Klassisch ¥220 ¥50,000
10. Februar Sat 8:00 16:00 APL-Serie: ¥85.50 Zodiac-Kaninchen Glückskopfgeld ¥85.5 ¥50,000
10. Februar Sat 8:00 16:00 APL-Serie: ¥220 Hold'em Klassisch ¥220 ¥50,000
10. Februar Sat 8:00 16:00 APL-Serie: ¥85.50 Zodiac-Kaninchen Glückskopfgeld ¥85.5 ¥50,000
10. Februar Sat 9:00 17:00 APL-Serie: ¥80 Hold'em Klassisch ¥80 ¥30,000
10. Februar Sat 9:00 17:00 APL-Serie: ¥800 Zodiac Dragon High Roller ¥800 ¥100,000
10. Februar Sat 9:00 17:00 APL-Serie: ¥80 Hold'em Klassisch ¥80 ¥30,000
10. Februar Sat 9:00 17:00 APL-Serie: ¥800 Zodiac Dragon High Roller ¥800 ¥100,000
10. Februar Sat 9:30 17:30 APL-Serie: ¥630 Hold'em-Kopfgeld [6-Max] ¥630 ¥120,000
10. Februar Sat 9:30 17:30 APL-Serie: ¥64.50 Zodiac-Schlangen-Bounty [6-Max] ¥64.5 ¥50,000
10. Februar Sat 9:30 17:30 APL-Serie: ¥630 Hold'em-Kopfgeld [6-Max] ¥630 ¥120,000
10. Februar Sat 9:30 17:30 APL-Serie: ¥64.50 Zodiac-Schlangen-Bounty [6-Max] ¥64.5 ¥50,000
10. Februar Sat 10:00 18:00 APL-Serie: ¥1.100 Hold'em-Marathon ¥1,100 ¥88,000
10. Februar Sat 10:00 18:00 APL-Serie: ¥110 Zodiac Pferd Marathon ¥110 ¥50,000
10. Februar Sat 10:00 18:00 APL-Serie: ¥1.100 Hold'em-Marathon ¥1,100 ¥88,000
10. Februar Sat 10:00 18:00 APL-Serie: ¥110 Zodiac Pferd Marathon ¥110 ¥50,000
10. Februar Sat 10:30 18:30 APL-Serie: ¥840 Hold'em-Kopfgeld ¥840 ¥125,000
10. Februar Sat 10:30 18:30 APL-Serie: ¥85.50 Hold'em-Kopfgeld ¥85.5 ¥60,000
10. Februar Sat 10:30 18:30 APL-Serie: ¥840 Hold'em-Kopfgeld ¥840 ¥125,000
10. Februar Sat 10:30 18:30 APL-Serie: ¥85.50 Hold'em-Kopfgeld ¥85.5 ¥60,000
10. Februar Sat 11:00 19:00 APL-Serie: ¥2.024 Zodiac Ziege High Roller ¥2,024 ¥130,000
10. Februar Sat 11:00 19:00 APL-Serie: ¥2.024 Zodiac Ziege High Roller ¥2,024 ¥130,000
10. Februar Sat 11:30 19:30 APL-Serie: ¥2.100 Bounty High Roller ¥2,100 ¥130,000
10. Februar Sat 11:30 19:30 APL-Serie: ¥215 Zodiac-Affenkönig-Kopfgeld ¥215 ¥125,000
10. Februar Sat 11:30 19:30 APL-Serie: ¥2.100 Bounty High Roller ¥2,100 ¥130,000
10. Februar Sat 11:30 19:30 APL-Serie: ¥215 Zodiac-Affenkönig-Kopfgeld ¥215 ¥125,000
10. Februar Sat 12:00 20:00 APL-Serie: ¥388 Zodiac Hauptveranstaltung, ¥250K GTD ¥388 ¥300,000
10. Februar Sat 12:00 20:00 APL-Serie: ¥388 Zodiac Hauptveranstaltung, ¥250K GTD ¥388 ¥300,000
10. Februar Sat 13:00 21:00 APL-Serie: ¥5.500 Deepstack High Roller ¥5,500 ¥200,000
10. Februar Sat 13:00 21:00 APL-Serie: ¥550 Hold'em Deepstack ¥550 ¥100,000
10. Februar Sat 13:00 21:00 APL-Serie: ¥50 Zodiac-Hahn-Sonnenuntergang-Spezial ¥50 ¥35,000
10. Februar Sat 13:00 21:00 APL-Serie: ¥5.500 Deepstack High Roller ¥5,500 ¥200,000
10. Februar Sat 13:00 21:00 APL-Serie: ¥550 Hold'em Deepstack ¥550 ¥100,000
10. Februar Sat 13:00 21:00 APL-Serie: ¥50 Zodiac-Hahn-Sonnenuntergang-Spezial ¥50 ¥35,000
10. Februar Sat 13:10 21:10 APL-Serie: ¥3,150 Kurzdeck-Kopfgeld HR ¥3,150 ¥88,000
10. Februar Sat 13:10 21:10 APL-Serie: ¥320 Short Deck Bounty ¥320 ¥25,000
10. Februar Sat 13:10 21:10 APL-Serie: ¥3,150 Kurzdeck-Kopfgeld HR ¥3,150 ¥88,000
10. Februar Sat 13:10 21:10 APL-Serie: ¥320 Short Deck Bounty ¥320 ¥25,000
10. Februar Sat 13:40 21:40 APL-Serie: ¥5.250 PLO-NL-Kopfgeld HR ¥5,250 ¥88,000
10. Februar Sat 13:40 21:40 APL-Serie: ¥530 PLO-NL-Bounty ¥530 ¥30,000
10. Februar Sat 13:40 21:40 APL-Serie: ¥5.250 PLO-NL-Kopfgeld HR ¥5,250 ¥88,000
10. Februar Sat 13:40 21:40 APL-Serie: ¥530 PLO-NL-Bounty ¥530 ¥30,000
10. Februar Sat 14:00 22:00 APL-Serie: ¥1.100 Hold'em Klassisch ¥1,100 ¥100,000
10. Februar Sat 14:00 22:00 APL-Serie: ¥110 Zodiac Dog Ultra Deepstack Turbo ¥110 ¥50,000
10. Februar Sat 14:00 22:00 APL-Serie: ¥1.100 Hold'em Klassisch ¥1,100 ¥100,000
10. Februar Sat 14:00 22:00 APL-Serie: ¥110 Zodiac Dog Ultra Deepstack Turbo ¥110 ¥50,000
10. Februar Sat 14:10 22:10 APL-Serie: ¥8,000 Kurzes Deck HR [3-Stapel] ¥8,000 ¥100,000
10. Februar Sat 14:10 22:10 APL-Serie: ¥800 Short Deck [3-Stapel] ¥800 ¥25,000
10. Februar Sat 14:10 22:10 APL-Serie: ¥8,000 Kurzes Deck HR [3-Stapel] ¥8,000 ¥100,000
10. Februar Sat 14:10 22:10 APL-Serie: ¥800 Short Deck [3-Stapel] ¥800 ¥25,000
10. Februar Sat 14:30 22:30 APL-Serie: ¥3.150 Bounty High Roller ¥3,150 ¥180,000
10. Februar Sat 14:30 22:30 APL-Serie: ¥320 Zodiac-Schwein-Schmaus ¥320 ¥180,000
10. Februar Sat 14:30 22:30 APL-Serie: ¥3.150 Bounty High Roller ¥3,150 ¥180,000
10. Februar Sat 14:30 22:30 APL-Serie: ¥320 Zodiac-Schwein-Schmaus ¥320 ¥180,000
10. Februar Sat 14:40 22:40 APL-Serie: ¥1.100 PLO-NL Klassisch ¥1,100 ¥25,000
10. Februar Sat 14:40 22:40 APL-Serie: ¥1.100 PLO-NL Klassisch ¥1,100 ¥25,000
10. Februar Sat 15:00 23:00 APL-Serie: ¥5.500 High Roller 6-Max ¥5,500 ¥250,000
10. Februar Sat 15:00 23:00 APL-Serie: ¥800 Hold'em 6-Max ¥800 ¥150,000
10. Februar Sat 15:00 23:00 APL-Serie: ¥5.500 High Roller 6-Max ¥5,500 ¥250,000
10. Februar Sat 15:00 23:00 APL-Serie: ¥800 Hold'em 6-Max ¥800 ¥150,000
10. Februar Sat 15:10 23:10 APL-Serie: ¥530 Short Deck Bounty [Turbo] ¥530 ¥30,000
10. Februar Sat 15:10 23:10 APL-Serie: ¥530 Short Deck Bounty [Turbo] ¥530 ¥30,000
10. Februar Sat 15:40 23:40 APL-Serie: ¥530 PLO-NL Bounty [Turbo] ¥530 ¥30,000
10. Februar Sat 15:40 23:40 APL-Serie: ¥530 PLO-NL Bounty [Turbo] ¥530 ¥30,000
10. Februar Sat 16:00 0:00 APL-Serie: ¥330 Midnight Madness [Hyper] ¥330 ¥60,000
10. Februar Sat 16:00 0:00 APL-Serie: ¥330 Midnight Madness [Hyper] ¥330 ¥60,000
10. Februar Sat 16:30 0:30 APL-Serie: ¥2,100 Speed Racer Kopfgeld Schließer HR ¥2,100 ¥75,000
10. Februar Sat 16:30 0:30 APL-Serie: ¥215 Speed Racer Kopfgeldjäger ¥215 ¥50,000
10. Februar Sat 16:30 0:30 APL-Serie: ¥2,100 Speed Racer Kopfgeld Schließer HR ¥2,100 ¥75,000
10. Februar Sat 16:30 0:30 APL-Serie: ¥215 Speed Racer Kopfgeldjäger ¥215 ¥50,000
11. Februar Sonne 5:00 13:00 APL-Serie: ¥550 Sonntagsöffner ¥550 ¥60,000
11. Februar Sonne 5:00 13:00 APL-Serie: ¥88 Sternzeichen-Rattenöffner ¥88 ¥30,000
11. Februar Sonne 6:00 14:00 APL-Serie: ¥1.100 Sonntag High Roller Deepstack ¥1,100 ¥88,000
11. Februar Sonne 6:00 14:00 APL-Serie: ¥330 Zodiac Ox Strong Stack ¥330 ¥60,000
11. Februar Sonne 7:00 15:00 APL-Serie: ¥1.050 Sonntag High Roller Bounty ¥1,050 ¥88,000
11. Februar Sonne 7:00 15:00 APL-Serie: ¥108 Zodiac Tiger King Bounty ¥108 ¥70,000
11. Februar Sonne 8:00 16:00 APL-Serie: ¥220 Sonntags-Klassiker ¥220 ¥50,000
11. Februar Sonne 8:00 16:00 APL-Serie: ¥85.50 Zodiac-Kaninchen Glückskopfgeld ¥85.5 ¥60,000
11. Februar Sonne 9:00 17:00 APL-Serie: ¥80 Sonntags-Klassiker ¥80 ¥35,000
11. Februar Sonne 9:00 17:00 APL-Serie: ¥800 Zodiac Dragon High Roller ¥800 ¥150,000
11. Februar Sonne 9:30 17:30 APL-Serie: ¥630 Sonntags-Prämie [6-Max] ¥630 ¥150,000
11. Februar Sonne 9:30 17:30 APL-Serie: ¥64.50 Zodiac-Schlangen-Bounty [6-Max] ¥64.5 ¥60,000
11. Februar Sonne 10:00 18:00 APL-Serie: ¥1,100 Sonntags-Marathon ¥1,100 ¥200,000
11. Februar Sonne 10:00 18:00 APL-Serie: ¥110 Zodiac Pferd Marathon ¥110 ¥70,000
11. Februar Sonne 10:30 18:30 APL-Serie: ¥840 Sonntags-Prämie ¥840 ¥200,000
11. Februar Sonne 10:30 18:30 APL-Serie: ¥85.50 Sonntags-Prämie ¥85.5 ¥100,000
11. Februar Sonne 11:00 19:00 APL-Serie: ¥220 Sonntags-Klassiker ¥220 ¥125,000
11. Februar Sonne 11:00 19:00 APL-Serie: ¥2.024 Zodiac Ziege High Roller ¥2,024 ¥388,000
11. Februar Sonne 11:30 19:30 APL-Serie: ¥2.100 Sonntags-High-Roller-Bounty ¥2,100 ¥388,000
11. Februar Sonne 11:30 19:30 APL-Serie: ¥215 Zodiac-Affenkönig-Kopfgeld ¥215 ¥188,000
11. Februar Sonne 12:00 20:00 APL-Serie: ¥388 Zodiac Hauptveranstaltung, ¥500K GTD ¥388 ¥700,000
11. Februar Sonne 13:00 21:00 APL-Serie: ¥550 Sonntags-Deepstack ¥550 ¥300,000
11. Februar Sonne 13:00 21:00 APL-Serie: ¥10.300 Sonntag HR Hauptevent ¥10,300 ¥1,000,000
11. Februar Sonne 13:00 21:00 APL-Serie: ¥50 Zodiac-Hahn-Sonnenuntergang-Spezial ¥50 ¥60,000
11. Februar Sonne 13:10 21:10 APL-Serie: ¥3,150 Kurzdeck-Kopfgeld HR ¥3,150 ¥125,000
11. Februar Sonne 13:10 21:10 APL-Serie: ¥320 Short Deck Bounty ¥320 ¥50,000
11. Februar Sonne 13:40 21:40 APL-Serie: ¥5.250 PLO-NL-Kopfgeld HR ¥5,250 ¥150,000
11. Februar Sonne 13:40 21:40 APL-Serie: ¥530 PLO-NL-Bounty ¥530 ¥60,000
11. Februar Sonne 14:00 22:00 APL-Serie: ¥1.100 Sonntags-Klassiker ¥1,100 ¥388,000
11. Februar Sonne 14:00 22:00 APL-Serie: ¥110 Zodiac Dog Ultra Deepstack Turbo ¥110 ¥80,000
11. Februar Sonne 14:10 22:10 APL-Serie: ¥8,000 Kurzes Deck HR [3-Stapel] ¥8,000 ¥188,000
11. Februar Sonne 14:10 22:10 APL-Serie: ¥800 Short Deck [3-Stapel] ¥800 ¥50,000
11. Februar Sonne 14:30 22:30 APL-Serie: ¥3.150 Sonntags-High-Roller-Bounty ¥3,150 ¥600,000
11. Februar Sonne 14:30 22:30 APL-Serie: ¥320 Zodiac-Schwein-Schmaus ¥320 ¥388,000
11. Februar Sonne 14:40 22:40 APL-Serie: ¥1.100 PLO-NL Klassisch ¥1,100 ¥60,000
11. Februar Sonne 15:00 23:00 APL-Serie: ¥800 Sonntag 6-Max ¥800 ¥388,000
11. Februar Sonne 15:00 23:00 APL-Serie: ¥5.500 Sonntag High Roller 6-Max ¥5,500 ¥700,000
11. Februar Sonne 15:00 23:00 APL-Serie: ¥25,500 Sonntag SHR ¥25,500 ¥1,000,000
11. Februar Sonne 15:10 23:10 APL-Serie: ¥5.250 Kurzdeck-Kopfgeld HR ¥5,250 ¥200,000
11. Februar Sonne 15:10 23:10 APL-Serie: ¥530 Short Deck Bounty [Turbo] ¥530 ¥50,000
11. Februar Sonne 15:40 23:40 APL-Serie: ¥5.250 PLO-NL-Kopfgeld High Roller ¥5,250 ¥200,000
11. Februar Sonne 15:40 23:40 APL-Serie: ¥530 PLO-NL Bounty [Turbo] ¥530 ¥50,000
11. Februar Sonne 16:00 0:00 APL-Serie: ¥51,000 Sonntag Ultra HR ¥51,000 ¥1,000,000
11. Februar Sonne 16:00 0:00 APL-Serie: ¥330 Midnight Madness [Hyper] ¥330 ¥150,000
11. Februar Sonne 16:30 0:30 APL-Serie: ¥2,100 Speed Racer Kopfgeld Schließer HR ¥2,100 ¥100,000
11. Februar Sonne 16:40 0:40 APL-Serie: ¥1.100 PLO-NL Hundertstapel ¥1,100 ¥80,000
11. Februar Sonne 16:40 0:40 APL-Serie: ¥10.300 PLO-NL Hundertstapel HR ¥10,300 ¥200,000
12. Februar Mo 5:00 13:00 APL-Serie: ¥550 Daily Opener ¥550 ¥60,000
12. Februar Mo 5:00 13:00 APL-Serie: ¥88 Sternzeichen-Rattenöffner ¥88 ¥30,000
12. Februar Mo 5:00 13:00 APL-Serie: ¥550 Daily Opener ¥550 ¥60,000
12. Februar Mo 5:00 13:00 APL-Serie: ¥88 Sternzeichen-Rattenöffner ¥88 ¥30,000
12. Februar Mo 6:00 14:00 APL-Serie: ¥1.100 Deepstack High Roller ¥1,100 ¥80,000
12. Februar Mo 6:00 14:00 APL-Serie: ¥330 Zodiac Ox Strong Stack ¥330 ¥70,000
12. Februar Mo 6:00 14:00 APL-Serie: ¥1.100 Deepstack High Roller ¥1,100 ¥80,000
12. Februar Mo 6:00 14:00 APL-Serie: ¥330 Zodiac Ox Strong Stack ¥330 ¥70,000
12. Februar Mo 7:00 15:00 APL-Serie: ¥1.050 Bounty High Roller ¥1,050 ¥100,000
12. Februar Mo 7:00 15:00 APL-Serie: ¥108 Zodiac Tiger King Bounty ¥108 ¥70,000
12. Februar Mo 7:00 15:00 APL-Serie: ¥1.050 Bounty High Roller ¥1,050 ¥100,000
12. Februar Mo 7:00 15:00 APL-Serie: ¥108 Zodiac Tiger King Bounty ¥108 ¥70,000
12. Februar Mo 8:00 16:00 APL-Serie: ¥220 Hold'em Klassisch ¥220 ¥50,000
12. Februar Mo 8:00 16:00 APL-Serie: ¥85.50 Zodiac-Kaninchen Glückskopfgeld ¥85.5 ¥50,000
12. Februar Mo 8:00 16:00 APL-Serie: ¥220 Hold'em Klassisch ¥220 ¥50,000
12. Februar Mo 8:00 16:00 APL-Serie: ¥85.50 Zodiac-Kaninchen Glückskopfgeld ¥85.5 ¥50,000
12. Februar Mo 9:00 17:00 APL-Serie: ¥80 Hold'em Klassisch ¥80 ¥30,000
12. Februar Mo 9:00 17:00 APL-Serie: ¥800 Zodiac Dragon High Roller ¥800 ¥100,000
12. Februar Mo 9:00 17:00 APL-Serie: ¥80 Hold'em Klassisch ¥80 ¥30,000
12. Februar Mo 9:00 17:00 APL-Serie: ¥800 Zodiac Dragon High Roller ¥800 ¥100,000
12. Februar Mo 9:30 17:30 APL-Serie: ¥630 Hold'em-Kopfgeld [6-Max] ¥630 ¥120,000
12. Februar Mo 9:30 17:30 APL-Serie: ¥64.50 Zodiac-Schlangen-Bounty [6-Max] ¥64.5 ¥50,000
12. Februar Mo 9:30 17:30 APL-Serie: ¥630 Hold'em-Kopfgeld [6-Max] ¥630 ¥120,000
12. Februar Mo 9:30 17:30 APL-Serie: ¥64.50 Zodiac-Schlangen-Bounty [6-Max] ¥64.5 ¥50,000
12. Februar Mo 10:00 18:00 APL-Serie: ¥1.100 Hold'em-Marathon ¥1,100 ¥88,000
12. Februar Mo 10:00 18:00 APL-Serie: ¥110 Zodiac Pferd Marathon ¥110 ¥50,000
12. Februar Mo 10:00 18:00 APL-Serie: ¥1.100 Hold'em-Marathon ¥1,100 ¥88,000
12. Februar Mo 10:00 18:00 APL-Serie: ¥110 Zodiac Pferd Marathon ¥110 ¥50,000
12. Februar Mo 10:30 18:30 APL-Serie: ¥840 Hold'em-Kopfgeld ¥840 ¥125,000
12. Februar Mo 10:30 18:30 APL-Serie: ¥85.50 Hold'em-Kopfgeld ¥85.5 ¥60,000
12. Februar Mo 10:30 18:30 APL-Serie: ¥840 Hold'em-Kopfgeld ¥840 ¥125,000
12. Februar Mo 10:30 18:30 APL-Serie: ¥85.50 Hold'em-Kopfgeld ¥85.5 ¥60,000
12. Februar Mo 11:00 19:00 APL-Serie: ¥2.024 Zodiac Ziege High Roller ¥2,024 ¥130,000
12. Februar Mo 11:00 19:00 APL-Serie: ¥2.024 Zodiac Ziege High Roller ¥2,024 ¥130,000
12. Februar Mo 11:30 19:30 APL-Serie: ¥2.100 Bounty High Roller ¥2,100 ¥130,000
12. Februar Mo 11:30 19:30 APL-Serie: ¥215 Zodiac-Affenkönig-Kopfgeld ¥215 ¥125,000
12. Februar Mo 11:30 19:30 APL-Serie: ¥2.100 Bounty High Roller ¥2,100 ¥130,000
12. Februar Mo 11:30 19:30 APL-Serie: ¥215 Zodiac-Affenkönig-Kopfgeld ¥215 ¥125,000
12. Februar Mo 12:00 20:00 APL-Serie: ¥388 Zodiac Hauptveranstaltung, ¥250K GTD ¥388 ¥300,000
12. Februar Mo 12:00 20:00 APL-Serie: ¥388 Zodiac Hauptveranstaltung, ¥250K GTD ¥388 ¥300,000
12. Februar Mo 13:00 21:00 APL-Serie: ¥5.500 Deepstack High Roller ¥5,500 ¥200,000
12. Februar Mo 13:00 21:00 APL-Serie: ¥550 Hold'em Deepstack ¥550 ¥100,000
12. Februar Mo 13:00 21:00 APL-Serie: ¥50 Zodiac-Hahn-Sonnenuntergang-Spezial ¥50 ¥35,000
12. Februar Mo 13:00 21:00 APL-Serie: ¥5.500 Deepstack High Roller ¥5,500 ¥200,000
12. Februar Mo 13:00 21:00 APL-Serie: ¥550 Hold'em Deepstack ¥550 ¥100,000
12. Februar Mo 13:00 21:00 APL-Serie: ¥50 Zodiac-Hahn-Sonnenuntergang-Spezial ¥50 ¥35,000
12. Februar Mo 13:10 21:10 APL-Serie: ¥3,150 Kurzdeck-Kopfgeld HR ¥3,150 ¥88,000
12. Februar Mo 13:10 21:10 APL-Serie: ¥320 Short Deck Bounty ¥320 ¥25,000
12. Februar Mo 13:10 21:10 APL-Serie: ¥3,150 Kurzdeck-Kopfgeld HR ¥3,150 ¥88,000
12. Februar Mo 13:10 21:10 APL-Serie: ¥320 Short Deck Bounty ¥320 ¥25,000
12. Februar Mo 13:40 21:40 APL-Serie: ¥5.250 PLO-NL-Kopfgeld HR ¥5,250 ¥88,000
12. Februar Mo 13:40 21:40 APL-Serie: ¥530 PLO-NL-Bounty ¥530 ¥30,000
12. Februar Mo 13:40 21:40 APL-Serie: ¥5.250 PLO-NL-Kopfgeld HR ¥5,250 ¥88,000
12. Februar Mo 13:40 21:40 APL-Serie: ¥530 PLO-NL-Bounty ¥530 ¥30,000
12. Februar Mo 14:00 22:00 APL-Serie: ¥1.100 Hold'em Klassisch ¥1,100 ¥100,000
12. Februar Mo 14:00 22:00 APL-Serie: ¥110 Zodiac Dog Ultra Deepstack Turbo ¥110 ¥50,000
12. Februar Mo 14:00 22:00 APL-Serie: ¥1.100 Hold'em Klassisch ¥1,100 ¥100,000
12. Februar Mo 14:00 22:00 APL-Serie: ¥110 Zodiac Dog Ultra Deepstack Turbo ¥110 ¥50,000
12. Februar Mo 14:10 22:10 APL-Serie: ¥8,000 Kurzes Deck HR [3-Stapel] ¥8,000 ¥100,000
12. Februar Mo 14:10 22:10 APL-Serie: ¥800 Short Deck [3-Stapel] ¥800 ¥25,000
12. Februar Mo 14:10 22:10 APL-Serie: ¥8,000 Kurzes Deck HR [3-Stapel] ¥8,000 ¥100,000
12. Februar Mo 14:10 22:10 APL-Serie: ¥800 Short Deck [3-Stapel] ¥800 ¥25,000
12. Februar Mo 14:30 22:30 APL-Serie: ¥3.150 Bounty High Roller ¥3,150 ¥180,000
12. Februar Mo 14:30 22:30 APL-Serie: ¥320 Zodiac-Schwein-Schmaus ¥320 ¥180,000
12. Februar Mo 14:30 22:30 APL-Serie: ¥3.150 Bounty High Roller ¥3,150 ¥180,000
12. Februar Mo 14:30 22:30 APL-Serie: ¥320 Zodiac-Schwein-Schmaus ¥320 ¥180,000
12. Februar Mo 14:40 22:40 APL-Serie: ¥1.100 PLO-NL Klassisch ¥1,100 ¥25,000
12. Februar Mo 14:40 22:40 APL-Serie: ¥1.100 PLO-NL Klassisch ¥1,100 ¥25,000
12. Februar Mo 15:00 23:00 APL-Serie: ¥5.500 High Roller 6-Max ¥5,500 ¥250,000
12. Februar Mo 15:00 23:00 APL-Serie: ¥800 Hold'em 6-Max ¥800 ¥150,000
12. Februar Mo 15:00 23:00 APL-Serie: ¥5.500 High Roller 6-Max ¥5,500 ¥250,000
12. Februar Mo 15:00 23:00 APL-Serie: ¥800 Hold'em 6-Max ¥800 ¥150,000
12. Februar Mo 15:10 23:10 APL-Serie: ¥530 Short Deck Bounty [Turbo] ¥530 ¥30,000
12. Februar Mo 15:10 23:10 APL-Serie: ¥530 Short Deck Bounty [Turbo] ¥530 ¥30,000
12. Februar Mo 15:40 23:40 APL-Serie: ¥530 PLO-NL Bounty [Turbo] ¥530 ¥30,000
12. Februar Mo 15:40 23:40 APL-Serie: ¥530 PLO-NL Bounty [Turbo] ¥530 ¥30,000
12. Februar Mo 16:00 0:00 APL-Serie: ¥330 Midnight Madness [Hyper] ¥330 ¥60,000
12. Februar Mo 16:00 0:00 APL-Serie: ¥330 Midnight Madness [Hyper] ¥330 ¥60,000
12. Februar Mo 16:30 0:30 APL-Serie: ¥2,100 Speed Racer Kopfgeld Schließer HR ¥2,100 ¥75,000
12. Februar Mo 16:30 0:30 APL-Serie: ¥215 Speed Racer Kopfgeldjäger ¥215 ¥50,000
12. Februar Mo 16:30 0:30 APL-Serie: ¥2,100 Speed Racer Kopfgeld Schließer HR ¥2,100 ¥75,000
12. Februar Mo 16:30 0:30 APL-Serie: ¥215 Speed Racer Kopfgeldjäger ¥215 ¥50,000
13. Februar Di 5:00 13:00 APL-Serie: ¥550 Daily Opener ¥550 ¥60,000
13. Februar Di 5:00 13:00 APL-Serie: ¥88 Sternzeichen-Rattenöffner ¥88 ¥30,000
13. Februar Di 5:00 13:00 APL-Serie: ¥550 Daily Opener ¥550 ¥60,000
13. Februar Di 5:00 13:00 APL-Serie: ¥88 Sternzeichen-Rattenöffner ¥88 ¥30,000
13. Februar Di 6:00 14:00 APL-Serie: ¥1.100 Deepstack High Roller ¥1,100 ¥80,000
13. Februar Di 6:00 14:00 APL-Serie: ¥330 Zodiac Ox Strong Stack ¥330 ¥70,000
13. Februar Di 6:00 14:00 APL-Serie: ¥1.100 Deepstack High Roller ¥1,100 ¥80,000
13. Februar Di 6:00 14:00 APL-Serie: ¥330 Zodiac Ox Strong Stack ¥330 ¥70,000
13. Februar Di 7:00 15:00 APL-Serie: ¥1.050 Bounty High Roller ¥1,050 ¥100,000
13. Februar Di 7:00 15:00 APL-Serie: ¥108 Zodiac Tiger King Bounty ¥108 ¥70,000
13. Februar Di 7:00 15:00 APL-Serie: ¥1.050 Bounty High Roller ¥1,050 ¥100,000
13. Februar Di 7:00 15:00 APL-Serie: ¥108 Zodiac Tiger King Bounty ¥108 ¥70,000
13. Februar Di 8:00 16:00 APL-Serie: ¥220 Hold'em Klassisch ¥220 ¥50,000
13. Februar Di 8:00 16:00 APL-Serie: ¥85.50 Zodiac-Kaninchen Glückskopfgeld ¥85.5 ¥50,000
13. Februar Di 8:00 16:00 APL-Serie: ¥220 Hold'em Klassisch ¥220 ¥50,000
13. Februar Di 8:00 16:00 APL-Serie: ¥85.50 Zodiac-Kaninchen Glückskopfgeld ¥85.5 ¥50,000
13. Februar Di 9:00 17:00 APL-Serie: ¥80 Hold'em Klassisch ¥80 ¥30,000
13. Februar Di 9:00 17:00 APL-Serie: ¥800 Zodiac Dragon High Roller ¥800 ¥100,000
13. Februar Di 9:00 17:00 APL-Serie: ¥80 Hold'em Klassisch ¥80 ¥30,000
13. Februar Di 9:00 17:00 APL-Serie: ¥800 Zodiac Dragon High Roller ¥800 ¥100,000
13. Februar Di 9:30 17:30 APL-Serie: ¥630 Hold'em-Kopfgeld [6-Max] ¥630 ¥120,000
13. Februar Di 9:30 17:30 APL-Serie: ¥64.50 Zodiac-Schlangen-Bounty [6-Max] ¥64.5 ¥50,000
13. Februar Di 9:30 17:30 APL-Serie: ¥630 Hold'em-Kopfgeld [6-Max] ¥630 ¥120,000
13. Februar Di 9:30 17:30 APL-Serie: ¥64.50 Zodiac-Schlangen-Bounty [6-Max] ¥64.5 ¥50,000
13. Februar Di 10:00 18:00 APL-Serie: ¥1.100 Hold'em-Marathon ¥1,100 ¥88,000
13. Februar Di 10:00 18:00 APL-Serie: ¥110 Zodiac Pferd Marathon ¥110 ¥50,000
13. Februar Di 10:00 18:00 APL-Serie: ¥1.100 Hold'em-Marathon ¥1,100 ¥88,000
13. Februar Di 10:00 18:00 APL-Serie: ¥110 Zodiac Pferd Marathon ¥110 ¥50,000
13. Februar Di 10:30 18:30 APL-Serie: ¥840 Hold'em-Kopfgeld ¥840 ¥125,000
13. Februar Di 10:30 18:30 APL-Serie: ¥85.50 Hold'em-Kopfgeld ¥85.5 ¥60,000
13. Februar Di 10:30 18:30 APL-Serie: ¥840 Hold'em-Kopfgeld ¥840 ¥125,000
13. Februar Di 10:30 18:30 APL-Serie: ¥85.50 Hold'em-Kopfgeld ¥85.5 ¥60,000
13. Februar Di 11:00 19:00 APL-Serie: ¥2.024 Zodiac Ziege High Roller ¥2,024 ¥130,000
13. Februar Di 11:00 19:00 APL-Serie: ¥2.024 Zodiac Ziege High Roller ¥2,024 ¥130,000
13. Februar Di 11:30 19:30 APL-Serie: ¥2.100 Bounty High Roller ¥2,100 ¥130,000
13. Februar Di 11:30 19:30 APL-Serie: ¥215 Zodiac-Affenkönig-Kopfgeld ¥215 ¥125,000
13. Februar Di 11:30 19:30 APL-Serie: ¥2.100 Bounty High Roller ¥2,100 ¥130,000
13. Februar Di 11:30 19:30 APL-Serie: ¥215 Zodiac-Affenkönig-Kopfgeld ¥215 ¥125,000
13. Februar Di 12:00 20:00 APL-Serie: ¥388 Zodiac Hauptveranstaltung, ¥250K GTD ¥388 ¥300,000
13. Februar Di 12:00 20:00 APL-Serie: ¥388 Zodiac Hauptveranstaltung, ¥250K GTD ¥388 ¥300,000
13. Februar Di 13:00 21:00 APL-Serie: ¥5.500 Deepstack High Roller ¥5,500 ¥200,000
13. Februar Di 13:00 21:00 APL-Serie: ¥550 Hold'em Deepstack ¥550 ¥100,000
13. Februar Di 13:00 21:00 APL-Serie: ¥50 Zodiac-Hahn-Sonnenuntergang-Spezial ¥50 ¥35,000
13. Februar Di 13:00 21:00 APL-Serie: ¥5.500 Deepstack High Roller ¥5,500 ¥200,000
13. Februar Di 13:00 21:00 APL-Serie: ¥550 Hold'em Deepstack ¥550 ¥100,000
13. Februar Di 13:00 21:00 APL-Serie: ¥50 Zodiac-Hahn-Sonnenuntergang-Spezial ¥50 ¥35,000
13. Februar Di 13:10 21:10 APL-Serie: ¥3,150 Kurzdeck-Kopfgeld HR ¥3,150 ¥88,000
13. Februar Di 13:10 21:10 APL-Serie: ¥320 Short Deck Bounty ¥320 ¥25,000
13. Februar Di 13:10 21:10 APL-Serie: ¥3,150 Kurzdeck-Kopfgeld HR ¥3,150 ¥88,000
13. Februar Di 13:10 21:10 APL-Serie: ¥320 Short Deck Bounty ¥320 ¥25,000
13. Februar Di 13:40 21:40 APL-Serie: ¥5.250 PLO-NL-Kopfgeld HR ¥5,250 ¥88,000
13. Februar Di 13:40 21:40 APL-Serie: ¥530 PLO-NL-Bounty ¥530 ¥30,000
13. Februar Di 13:40 21:40 APL-Serie: ¥5.250 PLO-NL-Kopfgeld HR ¥5,250 ¥88,000
13. Februar Di 13:40 21:40 APL-Serie: ¥530 PLO-NL-Bounty ¥530 ¥30,000
13. Februar Di 14:00 22:00 APL-Serie: ¥1.100 Hold'em Klassisch ¥1,100 ¥100,000
13. Februar Di 14:00 22:00 APL-Serie: ¥110 Zodiac Dog Ultra Deepstack Turbo ¥110 ¥50,000
13. Februar Di 14:00 22:00 APL-Serie: ¥1.100 Hold'em Klassisch ¥1,100 ¥100,000
13. Februar Di 14:00 22:00 APL-Serie: ¥110 Zodiac Dog Ultra Deepstack Turbo ¥110 ¥50,000
13. Februar Di 14:10 22:10 APL-Serie: ¥8,000 Kurzes Deck HR [3-Stapel] ¥8,000 ¥100,000
13. Februar Di 14:10 22:10 APL-Serie: ¥800 Short Deck [3-Stapel] ¥800 ¥25,000
13. Februar Di 14:10 22:10 APL-Serie: ¥8,000 Kurzes Deck HR [3-Stapel] ¥8,000 ¥100,000
13. Februar Di 14:10 22:10 APL-Serie: ¥800 Short Deck [3-Stapel] ¥800 ¥25,000
13. Februar Di 14:30 22:30 APL-Serie: ¥3.150 Bounty High Roller ¥3,150 ¥180,000
13. Februar Di 14:30 22:30 APL-Serie: ¥320 Zodiac-Schwein-Schmaus ¥320 ¥180,000
13. Februar Di 14:30 22:30 APL-Serie: ¥3.150 Bounty High Roller ¥3,150 ¥180,000
13. Februar Di 14:30 22:30 APL-Serie: ¥320 Zodiac-Schwein-Schmaus ¥320 ¥180,000
13. Februar Di 14:40 22:40 APL-Serie: ¥1.100 PLO-NL Klassisch ¥1,100 ¥25,000
13. Februar Di 14:40 22:40 APL-Serie: ¥1.100 PLO-NL Klassisch ¥1,100 ¥25,000
13. Februar Di 15:00 23:00 APL-Serie: ¥5.500 High Roller 6-Max ¥5,500 ¥250,000
13. Februar Di 15:00 23:00 APL-Serie: ¥800 Hold'em 6-Max ¥800 ¥150,000
13. Februar Di 15:00 23:00 APL-Serie: ¥5.500 High Roller 6-Max ¥5,500 ¥250,000
13. Februar Di 15:00 23:00 APL-Serie: ¥800 Hold'em 6-Max ¥800 ¥150,000
13. Februar Di 15:10 23:10 APL-Serie: ¥530 Short Deck Bounty [Turbo] ¥530 ¥30,000
13. Februar Di 15:10 23:10 APL-Serie: ¥530 Short Deck Bounty [Turbo] ¥530 ¥30,000
13. Februar Di 15:40 23:40 APL-Serie: ¥530 PLO-NL Bounty [Turbo] ¥530 ¥30,000
13. Februar Di 15:40 23:40 APL-Serie: ¥530 PLO-NL Bounty [Turbo] ¥530 ¥30,000
13. Februar Di 16:00 0:00 APL-Serie: ¥330 Midnight Madness [Hyper] ¥330 ¥60,000
13. Februar Di 16:00 0:00 APL-Serie: ¥330 Midnight Madness [Hyper] ¥330 ¥60,000
13. Februar Di 16:30 0:30 APL-Serie: ¥2,100 Speed Racer Kopfgeld Schließer HR ¥2,100 ¥75,000
13. Februar Di 16:30 0:30 APL-Serie: ¥215 Speed Racer Kopfgeldjäger ¥215 ¥50,000
13. Februar Di 16:30 0:30 APL-Serie: ¥2,100 Speed Racer Kopfgeld Schließer HR ¥2,100 ¥75,000
13. Februar Di 16:30 0:30 APL-Serie: ¥215 Speed Racer Kopfgeldjäger ¥215 ¥50,000
14. Februar Mi 5:00 13:00 APL-Serie: ¥550 Daily Opener ¥550 ¥60,000
14. Februar Mi 5:00 13:00 APL-Serie: ¥88 Sternzeichen-Rattenöffner ¥88 ¥30,000
14. Februar Mi 5:00 13:00 APL-Serie: ¥550 Daily Opener ¥550 ¥60,000
14. Februar Mi 5:00 13:00 APL-Serie: ¥88 Sternzeichen-Rattenöffner ¥88 ¥30,000
14. Februar Mi 6:00 14:00 APL-Serie: ¥1.100 Deepstack High Roller ¥1,100 ¥80,000
14. Februar Mi 6:00 14:00 APL-Serie: ¥330 Zodiac Ox Strong Stack ¥330 ¥70,000
14. Februar Mi 6:00 14:00 APL-Serie: ¥1.100 Deepstack High Roller ¥1,100 ¥80,000
14. Februar Mi 6:00 14:00 APL-Serie: ¥330 Zodiac Ox Strong Stack ¥330 ¥70,000
14. Februar Mi 7:00 15:00 APL-Serie: ¥1.050 Bounty High Roller ¥1,050 ¥100,000
14. Februar Mi 7:00 15:00 APL-Serie: ¥108 Zodiac Tiger King Bounty ¥108 ¥70,000
14. Februar Mi 7:00 15:00 APL-Serie: ¥1.050 Bounty High Roller ¥1,050 ¥100,000
14. Februar Mi 7:00 15:00 APL-Serie: ¥108 Zodiac Tiger King Bounty ¥108 ¥70,000
14. Februar Mi 8:00 16:00 APL-Serie: ¥220 Hold'em Klassisch ¥220 ¥50,000
14. Februar Mi 8:00 16:00 APL-Serie: ¥85.50 Zodiac-Kaninchen Glückskopfgeld ¥85.5 ¥50,000
14. Februar Mi 8:00 16:00 APL-Serie: ¥220 Hold'em Klassisch ¥220 ¥50,000
14. Februar Mi 8:00 16:00 APL-Serie: ¥85.50 Zodiac-Kaninchen Glückskopfgeld ¥85.5 ¥50,000
14. Februar Mi 9:00 17:00 APL-Serie: ¥80 Hold'em Klassisch ¥80 ¥30,000
14. Februar Mi 9:00 17:00 APL-Serie: ¥800 Zodiac Dragon High Roller ¥800 ¥100,000
14. Februar Mi 9:00 17:00 APL-Serie: ¥80 Hold'em Klassisch ¥80 ¥30,000
14. Februar Mi 9:00 17:00 APL-Serie: ¥800 Zodiac Dragon High Roller ¥800 ¥100,000
14. Februar Mi 9:30 17:30 APL-Serie: ¥630 Hold'em-Kopfgeld [6-Max] ¥630 ¥120,000
14. Februar Mi 9:30 17:30 APL-Serie: ¥64.50 Zodiac-Schlangen-Bounty [6-Max] ¥64.5 ¥50,000
14. Februar Mi 9:30 17:30 APL-Serie: ¥630 Hold'em-Kopfgeld [6-Max] ¥630 ¥120,000
14. Februar Mi 9:30 17:30 APL-Serie: ¥64.50 Zodiac-Schlangen-Bounty [6-Max] ¥64.5 ¥50,000
14. Februar Mi 10:00 18:00 APL-Serie: ¥1.100 Hold'em-Marathon ¥1,100 ¥88,000
14. Februar Mi 10:00 18:00 APL-Serie: ¥110 Zodiac Pferd Marathon ¥110 ¥50,000
14. Februar Mi 10:00 18:00 APL-Serie: ¥1.100 Hold'em-Marathon ¥1,100 ¥88,000
14. Februar Mi 10:00 18:00 APL-Serie: ¥110 Zodiac Pferd Marathon ¥110 ¥50,000
14. Februar Mi 10:30 18:30 APL-Serie: ¥840 Hold'em-Kopfgeld ¥840 ¥125,000
14. Februar Mi 10:30 18:30 APL-Serie: ¥85.50 Hold'em-Kopfgeld ¥85.5 ¥60,000
14. Februar Mi 10:30 18:30 APL-Serie: ¥840 Hold'em-Kopfgeld ¥840 ¥125,000
14. Februar Mi 10:30 18:30 APL-Serie: ¥85.50 Hold'em-Kopfgeld ¥85.5 ¥60,000
14. Februar Mi 11:00 19:00 APL-Serie: ¥2.024 Zodiac Ziege High Roller ¥2,024 ¥130,000
14. Februar Mi 11:00 19:00 APL-Serie: ¥2.024 Zodiac Ziege High Roller ¥2,024 ¥130,000
14. Februar Mi 11:30 19:30 APL-Serie: ¥2.100 Bounty High Roller ¥2,100 ¥130,000
14. Februar Mi 11:30 19:30 APL-Serie: ¥215 Zodiac-Affenkönig-Kopfgeld ¥215 ¥125,000
14. Februar Mi 11:30 19:30 APL-Serie: ¥2.100 Bounty High Roller ¥2,100 ¥130,000
14. Februar Mi 11:30 19:30 APL-Serie: ¥215 Zodiac-Affenkönig-Kopfgeld ¥215 ¥125,000
14. Februar Mi 12:00 20:00 APL-Serie: ¥388 Zodiac Hauptveranstaltung, ¥250K GTD ¥388 ¥300,000
14. Februar Mi 12:00 20:00 APL-Serie: ¥388 Zodiac Hauptveranstaltung, ¥250K GTD ¥388 ¥300,000
14. Februar Mi 13:00 21:00 APL-Serie: ¥5.500 Deepstack High Roller ¥5,500 ¥200,000
14. Februar Mi 13:00 21:00 APL-Serie: ¥550 Hold'em Deepstack ¥550 ¥100,000
14. Februar Mi 13:00 21:00 APL-Serie: ¥50 Zodiac-Hahn-Sonnenuntergang-Spezial ¥50 ¥35,000
14. Februar Mi 13:00 21:00 APL-Serie: ¥5.500 Deepstack High Roller ¥5,500 ¥200,000
14. Februar Mi 13:00 21:00 APL-Serie: ¥550 Hold'em Deepstack ¥550 ¥100,000
14. Februar Mi 13:00 21:00 APL-Serie: ¥50 Zodiac-Hahn-Sonnenuntergang-Spezial ¥50 ¥35,000
14. Februar Mi 13:10 21:10 APL-Serie: ¥3,150 Kurzdeck-Kopfgeld HR ¥3,150 ¥88,000
14. Februar Mi 13:10 21:10 APL-Serie: ¥320 Short Deck Bounty ¥320 ¥25,000
14. Februar Mi 13:10 21:10 APL-Serie: ¥3,150 Kurzdeck-Kopfgeld HR ¥3,150 ¥88,000
14. Februar Mi 13:10 21:10 APL-Serie: ¥320 Short Deck Bounty ¥320 ¥25,000
14. Februar Mi 13:40 21:40 APL-Serie: ¥5.250 PLO-NL-Kopfgeld HR ¥5,250 ¥88,000
14. Februar Mi 13:40 21:40 APL-Serie: ¥530 PLO-NL-Bounty ¥530 ¥30,000
14. Februar Mi 13:40 21:40 APL-Serie: ¥5.250 PLO-NL-Kopfgeld HR ¥5,250 ¥88,000
14. Februar Mi 13:40 21:40 APL-Serie: ¥530 PLO-NL-Bounty ¥530 ¥30,000
14. Februar Mi 14:00 22:00 APL-Serie: ¥1.100 Hold'em Klassisch ¥1,100 ¥100,000
14. Februar Mi 14:00 22:00 APL-Serie: ¥110 Zodiac Dog Ultra Deepstack Turbo ¥110 ¥50,000
14. Februar Mi 14:00 22:00 APL-Serie: ¥1.100 Hold'em Klassisch ¥1,100 ¥100,000
14. Februar Mi 14:00 22:00 APL-Serie: ¥110 Zodiac Dog Ultra Deepstack Turbo ¥110 ¥50,000
14. Februar Mi 14:10 22:10 APL-Serie: ¥8,000 Kurzes Deck HR [3-Stapel] ¥8,000 ¥100,000
14. Februar Mi 14:10 22:10 APL-Serie: ¥800 Short Deck [3-Stapel] ¥800 ¥25,000
14. Februar Mi 14:10 22:10 APL-Serie: ¥8,000 Kurzes Deck HR [3-Stapel] ¥8,000 ¥100,000
14. Februar Mi 14:10 22:10 APL-Serie: ¥800 Short Deck [3-Stapel] ¥800 ¥25,000
14. Februar Mi 14:30 22:30 APL-Serie: ¥3.150 Bounty High Roller ¥3,150 ¥180,000
14. Februar Mi 14:30 22:30 APL-Serie: ¥320 Zodiac-Schwein-Schmaus ¥320 ¥180,000
14. Februar Mi 14:30 22:30 APL-Serie: ¥3.150 Bounty High Roller ¥3,150 ¥180,000
14. Februar Mi 14:30 22:30 APL-Serie: ¥320 Zodiac-Schwein-Schmaus ¥320 ¥180,000
14. Februar Mi 14:40 22:40 APL-Serie: ¥1.100 PLO-NL Klassisch ¥1,100 ¥25,000
14. Februar Mi 14:40 22:40 APL-Serie: ¥1.100 PLO-NL Klassisch ¥1,100 ¥25,000
14. Februar Mi 15:00 23:00 APL-Serie: ¥5.500 High Roller 6-Max ¥5,500 ¥250,000
14. Februar Mi 15:00 23:00 APL-Serie: ¥800 Hold'em 6-Max ¥800 ¥150,000
14. Februar Mi 15:00 23:00 APL-Serie: ¥5.500 High Roller 6-Max ¥5,500 ¥250,000
14. Februar Mi 15:00 23:00 APL-Serie: ¥800 Hold'em 6-Max ¥800 ¥150,000
14. Februar Mi 15:10 23:10 APL-Serie: ¥530 Short Deck Bounty [Turbo] ¥530 ¥30,000
14. Februar Mi 15:10 23:10 APL-Serie: ¥530 Short Deck Bounty [Turbo] ¥530 ¥30,000
14. Februar Mi 15:40 23:40 APL-Serie: ¥530 PLO-NL Bounty [Turbo] ¥530 ¥30,000
14. Februar Mi 15:40 23:40 APL-Serie: ¥530 PLO-NL Bounty [Turbo] ¥530 ¥30,000
14. Februar Mi 16:00 0:00 APL-Serie: ¥330 Midnight Madness [Hyper] ¥330 ¥60,000
14. Februar Mi 16:00 0:00 APL-Serie: ¥330 Midnight Madness [Hyper] ¥330 ¥60,000
14. Februar Mi 16:30 0:30 APL-Serie: ¥2,100 Speed Racer Kopfgeld Schließer HR ¥2,100 ¥75,000
14. Februar Mi 16:30 0:30 APL-Serie: ¥215 Speed Racer Kopfgeldjäger ¥215 ¥50,000
14. Februar Mi 16:30 0:30 APL-Serie: ¥2,100 Speed Racer Kopfgeld Schließer HR ¥2,100 ¥75,000
14. Februar Mi 16:30 0:30 APL-Serie: ¥215 Speed Racer Kopfgeldjäger ¥215 ¥50,000
15. Februar Thu 5:00 13:00 APL-Serie: ¥550 Daily Opener ¥550 ¥60,000
15. Februar Thu 5:00 13:00 APL-Serie: ¥88 Sternzeichen-Rattenöffner ¥88 ¥30,000
15. Februar Thu 5:00 13:00 APL-Serie: ¥550 Daily Opener ¥550 ¥60,000
15. Februar Thu 5:00 13:00 APL-Serie: ¥88 Sternzeichen-Rattenöffner ¥88 ¥30,000
15. Februar Thu 6:00 14:00 APL-Serie: ¥1.100 Deepstack High Roller ¥1,100 ¥80,000
15. Februar Thu 6:00 14:00 APL-Serie: ¥330 Zodiac Ox Strong Stack ¥330 ¥70,000
15. Februar Thu 6:00 14:00 APL-Serie: ¥1.100 Deepstack High Roller ¥1,100 ¥80,000
15. Februar Thu 6:00 14:00 APL-Serie: ¥330 Zodiac Ox Strong Stack ¥330 ¥70,000
15. Februar Thu 7:00 15:00 APL-Serie: ¥1.050 Bounty High Roller ¥1,050 ¥100,000
15. Februar Thu 7:00 15:00 APL-Serie: ¥108 Zodiac Tiger King Bounty ¥108 ¥70,000
15. Februar Thu 7:00 15:00 APL-Serie: ¥1.050 Bounty High Roller ¥1,050 ¥100,000
15. Februar Thu 7:00 15:00 APL-Serie: ¥108 Zodiac Tiger King Bounty ¥108 ¥70,000
15. Februar Thu 8:00 16:00 APL-Serie: ¥220 Hold'em Klassisch ¥220 ¥50,000
15. Februar Thu 8:00 16:00 APL-Serie: ¥85.50 Zodiac-Kaninchen Glückskopfgeld ¥85.5 ¥50,000
15. Februar Thu 8:00 16:00 APL-Serie: ¥220 Hold'em Klassisch ¥220 ¥50,000
15. Februar Thu 8:00 16:00 APL-Serie: ¥85.50 Zodiac-Kaninchen Glückskopfgeld ¥85.5 ¥50,000
15. Februar Thu 9:00 17:00 APL-Serie: ¥80 Hold'em Klassisch ¥80 ¥30,000
15. Februar Thu 9:00 17:00 APL-Serie: ¥800 Zodiac Dragon High Roller ¥800 ¥100,000
15. Februar Thu 9:00 17:00 APL-Serie: ¥80 Hold'em Klassisch ¥80 ¥30,000
15. Februar Thu 9:00 17:00 APL-Serie: ¥800 Zodiac Dragon High Roller ¥800 ¥100,000
15. Februar Thu 9:30 17:30 APL-Serie: ¥630 Hold'em-Kopfgeld [6-Max] ¥630 ¥120,000
15. Februar Thu 9:30 17:30 APL-Serie: ¥64.50 Zodiac-Schlangen-Bounty [6-Max] ¥64.5 ¥50,000
15. Februar Thu 9:30 17:30 APL-Serie: ¥630 Hold'em-Kopfgeld [6-Max] ¥630 ¥120,000
15. Februar Thu 9:30 17:30 APL-Serie: ¥64.50 Zodiac-Schlangen-Bounty [6-Max] ¥64.5 ¥50,000
15. Februar Thu 10:00 18:00 APL-Serie: ¥1.100 Hold'em-Marathon ¥1,100 ¥88,000
15. Februar Thu 10:00 18:00 APL-Serie: ¥110 Zodiac Pferd Marathon ¥110 ¥50,000
15. Februar Thu 10:00 18:00 APL-Serie: ¥1.100 Hold'em-Marathon ¥1,100 ¥88,000
15. Februar Thu 10:00 18:00 APL-Serie: ¥110 Zodiac Pferd Marathon ¥110 ¥50,000
15. Februar Thu 10:30 18:30 APL-Serie: ¥840 Hold'em-Kopfgeld ¥840 ¥125,000
15. Februar Thu 10:30 18:30 APL-Serie: ¥85.50 Hold'em-Kopfgeld ¥85.5 ¥60,000
15. Februar Thu 10:30 18:30 APL-Serie: ¥840 Hold'em-Kopfgeld ¥840 ¥125,000
15. Februar Thu 10:30 18:30 APL-Serie: ¥85.50 Hold'em-Kopfgeld ¥85.5 ¥60,000
15. Februar Thu 11:00 19:00 APL-Serie: ¥2.024 Zodiac Ziege High Roller ¥2,024 ¥130,000
15. Februar Thu 11:00 19:00 APL-Serie: ¥2.024 Zodiac Ziege High Roller ¥2,024 ¥130,000
15. Februar Thu 11:30 19:30 APL-Serie: ¥2.100 Bounty High Roller ¥2,100 ¥130,000
15. Februar Thu 11:30 19:30 APL-Serie: ¥215 Zodiac-Affenkönig-Kopfgeld ¥215 ¥125,000
15. Februar Thu 11:30 19:30 APL-Serie: ¥2.100 Bounty High Roller ¥2,100 ¥130,000
15. Februar Thu 11:30 19:30 APL-Serie: ¥215 Zodiac-Affenkönig-Kopfgeld ¥215 ¥125,000
15. Februar Thu 12:00 20:00 APL-Serie: ¥388 Zodiac Hauptveranstaltung, ¥250K GTD ¥388 ¥300,000
15. Februar Thu 12:00 20:00 APL-Serie: ¥388 Zodiac Hauptveranstaltung, ¥250K GTD ¥388 ¥300,000
15. Februar Thu 13:00 21:00 APL-Serie: ¥5.500 Deepstack High Roller ¥5,500 ¥200,000
15. Februar Thu 13:00 21:00 APL-Serie: ¥550 Hold'em Deepstack ¥550 ¥100,000
15. Februar Thu 13:00 21:00 APL-Serie: ¥50 Zodiac-Hahn-Sonnenuntergang-Spezial ¥50 ¥35,000
15. Februar Thu 13:00 21:00 APL-Serie: ¥5.500 Deepstack High Roller ¥5,500 ¥200,000
15. Februar Thu 13:00 21:00 APL-Serie: ¥550 Hold'em Deepstack ¥550 ¥100,000
15. Februar Thu 13:00 21:00 APL-Serie: ¥50 Zodiac-Hahn-Sonnenuntergang-Spezial ¥50 ¥35,000
15. Februar Thu 13:10 21:10 APL-Serie: ¥3,150 Kurzdeck-Kopfgeld HR ¥3,150 ¥88,000
15. Februar Thu 13:10 21:10 APL-Serie: ¥320 Short Deck Bounty ¥320 ¥25,000
15. Februar Thu 13:10 21:10 APL-Serie: ¥3,150 Kurzdeck-Kopfgeld HR ¥3,150 ¥88,000
15. Februar Thu 13:10 21:10 APL-Serie: ¥320 Short Deck Bounty ¥320 ¥25,000
15. Februar Thu 13:40 21:40 APL-Serie: ¥5.250 PLO-NL-Kopfgeld HR ¥5,250 ¥88,000
15. Februar Thu 13:40 21:40 APL-Serie: ¥530 PLO-NL-Bounty ¥530 ¥30,000
15. Februar Thu 13:40 21:40 APL-Serie: ¥5.250 PLO-NL-Kopfgeld HR ¥5,250 ¥88,000
15. Februar Thu 13:40 21:40 APL-Serie: ¥530 PLO-NL-Bounty ¥530 ¥30,000
15. Februar Thu 14:00 22:00 APL-Serie: ¥1.100 Hold'em Klassisch ¥1,100 ¥100,000
15. Februar Thu 14:00 22:00 APL-Serie: ¥110 Zodiac Dog Ultra Deepstack Turbo ¥110 ¥50,000
15. Februar Thu 14:00 22:00 APL-Serie: ¥1.100 Hold'em Klassisch ¥1,100 ¥100,000
15. Februar Thu 14:00 22:00 APL-Serie: ¥110 Zodiac Dog Ultra Deepstack Turbo ¥110 ¥50,000
15. Februar Thu 14:10 22:10 APL-Serie: ¥8,000 Kurzes Deck HR [3-Stapel] ¥8,000 ¥100,000
15. Februar Thu 14:10 22:10 APL-Serie: ¥800 Short Deck [3-Stapel] ¥800 ¥25,000
15. Februar Thu 14:10 22:10 APL-Serie: ¥8,000 Kurzes Deck HR [3-Stapel] ¥8,000 ¥100,000
15. Februar Thu 14:10 22:10 APL-Serie: ¥800 Short Deck [3-Stapel] ¥800 ¥25,000
15. Februar Thu 14:30 22:30 APL-Serie: ¥3.150 Bounty High Roller ¥3,150 ¥180,000
15. Februar Thu 14:30 22:30 APL-Serie: ¥320 Zodiac-Schwein-Schmaus ¥320 ¥180,000
15. Februar Thu 14:30 22:30 APL-Serie: ¥3.150 Bounty High Roller ¥3,150 ¥180,000
15. Februar Thu 14:30 22:30 APL-Serie: ¥320 Zodiac-Schwein-Schmaus ¥320 ¥180,000
15. Februar Thu 14:40 22:40 APL-Serie: ¥1.100 PLO-NL Klassisch ¥1,100 ¥25,000
15. Februar Thu 14:40 22:40 APL-Serie: ¥1.100 PLO-NL Klassisch ¥1,100 ¥25,000
15. Februar Thu 15:00 23:00 APL-Serie: ¥5.500 High Roller 6-Max ¥5,500 ¥250,000
15. Februar Thu 15:00 23:00 APL-Serie: ¥800 Hold'em 6-Max ¥800 ¥150,000
15. Februar Thu 15:00 23:00 APL-Serie: ¥5.500 High Roller 6-Max ¥5,500 ¥250,000
15. Februar Thu 15:00 23:00 APL-Serie: ¥800 Hold'em 6-Max ¥800 ¥150,000
15. Februar Thu 15:10 23:10 APL-Serie: ¥530 Short Deck Bounty [Turbo] ¥530 ¥30,000
15. Februar Thu 15:10 23:10 APL-Serie: ¥530 Short Deck Bounty [Turbo] ¥530 ¥30,000
15. Februar Thu 15:40 23:40 APL-Serie: ¥530 PLO-NL Bounty [Turbo] ¥530 ¥30,000
15. Februar Thu 15:40 23:40 APL-Serie: ¥530 PLO-NL Bounty [Turbo] ¥530 ¥30,000
15. Februar Thu 16:00 0:00 APL-Serie: ¥330 Midnight Madness [Hyper] ¥330 ¥60,000
15. Februar Thu 16:00 0:00 APL-Serie: ¥330 Midnight Madness [Hyper] ¥330 ¥60,000
15. Februar Thu 16:30 0:30 APL-Serie: ¥2,100 Speed Racer Kopfgeld Schließer HR ¥2,100 ¥75,000
15. Februar Thu 16:30 0:30 APL-Serie: ¥215 Speed Racer Kopfgeldjäger ¥215 ¥50,000
15. Februar Thu 16:30 0:30 APL-Serie: ¥2,100 Speed Racer Kopfgeld Schließer HR ¥2,100 ¥75,000
15. Februar Thu 16:30 0:30 APL-Serie: ¥215 Speed Racer Kopfgeldjäger ¥215 ¥50,000
16. Februar Fr 5:00 13:00 APL-Serie: ¥550 Daily Opener ¥550 ¥60,000
16. Februar Fr 5:00 13:00 APL-Serie: ¥88 Sternzeichen-Rattenöffner ¥88 ¥30,000
16. Februar Fr 5:00 13:00 APL-Serie: ¥550 Daily Opener ¥550 ¥60,000
16. Februar Fr 5:00 13:00 APL-Serie: ¥88 Sternzeichen-Rattenöffner ¥88 ¥30,000
16. Februar Fr 6:00 14:00 APL-Serie: ¥1.100 Deepstack High Roller ¥1,100 ¥80,000
16. Februar Fr 6:00 14:00 APL-Serie: ¥330 Zodiac Ox Strong Stack ¥330 ¥70,000
16. Februar Fr 6:00 14:00 APL-Serie: ¥1.100 Deepstack High Roller ¥1,100 ¥80,000
16. Februar Fr 6:00 14:00 APL-Serie: ¥330 Zodiac Ox Strong Stack ¥330 ¥70,000
16. Februar Fr 7:00 15:00 APL-Serie: ¥1.050 Bounty High Roller ¥1,050 ¥100,000
16. Februar Fr 7:00 15:00 APL-Serie: ¥108 Zodiac Tiger King Bounty ¥108 ¥70,000
16. Februar Fr 7:00 15:00 APL-Serie: ¥1.050 Bounty High Roller ¥1,050 ¥100,000
16. Februar Fr 7:00 15:00 APL-Serie: ¥108 Zodiac Tiger King Bounty ¥108 ¥70,000
16. Februar Fr 8:00 16:00 APL-Serie: ¥220 Hold'em Klassisch ¥220 ¥50,000
16. Februar Fr 8:00 16:00 APL-Serie: ¥85.50 Zodiac-Kaninchen Glückskopfgeld ¥85.5 ¥50,000
16. Februar Fr 8:00 16:00 APL-Serie: ¥220 Hold'em Klassisch ¥220 ¥50,000
16. Februar Fr 8:00 16:00 APL-Serie: ¥85.50 Zodiac-Kaninchen Glückskopfgeld ¥85.5 ¥50,000
16. Februar Fr 9:00 17:00 APL-Serie: ¥80 Hold'em Klassisch ¥80 ¥30,000
16. Februar Fr 9:00 17:00 APL-Serie: ¥800 Zodiac Dragon High Roller ¥800 ¥100,000
16. Februar Fr 9:00 17:00 APL-Serie: ¥80 Hold'em Klassisch ¥80 ¥30,000
16. Februar Fr 9:00 17:00 APL-Serie: ¥800 Zodiac Dragon High Roller ¥800 ¥100,000
16. Februar Fr 9:30 17:30 APL-Serie: ¥630 Hold'em-Kopfgeld [6-Max] ¥630 ¥120,000
16. Februar Fr 9:30 17:30 APL-Serie: ¥64.50 Zodiac-Schlangen-Bounty [6-Max] ¥64.5 ¥50,000
16. Februar Fr 9:30 17:30 APL-Serie: ¥630 Hold'em-Kopfgeld [6-Max] ¥630 ¥120,000
16. Februar Fr 9:30 17:30 APL-Serie: ¥64.50 Zodiac-Schlangen-Bounty [6-Max] ¥64.5 ¥50,000
16. Februar Fr 10:00 18:00 APL-Serie: ¥1.100 Hold'em-Marathon ¥1,100 ¥88,000
16. Februar Fr 10:00 18:00 APL-Serie: ¥110 Zodiac Pferd Marathon ¥110 ¥50,000
16. Februar Fr 10:00 18:00 APL-Serie: ¥1.100 Hold'em-Marathon ¥1,100 ¥88,000
16. Februar Fr 10:00 18:00 APL-Serie: ¥110 Zodiac Pferd Marathon ¥110 ¥50,000
16. Februar Fr 10:30 18:30 APL-Serie: ¥840 Hold'em-Kopfgeld ¥840 ¥125,000
16. Februar Fr 10:30 18:30 APL-Serie: ¥85.50 Hold'em-Kopfgeld ¥85.5 ¥60,000
16. Februar Fr 10:30 18:30 APL-Serie: ¥840 Hold'em-Kopfgeld ¥840 ¥125,000
16. Februar Fr 10:30 18:30 APL-Serie: ¥85.50 Hold'em-Kopfgeld ¥85.5 ¥60,000
16. Februar Fr 11:00 19:00 APL-Serie: ¥2.024 Zodiac Ziege High Roller ¥2,024 ¥130,000
16. Februar Fr 11:00 19:00 APL-Serie: ¥2.024 Zodiac Ziege High Roller ¥2,024 ¥130,000
16. Februar Fr 11:30 19:30 APL-Serie: ¥2.100 Bounty High Roller ¥2,100 ¥130,000
16. Februar Fr 11:30 19:30 APL-Serie: ¥215 Zodiac-Affenkönig-Kopfgeld ¥215 ¥125,000
16. Februar Fr 11:30 19:30 APL-Serie: ¥2.100 Bounty High Roller ¥2,100 ¥130,000
16. Februar Fr 11:30 19:30 APL-Serie: ¥215 Zodiac-Affenkönig-Kopfgeld ¥215 ¥125,000
16. Februar Fr 12:00 20:00 APL-Serie: ¥388 Zodiac Hauptveranstaltung, ¥250K GTD ¥388 ¥300,000
16. Februar Fr 12:00 20:00 APL-Serie: ¥388 Zodiac Hauptveranstaltung, ¥250K GTD ¥388 ¥300,000
16. Februar Fr 13:00 21:00 APL-Serie: ¥5.500 Deepstack High Roller ¥5,500 ¥200,000
16. Februar Fr 13:00 21:00 APL-Serie: ¥550 Hold'em Deepstack ¥550 ¥100,000
16. Februar Fr 13:00 21:00 APL-Serie: ¥50 Zodiac-Hahn-Sonnenuntergang-Spezial ¥50 ¥35,000
16. Februar Fr 13:00 21:00 APL-Serie: ¥5.500 Deepstack High Roller ¥5,500 ¥200,000
16. Februar Fr 13:00 21:00 APL-Serie: ¥550 Hold'em Deepstack ¥550 ¥100,000
16. Februar Fr 13:00 21:00 APL-Serie: ¥50 Zodiac-Hahn-Sonnenuntergang-Spezial ¥50 ¥35,000
16. Februar Fr 13:10 21:10 APL-Serie: ¥3,150 Kurzdeck-Kopfgeld HR ¥3,150 ¥88,000
16. Februar Fr 13:10 21:10 APL-Serie: ¥320 Short Deck Bounty ¥320 ¥25,000
16. Februar Fr 13:10 21:10 APL-Serie: ¥3,150 Kurzdeck-Kopfgeld HR ¥3,150 ¥88,000
16. Februar Fr 13:10 21:10 APL-Serie: ¥320 Short Deck Bounty ¥320 ¥25,000
16. Februar Fr 13:40 21:40 APL-Serie: ¥5.250 PLO-NL-Kopfgeld HR ¥5,250 ¥88,000
16. Februar Fr 13:40 21:40 APL-Serie: ¥530 PLO-NL-Bounty ¥530 ¥30,000
16. Februar Fr 13:40 21:40 APL-Serie: ¥5.250 PLO-NL-Kopfgeld HR ¥5,250 ¥88,000
16. Februar Fr 13:40 21:40 APL-Serie: ¥530 PLO-NL-Bounty ¥530 ¥30,000
16. Februar Fr 14:00 22:00 APL-Serie: ¥1.100 Hold'em Klassisch ¥1,100 ¥100,000
16. Februar Fr 14:00 22:00 APL-Serie: ¥110 Zodiac Dog Ultra Deepstack Turbo ¥110 ¥50,000
16. Februar Fr 14:00 22:00 APL-Serie: ¥1.100 Hold'em Klassisch ¥1,100 ¥100,000
16. Februar Fr 14:00 22:00 APL-Serie: ¥110 Zodiac Dog Ultra Deepstack Turbo ¥110 ¥50,000
16. Februar Fr 14:10 22:10 APL-Serie: ¥8,000 Kurzes Deck HR [3-Stapel] ¥8,000 ¥100,000
16. Februar Fr 14:10 22:10 APL-Serie: ¥800 Short Deck [3-Stapel] ¥800 ¥25,000
16. Februar Fr 14:10 22:10 APL-Serie: ¥8,000 Kurzes Deck HR [3-Stapel] ¥8,000 ¥100,000
16. Februar Fr 14:10 22:10 APL-Serie: ¥800 Short Deck [3-Stapel] ¥800 ¥25,000
16. Februar Fr 14:30 22:30 APL-Serie: ¥3.150 Bounty High Roller ¥3,150 ¥180,000
16. Februar Fr 14:30 22:30 APL-Serie: ¥320 Zodiac-Schwein-Schmaus ¥320 ¥180,000
16. Februar Fr 14:30 22:30 APL-Serie: ¥3.150 Bounty High Roller ¥3,150 ¥180,000
16. Februar Fr 14:30 22:30 APL-Serie: ¥320 Zodiac-Schwein-Schmaus ¥320 ¥180,000
16. Februar Fr 14:40 22:40 APL-Serie: ¥1.100 PLO-NL Klassisch ¥1,100 ¥25,000
16. Februar Fr 14:40 22:40 APL-Serie: ¥1.100 PLO-NL Klassisch ¥1,100 ¥25,000
16. Februar Fr 15:00 23:00 APL-Serie: ¥5.500 High Roller 6-Max ¥5,500 ¥250,000
16. Februar Fr 15:00 23:00 APL-Serie: ¥800 Hold'em 6-Max ¥800 ¥150,000
16. Februar Fr 15:00 23:00 APL-Serie: ¥5.500 High Roller 6-Max ¥5,500 ¥250,000
16. Februar Fr 15:00 23:00 APL-Serie: ¥800 Hold'em 6-Max ¥800 ¥150,000
16. Februar Fr 15:10 23:10 APL-Serie: ¥530 Short Deck Bounty [Turbo] ¥530 ¥30,000
16. Februar Fr 15:10 23:10 APL-Serie: ¥530 Short Deck Bounty [Turbo] ¥530 ¥30,000
16. Februar Fr 15:40 23:40 APL-Serie: ¥530 PLO-NL Bounty [Turbo] ¥530 ¥30,000
16. Februar Fr 15:40 23:40 APL-Serie: ¥530 PLO-NL Bounty [Turbo] ¥530 ¥30,000
16. Februar Fr 16:00 0:00 APL-Serie: ¥330 Midnight Madness [Hyper] ¥330 ¥60,000
16. Februar Fr 16:00 0:00 APL-Serie: ¥330 Midnight Madness [Hyper] ¥330 ¥60,000
16. Februar Fr 16:30 0:30 APL-Serie: ¥2,100 Speed Racer Kopfgeld Schließer HR ¥2,100 ¥75,000
16. Februar Fr 16:30 0:30 APL-Serie: ¥215 Speed Racer Kopfgeldjäger ¥215 ¥50,000
16. Februar Fr 16:30 0:30 APL-Serie: ¥2,100 Speed Racer Kopfgeld Schließer HR ¥2,100 ¥75,000
16. Februar Fr 16:30 0:30 APL-Serie: ¥215 Speed Racer Kopfgeldjäger ¥215 ¥50,000
17. Februar Sat 5:00 13:00 APL-Serie: ¥550 Daily Opener ¥550 ¥60,000
17. Februar Sat 5:00 13:00 APL-Serie: ¥88 Sternzeichen-Rattenöffner ¥88 ¥30,000
17. Februar Sat 5:00 13:00 APL-Serie: ¥550 Daily Opener ¥550 ¥60,000
17. Februar Sat 5:00 13:00 APL-Serie: ¥88 Sternzeichen-Rattenöffner ¥88 ¥30,000
17. Februar Sat 6:00 14:00 APL-Serie: ¥1.100 Deepstack High Roller ¥1,100 ¥80,000
17. Februar Sat 6:00 14:00 APL-Serie: ¥330 Zodiac Ox Strong Stack ¥330 ¥70,000
17. Februar Sat 6:00 14:00 APL-Serie: ¥1.100 Deepstack High Roller ¥1,100 ¥80,000
17. Februar Sat 6:00 14:00 APL-Serie: ¥330 Zodiac Ox Strong Stack ¥330 ¥70,000
17. Februar Sat 7:00 15:00 APL-Serie: ¥1.050 Bounty High Roller ¥1,050 ¥100,000
17. Februar Sat 7:00 15:00 APL-Serie: ¥108 Zodiac Tiger King Bounty ¥108 ¥70,000
17. Februar Sat 7:00 15:00 APL-Serie: ¥1.050 Bounty High Roller ¥1,050 ¥100,000
17. Februar Sat 7:00 15:00 APL-Serie: ¥108 Zodiac Tiger King Bounty ¥108 ¥70,000
17. Februar Sat 8:00 16:00 APL-Serie: ¥220 Hold'em Klassisch ¥220 ¥50,000
17. Februar Sat 8:00 16:00 APL-Serie: ¥85.50 Zodiac-Kaninchen Glückskopfgeld ¥85.5 ¥50,000
17. Februar Sat 8:00 16:00 APL-Serie: ¥220 Hold'em Klassisch ¥220 ¥50,000
17. Februar Sat 8:00 16:00 APL-Serie: ¥85.50 Zodiac-Kaninchen Glückskopfgeld ¥85.5 ¥50,000
17. Februar Sat 9:00 17:00 APL-Serie: ¥80 Hold'em Klassisch ¥80 ¥30,000
17. Februar Sat 9:00 17:00 APL-Serie: ¥800 Zodiac Dragon High Roller ¥800 ¥100,000
17. Februar Sat 9:00 17:00 APL-Serie: ¥80 Hold'em Klassisch ¥80 ¥30,000
17. Februar Sat 9:00 17:00 APL-Serie: ¥800 Zodiac Dragon High Roller ¥800 ¥100,000
17. Februar Sat 9:30 17:30 APL-Serie: ¥630 Hold'em-Kopfgeld [6-Max] ¥630 ¥120,000
17. Februar Sat 9:30 17:30 APL-Serie: ¥64.50 Zodiac-Schlangen-Bounty [6-Max] ¥64.5 ¥50,000
17. Februar Sat 9:30 17:30 APL-Serie: ¥630 Hold'em-Kopfgeld [6-Max] ¥630 ¥120,000
17. Februar Sat 9:30 17:30 APL-Serie: ¥64.50 Zodiac-Schlangen-Bounty [6-Max] ¥64.5 ¥50,000
17. Februar Sat 10:00 18:00 APL-Serie: ¥1.100 Hold'em-Marathon ¥1,100 ¥88,000
17. Februar Sat 10:00 18:00 APL-Serie: ¥110 Zodiac Pferd Marathon ¥110 ¥50,000
17. Februar Sat 10:00 18:00 APL-Serie: ¥1.100 Hold'em-Marathon ¥1,100 ¥88,000
17. Februar Sat 10:00 18:00 APL-Serie: ¥110 Zodiac Pferd Marathon ¥110 ¥50,000
17. Februar Sat 10:30 18:30 APL-Serie: ¥840 Hold'em-Kopfgeld ¥840 ¥125,000
17. Februar Sat 10:30 18:30 APL-Serie: ¥85.50 Hold'em-Kopfgeld ¥85.5 ¥60,000
17. Februar Sat 10:30 18:30 APL-Serie: ¥840 Hold'em-Kopfgeld ¥840 ¥125,000
17. Februar Sat 10:30 18:30 APL-Serie: ¥85.50 Hold'em-Kopfgeld ¥85.5 ¥60,000
17. Februar Sat 11:00 19:00 APL-Serie: ¥2.024 Zodiac Ziege High Roller ¥2,024 ¥130,000
17. Februar Sat 11:00 19:00 APL-Serie: ¥2.024 Zodiac Ziege High Roller ¥2,024 ¥130,000
17. Februar Sat 11:30 19:30 APL-Serie: ¥2.100 Bounty High Roller ¥2,100 ¥130,000
17. Februar Sat 11:30 19:30 APL-Serie: ¥215 Zodiac-Affenkönig-Kopfgeld ¥215 ¥125,000
17. Februar Sat 11:30 19:30 APL-Serie: ¥2.100 Bounty High Roller ¥2,100 ¥130,000
17. Februar Sat 11:30 19:30 APL-Serie: ¥215 Zodiac-Affenkönig-Kopfgeld ¥215 ¥125,000
17. Februar Sat 12:00 20:00 APL-Serie: ¥388 Zodiac Hauptveranstaltung, ¥250K GTD ¥388 ¥300,000
17. Februar Sat 12:00 20:00 APL-Serie: ¥388 Zodiac Hauptveranstaltung, ¥250K GTD ¥388 ¥300,000
17. Februar Sat 13:00 21:00 APL-Serie: ¥5.500 Deepstack High Roller ¥5,500 ¥200,000
17. Februar Sat 13:00 21:00 APL-Serie: ¥550 Hold'em Deepstack ¥550 ¥100,000
17. Februar Sat 13:00 21:00 APL-Serie: ¥50 Zodiac-Hahn-Sonnenuntergang-Spezial ¥50 ¥35,000
17. Februar Sat 13:00 21:00 APL-Serie: ¥5.500 Deepstack High Roller ¥5,500 ¥200,000
17. Februar Sat 13:00 21:00 APL-Serie: ¥550 Hold'em Deepstack ¥550 ¥100,000
17. Februar Sat 13:00 21:00 APL-Serie: ¥50 Zodiac-Hahn-Sonnenuntergang-Spezial ¥50 ¥35,000
17. Februar Sat 13:10 21:10 APL-Serie: ¥3,150 Kurzdeck-Kopfgeld HR ¥3,150 ¥88,000
17. Februar Sat 13:10 21:10 APL-Serie: ¥320 Short Deck Bounty ¥320 ¥25,000
17. Februar Sat 13:10 21:10 APL-Serie: ¥3,150 Kurzdeck-Kopfgeld HR ¥3,150 ¥88,000
17. Februar Sat 13:10 21:10 APL-Serie: ¥320 Short Deck Bounty ¥320 ¥25,000
17. Februar Sat 13:40 21:40 APL-Serie: ¥5.250 PLO-NL-Kopfgeld HR ¥5,250 ¥88,000
17. Februar Sat 13:40 21:40 APL-Serie: ¥530 PLO-NL-Bounty ¥530 ¥30,000
17. Februar Sat 13:40 21:40 APL-Serie: ¥5.250 PLO-NL-Kopfgeld HR ¥5,250 ¥88,000
17. Februar Sat 13:40 21:40 APL-Serie: ¥530 PLO-NL-Bounty ¥530 ¥30,000
17. Februar Sat 14:00 22:00 APL-Serie: ¥1.100 Hold'em Klassisch ¥1,100 ¥100,000
17. Februar Sat 14:00 22:00 APL-Serie: ¥110 Zodiac Dog Ultra Deepstack Turbo ¥110 ¥50,000
17. Februar Sat 14:00 22:00 APL-Serie: ¥1.100 Hold'em Klassisch ¥1,100 ¥100,000
17. Februar Sat 14:00 22:00 APL-Serie: ¥110 Zodiac Dog Ultra Deepstack Turbo ¥110 ¥50,000
17. Februar Sat 14:10 22:10 APL-Serie: ¥8,000 Kurzes Deck HR [3-Stapel] ¥8,000 ¥100,000
17. Februar Sat 14:10 22:10 APL-Serie: ¥800 Short Deck [3-Stapel] ¥800 ¥25,000
17. Februar Sat 14:10 22:10 APL-Serie: ¥8,000 Kurzes Deck HR [3-Stapel] ¥8,000 ¥100,000
17. Februar Sat 14:10 22:10 APL-Serie: ¥800 Short Deck [3-Stapel] ¥800 ¥25,000
17. Februar Sat 14:30 22:30 APL-Serie: ¥3.150 Bounty High Roller ¥3,150 ¥180,000
17. Februar Sat 14:30 22:30 APL-Serie: ¥320 Zodiac-Schwein-Schmaus ¥320 ¥180,000
17. Februar Sat 14:30 22:30 APL-Serie: ¥3.150 Bounty High Roller ¥3,150 ¥180,000
17. Februar Sat 14:30 22:30 APL-Serie: ¥320 Zodiac-Schwein-Schmaus ¥320 ¥180,000
17. Februar Sat 14:40 22:40 APL-Serie: ¥1.100 PLO-NL Klassisch ¥1,100 ¥25,000
17. Februar Sat 14:40 22:40 APL-Serie: ¥1.100 PLO-NL Klassisch ¥1,100 ¥25,000
17. Februar Sat 15:00 23:00 APL-Serie: ¥5.500 High Roller 6-Max ¥5,500 ¥250,000
17. Februar Sat 15:00 23:00 APL-Serie: ¥800 Hold'em 6-Max ¥800 ¥150,000
17. Februar Sat 15:00 23:00 APL-Serie: ¥5.500 High Roller 6-Max ¥5,500 ¥250,000
17. Februar Sat 15:00 23:00 APL-Serie: ¥800 Hold'em 6-Max ¥800 ¥150,000
17. Februar Sat 15:10 23:10 APL-Serie: ¥530 Short Deck Bounty [Turbo] ¥530 ¥30,000
17. Februar Sat 15:10 23:10 APL-Serie: ¥530 Short Deck Bounty [Turbo] ¥530 ¥30,000
17. Februar Sat 15:40 23:40 APL-Serie: ¥530 PLO-NL Bounty [Turbo] ¥530 ¥30,000
17. Februar Sat 15:40 23:40 APL-Serie: ¥530 PLO-NL Bounty [Turbo] ¥530 ¥30,000
17. Februar Sat 16:00 0:00 APL-Serie: ¥330 Midnight Madness [Hyper] ¥330 ¥60,000
17. Februar Sat 16:00 0:00 APL-Serie: ¥330 Midnight Madness [Hyper] ¥330 ¥60,000
17. Februar Sat 16:30 0:30 APL-Serie: ¥2,100 Speed Racer Kopfgeld Schließer HR ¥2,100 ¥75,000
17. Februar Sat 16:30 0:30 APL-Serie: ¥215 Speed Racer Kopfgeldjäger ¥215 ¥50,000
17. Februar Sat 16:30 0:30 APL-Serie: ¥2,100 Speed Racer Kopfgeld Schließer HR ¥2,100 ¥75,000
17. Februar Sat 16:30 0:30 APL-Serie: ¥215 Speed Racer Kopfgeldjäger ¥215 ¥50,000
18. Februar Sonne 5:00 13:00 APL-Serie: ¥550 Sonntagsöffner ¥550 ¥60,000
18. Februar Sonne 5:00 13:00 APL-Serie: ¥88 Sternzeichen-Rattenöffner ¥88 ¥30,000
18. Februar Sonne 6:00 14:00 APL-Serie: ¥1.100 Sonntag High Roller Deepstack ¥1,100 ¥88,000
18. Februar Sonne 6:00 14:00 APL-Serie: ¥330 Zodiac Ox Strong Stack ¥330 ¥60,000
18. Februar Sonne 7:00 15:00 APL-Serie: ¥1.050 Sonntag High Roller Bounty ¥1,050 ¥88,000
18. Februar Sonne 7:00 15:00 APL-Serie: ¥108 Zodiac Tiger King Bounty ¥108 ¥70,000
18. Februar Sonne 8:00 16:00 APL-Serie: ¥220 Sonntags-Klassiker ¥220 ¥50,000
18. Februar Sonne 8:00 16:00 APL-Serie: ¥85.50 Zodiac-Kaninchen Glückskopfgeld ¥85.5 ¥60,000
18. Februar Sonne 9:00 17:00 APL-Serie: ¥80 Sonntags-Klassiker ¥80 ¥35,000
18. Februar Sonne 9:00 17:00 APL-Serie: ¥800 Zodiac Dragon High Roller ¥800 ¥150,000
18. Februar Sonne 9:30 17:30 APL-Serie: ¥630 Sonntags-Prämie [6-Max] ¥630 ¥150,000
18. Februar Sonne 9:30 17:30 APL-Serie: ¥64.50 Zodiac-Schlangen-Bounty [6-Max] ¥64.5 ¥60,000
18. Februar Sonne 10:00 18:00 APL-Serie: ¥1,100 Sonntags-Marathon ¥1,100 ¥200,000
18. Februar Sonne 10:00 18:00 APL-Serie: ¥110 Zodiac Pferd Marathon ¥110 ¥70,000
18. Februar Sonne 10:30 18:30 APL-Serie: ¥840 Sonntags-Prämie ¥840 ¥200,000
18. Februar Sonne 10:30 18:30 APL-Serie: ¥85.50 Sonntags-Prämie ¥85.5 ¥100,000
18. Februar Sonne 11:00 19:00 APL-Serie: ¥220 Sonntags-Klassiker ¥220 ¥125,000
18. Februar Sonne 11:00 19:00 APL-Serie: ¥2.024 Zodiac Ziege High Roller ¥2,024 ¥388,000
18. Februar Sonne 11:30 19:30 APL-Serie: ¥2.100 Sonntags-High-Roller-Bounty ¥2,100 ¥388,000
18. Februar Sonne 11:30 19:30 APL-Serie: ¥215 Zodiac-Affenkönig-Kopfgeld ¥215 ¥188,000
18. Februar Sonne 12:00 20:00 APL-Serie: ¥388 Zodiac Hauptveranstaltung, ¥500K GTD ¥388 ¥700,000
18. Februar Sonne 13:00 21:00 APL-Serie: ¥550 Sonntags-Deepstack ¥550 ¥300,000
18. Februar Sonne 13:00 21:00 APL-Serie: ¥10.300 Sonntag HR Hauptevent ¥10,300 ¥1,000,000
18. Februar Sonne 13:00 21:00 APL-Serie: ¥50 Zodiac-Hahn-Sonnenuntergang-Spezial ¥50 ¥60,000
18. Februar Sonne 13:10 21:10 APL-Serie: ¥3,150 Kurzdeck-Kopfgeld HR ¥3,150 ¥125,000
18. Februar Sonne 13:10 21:10 APL-Serie: ¥320 Short Deck Bounty ¥320 ¥50,000
18. Februar Sonne 13:40 21:40 APL-Serie: ¥5.250 PLO-NL-Kopfgeld HR ¥5,250 ¥150,000
18. Februar Sonne 13:40 21:40 APL-Serie: ¥530 PLO-NL-Bounty ¥530 ¥60,000
18. Februar Sonne 14:00 22:00 APL-Serie: ¥1.100 Sonntags-Klassiker ¥1,100 ¥388,000
18. Februar Sonne 14:00 22:00 APL-Serie: ¥110 Zodiac Dog Ultra Deepstack Turbo ¥110 ¥80,000
18. Februar Sonne 14:10 22:10 APL-Serie: ¥8,000 Kurzes Deck HR [3-Stapel] ¥8,000 ¥188,000
18. Februar Sonne 14:10 22:10 APL-Serie: ¥800 Short Deck [3-Stapel] ¥800 ¥50,000
18. Februar Sonne 14:30 22:30 APL-Serie: ¥3.150 Sonntags-High-Roller-Bounty ¥3,150 ¥600,000
18. Februar Sonne 14:30 22:30 APL-Serie: ¥320 Zodiac-Schwein-Schmaus ¥320 ¥388,000
18. Februar Sonne 14:40 22:40 APL-Serie: ¥1.100 PLO-NL Klassisch ¥1,100 ¥60,000
18. Februar Sonne 15:00 23:00 APL-Serie: ¥800 Sonntag 6-Max ¥800 ¥388,000
18. Februar Sonne 15:00 23:00 APL-Serie: ¥5.500 Sonntag High Roller 6-Max ¥5,500 ¥700,000
18. Februar Sonne 15:00 23:00 APL-Serie: ¥25,500 Sonntag SHR ¥25,500 ¥1,000,000
18. Februar Sonne 15:10 23:10 APL-Serie: ¥5.250 Kurzdeck-Kopfgeld HR ¥5,250 ¥200,000
18. Februar Sonne 15:10 23:10 APL-Serie: ¥530 Short Deck Bounty [Turbo] ¥530 ¥50,000
18. Februar Sonne 15:40 23:40 APL-Serie: ¥5.250 PLO-NL-Kopfgeld High Roller ¥5,250 ¥200,000
18. Februar Sonne 15:40 23:40 APL-Serie: ¥530 PLO-NL Bounty [Turbo] ¥530 ¥50,000
18. Februar Sonne 16:00 0:00 APL-Serie: ¥51,000 Sonntag Ultra HR ¥51,000 ¥1,000,000
18. Februar Sonne 16:00 0:00 APL-Serie: ¥330 Midnight Madness [Hyper] ¥330 ¥150,000
18. Februar Sonne 16:30 0:30 APL-Serie: ¥2,100 Speed Racer Kopfgeld Schließer HR ¥2,100 ¥100,000
18. Februar Sonne 16:40 0:40 APL-Serie: ¥1.100 PLO-NL Hundertstapel ¥1,100 ¥80,000
18. Februar Sonne 16:40 0:40 APL-Serie: ¥10.300 PLO-NL Hundertstapel HR ¥10,300 ¥200,000
Bedingungen und Konditionen
  • Die Spieler müssen je nach Gerichtsbarkeit 18+, 19+, 21+ oder 24+ Jahre alt sein, um teilnehmen zu können.
  • Bitte beachten Sie, dass alle Preispools oder Garantien Änderungen unterliegen und einige der auf dieser Website aufgeführten Beträge möglicherweise nicht mehr aktuell sind. Bitte überprüfen Sie die im Spiel-Client aufgeführten Garantiebeträge, um die aktuellsten Informationen zu erhalten.
  • Wir behalten uns das Recht vor, Werbeaktionen, Turniere oder Spielfunktionen jederzeit zu ändern oder auszusetzen.
  • Wenn ein Spieler in den Verdacht betrügerischer Aktivitäten gerät, haben wir das Recht, die Spieler zu untersuchen und zu entfernen, falls sich der Verdacht bestätigt.
  • Diese Bedingungen unterliegen den Allgemeinen Geschäftsbedingungen der Website, die im Spiel-Client zu finden sind.
Es gelten die üblichen Regeln.
Was kostet Sie das Glücksspiel? Rechtzeitig aufhören, verantwortungsvoll spielen www.begambleaware.org | RO | DE(BZGA | BUWEI) | BE | FI | UK | PH